<?xml version="1.0" encoding="UTF-8" standalone="no" ?>
<gpx xmlns="http://www.topografix.com/GPX/1/1" xmlns:xsi="http://www.w3.org/2001/XMLSchema-instance" xsi:schemaLocation="http://www.topografix.com/GPX/1/1 http://www.topografix.com/GPX/1/1/gpx.xsd" version="1.1" creator="VisuGPX - https://www.visugpx.com">
  <metadata>
    <name>Tourmalet depuis Campan</name>
  </metadata>
  <trk>
    <name><![CDATA[Tourmalet depuis Campan]]></name>
    <trkseg>
      <trkpt lat="42.98458" lon="0.22737">
        <ele>847.27</ele>
        <time>2021-10-01T09:27:32.000Z</time>
      </trkpt>
      <trkpt lat="42.9845" lon="0.22714">
        <ele>846.45</ele>
        <time>2021-10-01T09:27:37.000Z</time>
      </trkpt>
      <trkpt lat="42.98426" lon="0.22684">
        <ele>844.33</ele>
        <time>2021-10-01T09:27:42.000Z</time>
      </trkpt>
      <trkpt lat="42.98412" lon="0.22684">
        <ele>842.14</ele>
        <time>2021-10-01T09:27:47.000Z</time>
      </trkpt>
      <trkpt lat="42.98393" lon="0.22687">
        <ele>839.1</ele>
        <time>2021-10-01T09:27:52.000Z</time>
      </trkpt>
      <trkpt lat="42.98379" lon="0.22681">
        <ele>836.93</ele>
        <time>2021-10-01T09:27:57.000Z</time>
      </trkpt>
      <trkpt lat="42.98371" lon="0.22688">
        <ele>834.99</ele>
        <time>2021-10-01T09:28:05.000Z</time>
      </trkpt>
      <trkpt lat="42.9836" lon="0.22692">
        <ele>834.77</ele>
        <time>2021-10-01T09:28:15.000Z</time>
      </trkpt>
      <trkpt lat="42.9835" lon="0.2269">
        <ele>833.38</ele>
        <time>2021-10-01T09:28:20.000Z</time>
      </trkpt>
      <trkpt lat="42.98337" lon="0.22687">
        <ele>832.78</ele>
        <time>2021-10-01T09:28:25.000Z</time>
      </trkpt>
      <trkpt lat="42.98324" lon="0.2269">
        <ele>831.34</ele>
        <time>2021-10-01T09:28:30.000Z</time>
      </trkpt>
      <trkpt lat="42.98315" lon="0.22695">
        <ele>830.89</ele>
        <time>2021-10-01T09:28:35.000Z</time>
      </trkpt>
      <trkpt lat="42.98301" lon="0.227">
        <ele>831.37</ele>
        <time>2021-10-01T09:28:40.000Z</time>
      </trkpt>
      <trkpt lat="42.98288" lon="0.22701">
        <ele>832.73</ele>
        <time>2021-10-01T09:28:45.000Z</time>
      </trkpt>
      <trkpt lat="42.98275" lon="0.22703">
        <ele>834.17</ele>
        <time>2021-10-01T09:28:50.000Z</time>
      </trkpt>
      <trkpt lat="42.98262" lon="0.22705">
        <ele>835.8</ele>
        <time>2021-10-01T09:28:55.000Z</time>
      </trkpt>
      <trkpt lat="42.98247" lon="0.22706">
        <ele>837.67</ele>
        <time>2021-10-01T09:29:00.000Z</time>
      </trkpt>
      <trkpt lat="42.98229" lon="0.22713">
        <ele>840.16</ele>
        <time>2021-10-01T09:29:05.000Z</time>
      </trkpt>
      <trkpt lat="42.98199" lon="0.22707">
        <ele>849.24</ele>
        <time>2021-10-01T09:29:10.000Z</time>
      </trkpt>
      <trkpt lat="42.9818" lon="0.22703">
        <ele>856.44</ele>
        <time>2021-10-01T09:29:15.000Z</time>
      </trkpt>
      <trkpt lat="42.98164" lon="0.22703">
        <ele>861.5</ele>
        <time>2021-10-01T09:29:20.000Z</time>
      </trkpt>
      <trkpt lat="42.98148" lon="0.22705">
        <ele>864</ele>
        <time>2021-10-01T09:29:25.000Z</time>
      </trkpt>
      <trkpt lat="42.98133" lon="0.22709">
        <ele>867.46</ele>
        <time>2021-10-01T09:29:30.000Z</time>
      </trkpt>
      <trkpt lat="42.98119" lon="0.22712">
        <ele>869.61</ele>
        <time>2021-10-01T09:29:35.000Z</time>
      </trkpt>
      <trkpt lat="42.98105" lon="0.22714">
        <ele>871.44</ele>
        <time>2021-10-01T09:29:40.000Z</time>
      </trkpt>
      <trkpt lat="42.98089" lon="0.22715">
        <ele>873.2</ele>
        <time>2021-10-01T09:29:45.000Z</time>
      </trkpt>
      <trkpt lat="42.98075" lon="0.22718">
        <ele>875.04</ele>
        <time>2021-10-01T09:29:50.000Z</time>
      </trkpt>
      <trkpt lat="42.98061" lon="0.22724">
        <ele>875.67</ele>
        <time>2021-10-01T09:29:55.000Z</time>
      </trkpt>
      <trkpt lat="42.98047" lon="0.22733">
        <ele>876.04</ele>
        <time>2021-10-01T09:30:00.000Z</time>
      </trkpt>
      <trkpt lat="42.9803" lon="0.2274">
        <ele>876.58</ele>
        <time>2021-10-01T09:30:05.000Z</time>
      </trkpt>
      <trkpt lat="42.98012" lon="0.22747">
        <ele>876.31</ele>
        <time>2021-10-01T09:30:10.000Z</time>
      </trkpt>
      <trkpt lat="42.97993" lon="0.22753">
        <ele>875.78</ele>
        <time>2021-10-01T09:30:15.000Z</time>
      </trkpt>
      <trkpt lat="42.97979" lon="0.22763">
        <ele>876.02</ele>
        <time>2021-10-01T09:30:20.000Z</time>
      </trkpt>
      <trkpt lat="42.97966" lon="0.22776">
        <ele>878.54</ele>
        <time>2021-10-01T09:30:25.000Z</time>
      </trkpt>
      <trkpt lat="42.97948" lon="0.22785">
        <ele>877.77</ele>
        <time>2021-10-01T09:30:30.000Z</time>
      </trkpt>
      <trkpt lat="42.97929" lon="0.22789">
        <ele>876.29</ele>
        <time>2021-10-01T09:30:35.000Z</time>
      </trkpt>
      <trkpt lat="42.97909" lon="0.22792">
        <ele>875.34</ele>
        <time>2021-10-01T09:30:40.000Z</time>
      </trkpt>
      <trkpt lat="42.97896" lon="0.22806">
        <ele>872.49</ele>
        <time>2021-10-01T09:30:45.000Z</time>
      </trkpt>
      <trkpt lat="42.97883" lon="0.22817">
        <ele>869.45</ele>
        <time>2021-10-01T09:30:50.000Z</time>
      </trkpt>
      <trkpt lat="42.97861" lon="0.22819">
        <ele>869.46</ele>
        <time>2021-10-01T09:30:55.000Z</time>
      </trkpt>
      <trkpt lat="42.97845" lon="0.22819">
        <ele>870.71</ele>
        <time>2021-10-01T09:31:00.000Z</time>
      </trkpt>
      <trkpt lat="42.9783" lon="0.22818">
        <ele>873.93</ele>
        <time>2021-10-01T09:31:05.000Z</time>
      </trkpt>
      <trkpt lat="42.97822" lon="0.22822">
        <ele>876.17</ele>
        <time>2021-10-01T09:31:10.000Z</time>
      </trkpt>
      <trkpt lat="42.97807" lon="0.22826">
        <ele>880.39</ele>
        <time>2021-10-01T09:31:15.000Z</time>
      </trkpt>
      <trkpt lat="42.97794" lon="0.22829">
        <ele>882.08</ele>
        <time>2021-10-01T09:31:20.000Z</time>
      </trkpt>
      <trkpt lat="42.97782" lon="0.22833">
        <ele>883.16</ele>
        <time>2021-10-01T09:31:25.000Z</time>
      </trkpt>
      <trkpt lat="42.97775" lon="0.22842">
        <ele>884.23</ele>
        <time>2021-10-01T09:31:30.000Z</time>
      </trkpt>
      <trkpt lat="42.97762" lon="0.22843">
        <ele>885.43</ele>
        <time>2021-10-01T09:31:35.000Z</time>
      </trkpt>
      <trkpt lat="42.97753" lon="0.22843">
        <ele>885.84</ele>
        <time>2021-10-01T09:31:40.000Z</time>
      </trkpt>
      <trkpt lat="42.97739" lon="0.22842">
        <ele>886.91</ele>
        <time>2021-10-01T09:31:45.000Z</time>
      </trkpt>
      <trkpt lat="42.97728" lon="0.22843">
        <ele>887.8</ele>
        <time>2021-10-01T09:31:50.000Z</time>
      </trkpt>
      <trkpt lat="42.97716" lon="0.22841">
        <ele>887.33</ele>
        <time>2021-10-01T09:31:55.000Z</time>
      </trkpt>
      <trkpt lat="42.97705" lon="0.22842">
        <ele>888.01</ele>
        <time>2021-10-01T09:32:00.000Z</time>
      </trkpt>
      <trkpt lat="42.97696" lon="0.22841">
        <ele>890.66</ele>
        <time>2021-10-01T09:32:05.000Z</time>
      </trkpt>
      <trkpt lat="42.97684" lon="0.2284">
        <ele>891.65</ele>
        <time>2021-10-01T09:32:10.000Z</time>
      </trkpt>
      <trkpt lat="42.97673" lon="0.22835">
        <ele>891.79</ele>
        <time>2021-10-01T09:32:15.000Z</time>
      </trkpt>
      <trkpt lat="42.97664" lon="0.22832">
        <ele>891.28</ele>
        <time>2021-10-01T09:32:20.000Z</time>
      </trkpt>
      <trkpt lat="42.97651" lon="0.22828">
        <ele>891.5</ele>
        <time>2021-10-01T09:32:25.000Z</time>
      </trkpt>
      <trkpt lat="42.97638" lon="0.22824">
        <ele>892.24</ele>
        <time>2021-10-01T09:32:30.000Z</time>
      </trkpt>
      <trkpt lat="42.97625" lon="0.22821">
        <ele>893.2</ele>
        <time>2021-10-01T09:32:35.000Z</time>
      </trkpt>
      <trkpt lat="42.97613" lon="0.22821">
        <ele>893.67</ele>
        <time>2021-10-01T09:32:40.000Z</time>
      </trkpt>
      <trkpt lat="42.97597" lon="0.22821">
        <ele>894.36</ele>
        <time>2021-10-01T09:32:45.000Z</time>
      </trkpt>
      <trkpt lat="42.97581" lon="0.22828">
        <ele>894.43</ele>
        <time>2021-10-01T09:32:50.000Z</time>
      </trkpt>
      <trkpt lat="42.97561" lon="0.22836">
        <ele>894.15</ele>
        <time>2021-10-01T09:32:55.000Z</time>
      </trkpt>
      <trkpt lat="42.97539" lon="0.22847">
        <ele>895.9</ele>
        <time>2021-10-01T09:33:00.000Z</time>
      </trkpt>
      <trkpt lat="42.97518" lon="0.22862">
        <ele>897.07</ele>
        <time>2021-10-01T09:33:05.000Z</time>
      </trkpt>
      <trkpt lat="42.97496" lon="0.22878">
        <ele>898.03</ele>
        <time>2021-10-01T09:33:10.000Z</time>
      </trkpt>
      <trkpt lat="42.97481" lon="0.22896">
        <ele>898.38</ele>
        <time>2021-10-01T09:33:15.000Z</time>
      </trkpt>
      <trkpt lat="42.97467" lon="0.22907">
        <ele>898.43</ele>
        <time>2021-10-01T09:33:20.000Z</time>
      </trkpt>
      <trkpt lat="42.97451" lon="0.22919">
        <ele>897.95</ele>
        <time>2021-10-01T09:33:25.000Z</time>
      </trkpt>
      <trkpt lat="42.97437" lon="0.22928">
        <ele>898.86</ele>
        <time>2021-10-01T09:33:30.000Z</time>
      </trkpt>
      <trkpt lat="42.97423" lon="0.22937">
        <ele>899.79</ele>
        <time>2021-10-01T09:33:35.000Z</time>
      </trkpt>
      <trkpt lat="42.9741" lon="0.22947">
        <ele>901.2</ele>
        <time>2021-10-01T09:33:40.000Z</time>
      </trkpt>
      <trkpt lat="42.97397" lon="0.22958">
        <ele>902.51</ele>
        <time>2021-10-01T09:33:45.000Z</time>
      </trkpt>
      <trkpt lat="42.97388" lon="0.22968">
        <ele>904.14</ele>
        <time>2021-10-01T09:33:50.000Z</time>
      </trkpt>
      <trkpt lat="42.97376" lon="0.22977">
        <ele>906.24</ele>
        <time>2021-10-01T09:33:55.000Z</time>
      </trkpt>
      <trkpt lat="42.97366" lon="0.22985">
        <ele>908.45</ele>
        <time>2021-10-01T09:34:00.000Z</time>
      </trkpt>
      <trkpt lat="42.97354" lon="0.22993">
        <ele>910.37</ele>
        <time>2021-10-01T09:34:05.000Z</time>
      </trkpt>
      <trkpt lat="42.97341" lon="0.23002">
        <ele>912.27</ele>
        <time>2021-10-01T09:34:10.000Z</time>
      </trkpt>
      <trkpt lat="42.97327" lon="0.23007">
        <ele>914.02</ele>
        <time>2021-10-01T09:34:15.000Z</time>
      </trkpt>
      <trkpt lat="42.97312" lon="0.23007">
        <ele>915.55</ele>
        <time>2021-10-01T09:34:20.000Z</time>
      </trkpt>
      <trkpt lat="42.97294" lon="0.23006">
        <ele>916.05</ele>
        <time>2021-10-01T09:34:25.000Z</time>
      </trkpt>
      <trkpt lat="42.97278" lon="0.23009">
        <ele>915.42</ele>
        <time>2021-10-01T09:34:30.000Z</time>
      </trkpt>
      <trkpt lat="42.97261" lon="0.2301">
        <ele>915.82</ele>
        <time>2021-10-01T09:34:35.000Z</time>
      </trkpt>
      <trkpt lat="42.97245" lon="0.23011">
        <ele>916.04</ele>
        <time>2021-10-01T09:34:40.000Z</time>
      </trkpt>
      <trkpt lat="42.97229" lon="0.23015">
        <ele>915.61</ele>
        <time>2021-10-01T09:34:45.000Z</time>
      </trkpt>
      <trkpt lat="42.97212" lon="0.23021">
        <ele>915.4</ele>
        <time>2021-10-01T09:34:50.000Z</time>
      </trkpt>
      <trkpt lat="42.97195" lon="0.23029">
        <ele>915.71</ele>
        <time>2021-10-01T09:34:55.000Z</time>
      </trkpt>
      <trkpt lat="42.9718" lon="0.2304">
        <ele>915.36</ele>
        <time>2021-10-01T09:35:00.000Z</time>
      </trkpt>
      <trkpt lat="42.97166" lon="0.23052">
        <ele>916.11</ele>
        <time>2021-10-01T09:35:05.000Z</time>
      </trkpt>
      <trkpt lat="42.97155" lon="0.23065">
        <ele>917.79</ele>
        <time>2021-10-01T09:35:10.000Z</time>
      </trkpt>
      <trkpt lat="42.97141" lon="0.23075">
        <ele>918.38</ele>
        <time>2021-10-01T09:35:15.000Z</time>
      </trkpt>
      <trkpt lat="42.97127" lon="0.23083">
        <ele>918.88</ele>
        <time>2021-10-01T09:35:20.000Z</time>
      </trkpt>
      <trkpt lat="42.97113" lon="0.23091">
        <ele>919.8</ele>
        <time>2021-10-01T09:35:25.000Z</time>
      </trkpt>
      <trkpt lat="42.97101" lon="0.23101">
        <ele>920.91</ele>
        <time>2021-10-01T09:35:30.000Z</time>
      </trkpt>
      <trkpt lat="42.97089" lon="0.23109">
        <ele>921.83</ele>
        <time>2021-10-01T09:35:35.000Z</time>
      </trkpt>
      <trkpt lat="42.97078" lon="0.23115">
        <ele>922.44</ele>
        <time>2021-10-01T09:35:40.000Z</time>
      </trkpt>
      <trkpt lat="42.97065" lon="0.23116">
        <ele>922.79</ele>
        <time>2021-10-01T09:35:45.000Z</time>
      </trkpt>
      <trkpt lat="42.97048" lon="0.23113">
        <ele>923.46</ele>
        <time>2021-10-01T09:35:50.000Z</time>
      </trkpt>
      <trkpt lat="42.97033" lon="0.2311">
        <ele>923.96</ele>
        <time>2021-10-01T09:35:55.000Z</time>
      </trkpt>
      <trkpt lat="42.97022" lon="0.23107">
        <ele>924.02</ele>
        <time>2021-10-01T09:36:00.000Z</time>
      </trkpt>
      <trkpt lat="42.97009" lon="0.23105">
        <ele>924.15</ele>
        <time>2021-10-01T09:36:05.000Z</time>
      </trkpt>
      <trkpt lat="42.96993" lon="0.231">
        <ele>924.3</ele>
        <time>2021-10-01T09:36:10.000Z</time>
      </trkpt>
      <trkpt lat="42.96981" lon="0.23098">
        <ele>925.18</ele>
        <time>2021-10-01T09:36:15.000Z</time>
      </trkpt>
      <trkpt lat="42.96968" lon="0.23093">
        <ele>925.95</ele>
        <time>2021-10-01T09:36:20.000Z</time>
      </trkpt>
      <trkpt lat="42.96954" lon="0.2309">
        <ele>927.19</ele>
        <time>2021-10-01T09:36:25.000Z</time>
      </trkpt>
      <trkpt lat="42.96941" lon="0.23084">
        <ele>926.54</ele>
        <time>2021-10-01T09:36:30.000Z</time>
      </trkpt>
      <trkpt lat="42.9693" lon="0.23078">
        <ele>926.06</ele>
        <time>2021-10-01T09:36:35.000Z</time>
      </trkpt>
      <trkpt lat="42.96921" lon="0.23072">
        <ele>925.13</ele>
        <time>2021-10-01T09:36:40.000Z</time>
      </trkpt>
      <trkpt lat="42.96911" lon="0.23066">
        <ele>925.85</ele>
        <time>2021-10-01T09:36:45.000Z</time>
      </trkpt>
      <trkpt lat="42.96901" lon="0.23058">
        <ele>926.86</ele>
        <time>2021-10-01T09:36:50.000Z</time>
      </trkpt>
      <trkpt lat="42.96889" lon="0.23053">
        <ele>928.6</ele>
        <time>2021-10-01T09:36:55.000Z</time>
      </trkpt>
      <trkpt lat="42.96879" lon="0.23047">
        <ele>929.47</ele>
        <time>2021-10-01T09:37:00.000Z</time>
      </trkpt>
      <trkpt lat="42.96867" lon="0.23042">
        <ele>929.76</ele>
        <time>2021-10-01T09:37:05.000Z</time>
      </trkpt>
      <trkpt lat="42.96853" lon="0.23039">
        <ele>930.36</ele>
        <time>2021-10-01T09:37:10.000Z</time>
      </trkpt>
      <trkpt lat="42.9684" lon="0.23035">
        <ele>930.96</ele>
        <time>2021-10-01T09:37:15.000Z</time>
      </trkpt>
      <trkpt lat="42.96823" lon="0.23027">
        <ele>936.15</ele>
        <time>2021-10-01T09:37:20.000Z</time>
      </trkpt>
      <trkpt lat="42.96811" lon="0.23025">
        <ele>936.88</ele>
        <time>2021-10-01T09:37:25.000Z</time>
      </trkpt>
      <trkpt lat="42.96798" lon="0.23023">
        <ele>936.75</ele>
        <time>2021-10-01T09:37:30.000Z</time>
      </trkpt>
      <trkpt lat="42.96783" lon="0.2302">
        <ele>937.84</ele>
        <time>2021-10-01T09:37:35.000Z</time>
      </trkpt>
      <trkpt lat="42.96771" lon="0.23017">
        <ele>938.29</ele>
        <time>2021-10-01T09:37:40.000Z</time>
      </trkpt>
      <trkpt lat="42.96752" lon="0.23017">
        <ele>937.22</ele>
        <time>2021-10-01T09:37:45.000Z</time>
      </trkpt>
      <trkpt lat="42.96727" lon="0.23022">
        <ele>936.45</ele>
        <time>2021-10-01T09:37:50.000Z</time>
      </trkpt>
      <trkpt lat="42.96699" lon="0.23029">
        <ele>935.45</ele>
        <time>2021-10-01T09:37:55.000Z</time>
      </trkpt>
      <trkpt lat="42.96675" lon="0.23037">
        <ele>934.81</ele>
        <time>2021-10-01T09:38:00.000Z</time>
      </trkpt>
      <trkpt lat="42.96652" lon="0.23042">
        <ele>933.59</ele>
        <time>2021-10-01T09:38:05.000Z</time>
      </trkpt>
      <trkpt lat="42.96623" lon="0.23042">
        <ele>932.64</ele>
        <time>2021-10-01T09:38:10.000Z</time>
      </trkpt>
      <trkpt lat="42.96595" lon="0.23042">
        <ele>931.72</ele>
        <time>2021-10-01T09:38:15.000Z</time>
      </trkpt>
      <trkpt lat="42.96564" lon="0.23038">
        <ele>930.86</ele>
        <time>2021-10-01T09:38:20.000Z</time>
      </trkpt>
      <trkpt lat="42.96531" lon="0.23033">
        <ele>930.04</ele>
        <time>2021-10-01T09:38:25.000Z</time>
      </trkpt>
      <trkpt lat="42.96504" lon="0.23031">
        <ele>929.53</ele>
        <time>2021-10-01T09:38:30.000Z</time>
      </trkpt>
      <trkpt lat="42.96476" lon="0.23028">
        <ele>928.37</ele>
        <time>2021-10-01T09:38:35.000Z</time>
      </trkpt>
      <trkpt lat="42.96449" lon="0.23031">
        <ele>927.66</ele>
        <time>2021-10-01T09:38:40.000Z</time>
      </trkpt>
      <trkpt lat="42.96419" lon="0.23033">
        <ele>927.13</ele>
        <time>2021-10-01T09:38:45.000Z</time>
      </trkpt>
      <trkpt lat="42.9639" lon="0.23035">
        <ele>926.55</ele>
        <time>2021-10-01T09:38:50.000Z</time>
      </trkpt>
      <trkpt lat="42.9636" lon="0.23033">
        <ele>925.37</ele>
        <time>2021-10-01T09:38:55.000Z</time>
      </trkpt>
      <trkpt lat="42.96332" lon="0.23035">
        <ele>925.3</ele>
        <time>2021-10-01T09:39:00.000Z</time>
      </trkpt>
      <trkpt lat="42.96308" lon="0.23037">
        <ele>925.86</ele>
        <time>2021-10-01T09:39:05.000Z</time>
      </trkpt>
      <trkpt lat="42.96289" lon="0.2304">
        <ele>927.42</ele>
        <time>2021-10-01T09:39:10.000Z</time>
      </trkpt>
      <trkpt lat="42.96273" lon="0.23042">
        <ele>928.81</ele>
        <time>2021-10-01T09:39:15.000Z</time>
      </trkpt>
      <trkpt lat="42.96259" lon="0.23041">
        <ele>929.94</ele>
        <time>2021-10-01T09:39:20.000Z</time>
      </trkpt>
      <trkpt lat="42.96246" lon="0.23038">
        <ele>931.98</ele>
        <time>2021-10-01T09:39:25.000Z</time>
      </trkpt>
      <trkpt lat="42.9623" lon="0.23032">
        <ele>938.05</ele>
        <time>2021-10-01T09:39:30.000Z</time>
      </trkpt>
      <trkpt lat="42.96219" lon="0.2303">
        <ele>940.24</ele>
        <time>2021-10-01T09:39:35.000Z</time>
      </trkpt>
      <trkpt lat="42.96208" lon="0.23029">
        <ele>940.26</ele>
        <time>2021-10-01T09:39:40.000Z</time>
      </trkpt>
      <trkpt lat="42.96196" lon="0.23028">
        <ele>940.47</ele>
        <time>2021-10-01T09:39:45.000Z</time>
      </trkpt>
      <trkpt lat="42.96184" lon="0.23027">
        <ele>941.74</ele>
        <time>2021-10-01T09:39:50.000Z</time>
      </trkpt>
      <trkpt lat="42.96172" lon="0.23025">
        <ele>943.16</ele>
        <time>2021-10-01T09:39:55.000Z</time>
      </trkpt>
      <trkpt lat="42.96161" lon="0.23025">
        <ele>944.06</ele>
        <time>2021-10-01T09:40:00.000Z</time>
      </trkpt>
      <trkpt lat="42.96149" lon="0.23026">
        <ele>945.81</ele>
        <time>2021-10-01T09:40:05.000Z</time>
      </trkpt>
      <trkpt lat="42.96139" lon="0.23026">
        <ele>946.19</ele>
        <time>2021-10-01T09:40:10.000Z</time>
      </trkpt>
      <trkpt lat="42.96129" lon="0.23026">
        <ele>946.82</ele>
        <time>2021-10-01T09:40:15.000Z</time>
      </trkpt>
      <trkpt lat="42.96116" lon="0.23027">
        <ele>945.02</ele>
        <time>2021-10-01T09:40:20.000Z</time>
      </trkpt>
      <trkpt lat="42.96103" lon="0.23025">
        <ele>942.75</ele>
        <time>2021-10-01T09:40:25.000Z</time>
      </trkpt>
      <trkpt lat="42.96088" lon="0.2302">
        <ele>942.3</ele>
        <time>2021-10-01T09:40:30.000Z</time>
      </trkpt>
      <trkpt lat="42.96073" lon="0.23017">
        <ele>943.47</ele>
        <time>2021-10-01T09:40:35.000Z</time>
      </trkpt>
      <trkpt lat="42.9606" lon="0.23015">
        <ele>943.56</ele>
        <time>2021-10-01T09:40:40.000Z</time>
      </trkpt>
      <trkpt lat="42.96046" lon="0.23012">
        <ele>943.68</ele>
        <time>2021-10-01T09:40:45.000Z</time>
      </trkpt>
      <trkpt lat="42.96034" lon="0.23009">
        <ele>944.54</ele>
        <time>2021-10-01T09:40:50.000Z</time>
      </trkpt>
      <trkpt lat="42.9602" lon="0.22998">
        <ele>946.6</ele>
        <time>2021-10-01T09:40:55.000Z</time>
      </trkpt>
      <trkpt lat="42.96004" lon="0.2299">
        <ele>948.11</ele>
        <time>2021-10-01T09:41:00.000Z</time>
      </trkpt>
      <trkpt lat="42.95991" lon="0.22978">
        <ele>950.51</ele>
        <time>2021-10-01T09:41:05.000Z</time>
      </trkpt>
      <trkpt lat="42.95979" lon="0.2297">
        <ele>951.35</ele>
        <time>2021-10-01T09:41:10.000Z</time>
      </trkpt>
      <trkpt lat="42.95966" lon="0.22957">
        <ele>953.01</ele>
        <time>2021-10-01T09:41:15.000Z</time>
      </trkpt>
      <trkpt lat="42.95951" lon="0.22945">
        <ele>953.55</ele>
        <time>2021-10-01T09:41:20.000Z</time>
      </trkpt>
      <trkpt lat="42.95937" lon="0.22932">
        <ele>953.16</ele>
        <time>2021-10-01T09:41:25.000Z</time>
      </trkpt>
      <trkpt lat="42.95921" lon="0.22918">
        <ele>953.66</ele>
        <time>2021-10-01T09:41:30.000Z</time>
      </trkpt>
      <trkpt lat="42.95906" lon="0.22903">
        <ele>954.02</ele>
        <time>2021-10-01T09:41:35.000Z</time>
      </trkpt>
      <trkpt lat="42.9589" lon="0.22891">
        <ele>953.91</ele>
        <time>2021-10-01T09:41:40.000Z</time>
      </trkpt>
      <trkpt lat="42.95872" lon="0.2288">
        <ele>954.09</ele>
        <time>2021-10-01T09:41:45.000Z</time>
      </trkpt>
      <trkpt lat="42.95853" lon="0.22871">
        <ele>954.12</ele>
        <time>2021-10-01T09:41:50.000Z</time>
      </trkpt>
      <trkpt lat="42.95838" lon="0.22867">
        <ele>953.56</ele>
        <time>2021-10-01T09:41:55.000Z</time>
      </trkpt>
      <trkpt lat="42.9582" lon="0.22867">
        <ele>953.33</ele>
        <time>2021-10-01T09:42:00.000Z</time>
      </trkpt>
      <trkpt lat="42.95801" lon="0.22867">
        <ele>953.01</ele>
        <time>2021-10-01T09:42:05.000Z</time>
      </trkpt>
      <trkpt lat="42.9578" lon="0.22862">
        <ele>953.72</ele>
        <time>2021-10-01T09:42:10.000Z</time>
      </trkpt>
      <trkpt lat="42.95762" lon="0.22853">
        <ele>955.17</ele>
        <time>2021-10-01T09:42:15.000Z</time>
      </trkpt>
      <trkpt lat="42.95747" lon="0.22844">
        <ele>955.65</ele>
        <time>2021-10-01T09:42:20.000Z</time>
      </trkpt>
      <trkpt lat="42.95732" lon="0.22836">
        <ele>956.33</ele>
        <time>2021-10-01T09:42:25.000Z</time>
      </trkpt>
      <trkpt lat="42.95717" lon="0.22828">
        <ele>955.92</ele>
        <time>2021-10-01T09:42:30.000Z</time>
      </trkpt>
      <trkpt lat="42.95704" lon="0.22823">
        <ele>955.18</ele>
        <time>2021-10-01T09:42:35.000Z</time>
      </trkpt>
      <trkpt lat="42.95692" lon="0.22819">
        <ele>955.39</ele>
        <time>2021-10-01T09:42:40.000Z</time>
      </trkpt>
      <trkpt lat="42.95679" lon="0.22813">
        <ele>957.14</ele>
        <time>2021-10-01T09:42:45.000Z</time>
      </trkpt>
      <trkpt lat="42.95667" lon="0.22809">
        <ele>958.78</ele>
        <time>2021-10-01T09:42:50.000Z</time>
      </trkpt>
      <trkpt lat="42.95658" lon="0.22806">
        <ele>960.33</ele>
        <time>2021-10-01T09:42:56.000Z</time>
      </trkpt>
      <trkpt lat="42.95647" lon="0.22802">
        <ele>961.16</ele>
        <time>2021-10-01T09:43:01.000Z</time>
      </trkpt>
      <trkpt lat="42.95634" lon="0.22796">
        <ele>962.05</ele>
        <time>2021-10-01T09:43:06.000Z</time>
      </trkpt>
      <trkpt lat="42.95622" lon="0.22792">
        <ele>964.17</ele>
        <time>2021-10-01T09:43:11.000Z</time>
      </trkpt>
      <trkpt lat="42.95608" lon="0.22786">
        <ele>966.6</ele>
        <time>2021-10-01T09:43:16.000Z</time>
      </trkpt>
      <trkpt lat="42.95594" lon="0.22782">
        <ele>968.77</ele>
        <time>2021-10-01T09:43:21.000Z</time>
      </trkpt>
      <trkpt lat="42.95579" lon="0.22781">
        <ele>969.14</ele>
        <time>2021-10-01T09:43:26.000Z</time>
      </trkpt>
      <trkpt lat="42.95565" lon="0.22784">
        <ele>968.85</ele>
        <time>2021-10-01T09:43:31.000Z</time>
      </trkpt>
      <trkpt lat="42.95552" lon="0.22787">
        <ele>969.39</ele>
        <time>2021-10-01T09:43:36.000Z</time>
      </trkpt>
      <trkpt lat="42.95541" lon="0.2279">
        <ele>970.26</ele>
        <time>2021-10-01T09:43:41.000Z</time>
      </trkpt>
      <trkpt lat="42.95525" lon="0.22791">
        <ele>971.56</ele>
        <time>2021-10-01T09:43:46.000Z</time>
      </trkpt>
      <trkpt lat="42.95511" lon="0.22792">
        <ele>972.99</ele>
        <time>2021-10-01T09:43:51.000Z</time>
      </trkpt>
      <trkpt lat="42.95493" lon="0.22791">
        <ele>973.54</ele>
        <time>2021-10-01T09:43:56.000Z</time>
      </trkpt>
      <trkpt lat="42.95477" lon="0.22791">
        <ele>974.1</ele>
        <time>2021-10-01T09:44:01.000Z</time>
      </trkpt>
      <trkpt lat="42.9546" lon="0.22793">
        <ele>974.29</ele>
        <time>2021-10-01T09:44:06.000Z</time>
      </trkpt>
      <trkpt lat="42.95448" lon="0.22795">
        <ele>972.61</ele>
        <time>2021-10-01T09:44:11.000Z</time>
      </trkpt>
      <trkpt lat="42.95435" lon="0.22795">
        <ele>971.67</ele>
        <time>2021-10-01T09:44:16.000Z</time>
      </trkpt>
      <trkpt lat="42.95421" lon="0.22795">
        <ele>971.87</ele>
        <time>2021-10-01T09:44:21.000Z</time>
      </trkpt>
      <trkpt lat="42.95408" lon="0.22795">
        <ele>972.17</ele>
        <time>2021-10-01T09:44:26.000Z</time>
      </trkpt>
      <trkpt lat="42.95393" lon="0.2279">
        <ele>973.26</ele>
        <time>2021-10-01T09:44:31.000Z</time>
      </trkpt>
      <trkpt lat="42.95382" lon="0.22786">
        <ele>973.4</ele>
        <time>2021-10-01T09:44:36.000Z</time>
      </trkpt>
      <trkpt lat="42.95369" lon="0.2278">
        <ele>973.18</ele>
        <time>2021-10-01T09:44:41.000Z</time>
      </trkpt>
      <trkpt lat="42.95357" lon="0.22775">
        <ele>972.81</ele>
        <time>2021-10-01T09:44:46.000Z</time>
      </trkpt>
      <trkpt lat="42.95345" lon="0.22771">
        <ele>972.33</ele>
        <time>2021-10-01T09:44:51.000Z</time>
      </trkpt>
      <trkpt lat="42.95333" lon="0.22765">
        <ele>971.74</ele>
        <time>2021-10-01T09:44:56.000Z</time>
      </trkpt>
      <trkpt lat="42.95316" lon="0.22755">
        <ele>976.75</ele>
        <time>2021-10-01T09:45:01.000Z</time>
      </trkpt>
      <trkpt lat="42.95299" lon="0.22746">
        <ele>979.66</ele>
        <time>2021-10-01T09:45:06.000Z</time>
      </trkpt>
      <trkpt lat="42.95286" lon="0.2274">
        <ele>981.65</ele>
        <time>2021-10-01T09:45:11.000Z</time>
      </trkpt>
      <trkpt lat="42.95273" lon="0.22734">
        <ele>982.39</ele>
        <time>2021-10-01T09:45:16.000Z</time>
      </trkpt>
      <trkpt lat="42.9526" lon="0.22727">
        <ele>982.78</ele>
        <time>2021-10-01T09:45:21.000Z</time>
      </trkpt>
      <trkpt lat="42.95247" lon="0.22722">
        <ele>984.88</ele>
        <time>2021-10-01T09:45:26.000Z</time>
      </trkpt>
      <trkpt lat="42.95235" lon="0.22716">
        <ele>985.93</ele>
        <time>2021-10-01T09:45:31.000Z</time>
      </trkpt>
      <trkpt lat="42.95223" lon="0.22706">
        <ele>986.45</ele>
        <time>2021-10-01T09:45:36.000Z</time>
      </trkpt>
      <trkpt lat="42.95209" lon="0.22694">
        <ele>987.19</ele>
        <time>2021-10-01T09:45:41.000Z</time>
      </trkpt>
      <trkpt lat="42.95195" lon="0.22681">
        <ele>987.82</ele>
        <time>2021-10-01T09:45:46.000Z</time>
      </trkpt>
      <trkpt lat="42.9518" lon="0.22668">
        <ele>987.9</ele>
        <time>2021-10-01T09:45:51.000Z</time>
      </trkpt>
      <trkpt lat="42.95166" lon="0.22657">
        <ele>988.73</ele>
        <time>2021-10-01T09:45:56.000Z</time>
      </trkpt>
      <trkpt lat="42.9515" lon="0.22645">
        <ele>988.71</ele>
        <time>2021-10-01T09:46:01.000Z</time>
      </trkpt>
      <trkpt lat="42.95135" lon="0.22632">
        <ele>989.17</ele>
        <time>2021-10-01T09:46:06.000Z</time>
      </trkpt>
      <trkpt lat="42.95119" lon="0.2262">
        <ele>990.27</ele>
        <time>2021-10-01T09:46:11.000Z</time>
      </trkpt>
      <trkpt lat="42.95101" lon="0.2261">
        <ele>990.67</ele>
        <time>2021-10-01T09:46:16.000Z</time>
      </trkpt>
      <trkpt lat="42.95087" lon="0.22603">
        <ele>992.49</ele>
        <time>2021-10-01T09:46:21.000Z</time>
      </trkpt>
      <trkpt lat="42.95075" lon="0.22598">
        <ele>994.3</ele>
        <time>2021-10-01T09:46:26.000Z</time>
      </trkpt>
      <trkpt lat="42.95062" lon="0.22591">
        <ele>994.94</ele>
        <time>2021-10-01T09:46:31.000Z</time>
      </trkpt>
      <trkpt lat="42.95049" lon="0.22584">
        <ele>996.21</ele>
        <time>2021-10-01T09:46:36.000Z</time>
      </trkpt>
      <trkpt lat="42.95036" lon="0.22578">
        <ele>997.61</ele>
        <time>2021-10-01T09:46:41.000Z</time>
      </trkpt>
      <trkpt lat="42.95024" lon="0.22571">
        <ele>998.08</ele>
        <time>2021-10-01T09:46:46.000Z</time>
      </trkpt>
      <trkpt lat="42.95012" lon="0.22564">
        <ele>999.33</ele>
        <time>2021-10-01T09:46:51.000Z</time>
      </trkpt>
      <trkpt lat="42.95003" lon="0.2256">
        <ele>1000.34</ele>
        <time>2021-10-01T09:46:56.000Z</time>
      </trkpt>
      <trkpt lat="42.94994" lon="0.22557">
        <ele>1001.53</ele>
        <time>2021-10-01T09:47:01.000Z</time>
      </trkpt>
      <trkpt lat="42.94984" lon="0.22556">
        <ele>1002.84</ele>
        <time>2021-10-01T09:47:06.000Z</time>
      </trkpt>
      <trkpt lat="42.94974" lon="0.22555">
        <ele>1004.36</ele>
        <time>2021-10-01T09:47:12.000Z</time>
      </trkpt>
      <trkpt lat="42.94963" lon="0.22552">
        <ele>1006.41</ele>
        <time>2021-10-01T09:47:17.000Z</time>
      </trkpt>
      <trkpt lat="42.94953" lon="0.22549">
        <ele>1008.54</ele>
        <time>2021-10-01T09:47:22.000Z</time>
      </trkpt>
      <trkpt lat="42.94944" lon="0.22544">
        <ele>1010.3</ele>
        <time>2021-10-01T09:47:27.000Z</time>
      </trkpt>
      <trkpt lat="42.94935" lon="0.22534">
        <ele>1010.66</ele>
        <time>2021-10-01T09:47:32.000Z</time>
      </trkpt>
      <trkpt lat="42.94926" lon="0.22522">
        <ele>1010.69</ele>
        <time>2021-10-01T09:47:37.000Z</time>
      </trkpt>
      <trkpt lat="42.94917" lon="0.22508">
        <ele>1010.31</ele>
        <time>2021-10-01T09:47:42.000Z</time>
      </trkpt>
      <trkpt lat="42.9491" lon="0.22495">
        <ele>1010.03</ele>
        <time>2021-10-01T09:47:47.000Z</time>
      </trkpt>
      <trkpt lat="42.94903" lon="0.2248">
        <ele>1009.51</ele>
        <time>2021-10-01T09:47:52.000Z</time>
      </trkpt>
      <trkpt lat="42.94897" lon="0.22464">
        <ele>1009.13</ele>
        <time>2021-10-01T09:47:57.000Z</time>
      </trkpt>
      <trkpt lat="42.94889" lon="0.22454">
        <ele>1009.32</ele>
        <time>2021-10-01T09:48:02.000Z</time>
      </trkpt>
      <trkpt lat="42.94879" lon="0.22449">
        <ele>1010.31</ele>
        <time>2021-10-01T09:48:07.000Z</time>
      </trkpt>
      <trkpt lat="42.94869" lon="0.22444">
        <ele>1011.37</ele>
        <time>2021-10-01T09:48:12.000Z</time>
      </trkpt>
      <trkpt lat="42.94858" lon="0.22443">
        <ele>1010.54</ele>
        <time>2021-10-01T09:48:17.000Z</time>
      </trkpt>
      <trkpt lat="42.94847" lon="0.22451">
        <ele>1008.29</ele>
        <time>2021-10-01T09:48:22.000Z</time>
      </trkpt>
      <trkpt lat="42.94836" lon="0.22445">
        <ele>1008.54</ele>
        <time>2021-10-01T09:48:27.000Z</time>
      </trkpt>
      <trkpt lat="42.94825" lon="0.22436">
        <ele>1009.33</ele>
        <time>2021-10-01T09:48:32.000Z</time>
      </trkpt>
      <trkpt lat="42.94811" lon="0.22426">
        <ele>1010.51</ele>
        <time>2021-10-01T09:48:37.000Z</time>
      </trkpt>
      <trkpt lat="42.94795" lon="0.22413">
        <ele>1011.23</ele>
        <time>2021-10-01T09:48:42.000Z</time>
      </trkpt>
      <trkpt lat="42.94779" lon="0.22401">
        <ele>1011.67</ele>
        <time>2021-10-01T09:48:47.000Z</time>
      </trkpt>
      <trkpt lat="42.94763" lon="0.2239">
        <ele>1012.48</ele>
        <time>2021-10-01T09:48:52.000Z</time>
      </trkpt>
      <trkpt lat="42.94755" lon="0.22382">
        <ele>1013.46</ele>
        <time>2021-10-01T09:48:57.000Z</time>
      </trkpt>
      <trkpt lat="42.94747" lon="0.22374">
        <ele>1014.99</ele>
        <time>2021-10-01T09:49:02.000Z</time>
      </trkpt>
      <trkpt lat="42.94739" lon="0.22365">
        <ele>1016.15</ele>
        <time>2021-10-01T09:49:07.000Z</time>
      </trkpt>
      <trkpt lat="42.94731" lon="0.22357">
        <ele>1017.48</ele>
        <time>2021-10-01T09:49:12.000Z</time>
      </trkpt>
      <trkpt lat="42.94722" lon="0.22349">
        <ele>1018.8</ele>
        <time>2021-10-01T09:49:17.000Z</time>
      </trkpt>
      <trkpt lat="42.94715" lon="0.22337">
        <ele>1019.56</ele>
        <time>2021-10-01T09:49:22.000Z</time>
      </trkpt>
      <trkpt lat="42.94708" lon="0.22323">
        <ele>1020.28</ele>
        <time>2021-10-01T09:49:27.000Z</time>
      </trkpt>
      <trkpt lat="42.947" lon="0.22306">
        <ele>1020.48</ele>
        <time>2021-10-01T09:49:32.000Z</time>
      </trkpt>
      <trkpt lat="42.94694" lon="0.22286">
        <ele>1021.54</ele>
        <time>2021-10-01T09:49:37.000Z</time>
      </trkpt>
      <trkpt lat="42.94688" lon="0.22269">
        <ele>1022.21</ele>
        <time>2021-10-01T09:49:42.000Z</time>
      </trkpt>
      <trkpt lat="42.94683" lon="0.22257">
        <ele>1023.32</ele>
        <time>2021-10-01T09:49:47.000Z</time>
      </trkpt>
      <trkpt lat="42.94679" lon="0.22244">
        <ele>1022.82</ele>
        <time>2021-10-01T09:49:53.000Z</time>
      </trkpt>
      <trkpt lat="42.94676" lon="0.22231">
        <ele>1024.06</ele>
        <time>2021-10-01T09:49:58.000Z</time>
      </trkpt>
      <trkpt lat="42.94673" lon="0.22217">
        <ele>1025.32</ele>
        <time>2021-10-01T09:50:03.000Z</time>
      </trkpt>
      <trkpt lat="42.9467" lon="0.22205">
        <ele>1026.52</ele>
        <time>2021-10-01T09:50:08.000Z</time>
      </trkpt>
      <trkpt lat="42.94667" lon="0.22192">
        <ele>1027.42</ele>
        <time>2021-10-01T09:50:13.000Z</time>
      </trkpt>
      <trkpt lat="42.94663" lon="0.22181">
        <ele>1028.43</ele>
        <time>2021-10-01T09:50:18.000Z</time>
      </trkpt>
      <trkpt lat="42.94658" lon="0.2217">
        <ele>1029.34</ele>
        <time>2021-10-01T09:50:24.000Z</time>
      </trkpt>
      <trkpt lat="42.94652" lon="0.2216">
        <ele>1030.63</ele>
        <time>2021-10-01T09:50:30.000Z</time>
      </trkpt>
      <trkpt lat="42.94646" lon="0.22151">
        <ele>1032.2</ele>
        <time>2021-10-01T09:50:35.000Z</time>
      </trkpt>
      <trkpt lat="42.94638" lon="0.22144">
        <ele>1033.74</ele>
        <time>2021-10-01T09:50:40.000Z</time>
      </trkpt>
      <trkpt lat="42.94628" lon="0.22141">
        <ele>1035.26</ele>
        <time>2021-10-01T09:50:45.000Z</time>
      </trkpt>
      <trkpt lat="42.94618" lon="0.22136">
        <ele>1036.32</ele>
        <time>2021-10-01T09:50:50.000Z</time>
      </trkpt>
      <trkpt lat="42.94608" lon="0.22133">
        <ele>1037.45</ele>
        <time>2021-10-01T09:50:56.000Z</time>
      </trkpt>
      <trkpt lat="42.94598" lon="0.22129">
        <ele>1039.02</ele>
        <time>2021-10-01T09:51:01.000Z</time>
      </trkpt>
      <trkpt lat="42.9459" lon="0.22121">
        <ele>1041.22</ele>
        <time>2021-10-01T09:51:06.000Z</time>
      </trkpt>
      <trkpt lat="42.94583" lon="0.22112">
        <ele>1043.48</ele>
        <time>2021-10-01T09:51:11.000Z</time>
      </trkpt>
      <trkpt lat="42.94574" lon="0.22101">
        <ele>1043.67</ele>
        <time>2021-10-01T09:51:16.000Z</time>
      </trkpt>
      <trkpt lat="42.94565" lon="0.22089">
        <ele>1044.07</ele>
        <time>2021-10-01T09:51:21.000Z</time>
      </trkpt>
      <trkpt lat="42.94559" lon="0.22078">
        <ele>1044.47</ele>
        <time>2021-10-01T09:51:26.000Z</time>
      </trkpt>
      <trkpt lat="42.94554" lon="0.22066">
        <ele>1044.4</ele>
        <time>2021-10-01T09:51:31.000Z</time>
      </trkpt>
      <trkpt lat="42.94549" lon="0.22056">
        <ele>1045.16</ele>
        <time>2021-10-01T09:51:36.000Z</time>
      </trkpt>
      <trkpt lat="42.94543" lon="0.22046">
        <ele>1045.59</ele>
        <time>2021-10-01T09:51:41.000Z</time>
      </trkpt>
      <trkpt lat="42.94536" lon="0.22035">
        <ele>1046.36</ele>
        <time>2021-10-01T09:51:47.000Z</time>
      </trkpt>
      <trkpt lat="42.94529" lon="0.22026">
        <ele>1047.97</ele>
        <time>2021-10-01T09:51:52.000Z</time>
      </trkpt>
      <trkpt lat="42.94521" lon="0.22017">
        <ele>1048.83</ele>
        <time>2021-10-01T09:51:57.000Z</time>
      </trkpt>
      <trkpt lat="42.94514" lon="0.22009">
        <ele>1049.57</ele>
        <time>2021-10-01T09:52:02.000Z</time>
      </trkpt>
      <trkpt lat="42.94506" lon="0.22002">
        <ele>1049.77</ele>
        <time>2021-10-01T09:52:07.000Z</time>
      </trkpt>
      <trkpt lat="42.94498" lon="0.21995">
        <ele>1050.15</ele>
        <time>2021-10-01T09:52:12.000Z</time>
      </trkpt>
      <trkpt lat="42.94489" lon="0.21989">
        <ele>1050.87</ele>
        <time>2021-10-01T09:52:17.000Z</time>
      </trkpt>
      <trkpt lat="42.94481" lon="0.21982">
        <ele>1051.73</ele>
        <time>2021-10-01T09:52:22.000Z</time>
      </trkpt>
      <trkpt lat="42.94472" lon="0.21976">
        <ele>1052.88</ele>
        <time>2021-10-01T09:52:28.000Z</time>
      </trkpt>
      <trkpt lat="42.94463" lon="0.2197">
        <ele>1053.86</ele>
        <time>2021-10-01T09:52:33.000Z</time>
      </trkpt>
      <trkpt lat="42.94456" lon="0.21963">
        <ele>1055.5</ele>
        <time>2021-10-01T09:52:38.000Z</time>
      </trkpt>
      <trkpt lat="42.94447" lon="0.21955">
        <ele>1056.49</ele>
        <time>2021-10-01T09:52:43.000Z</time>
      </trkpt>
      <trkpt lat="42.94439" lon="0.21946">
        <ele>1058.5</ele>
        <time>2021-10-01T09:52:49.000Z</time>
      </trkpt>
      <trkpt lat="42.9443" lon="0.21939">
        <ele>1059.88</ele>
        <time>2021-10-01T09:52:54.000Z</time>
      </trkpt>
      <trkpt lat="42.94423" lon="0.21928">
        <ele>1061.61</ele>
        <time>2021-10-01T09:53:00.000Z</time>
      </trkpt>
      <trkpt lat="42.94416" lon="0.21918">
        <ele>1061.53</ele>
        <time>2021-10-01T09:53:05.000Z</time>
      </trkpt>
      <trkpt lat="42.94409" lon="0.21908">
        <ele>1060.81</ele>
        <time>2021-10-01T09:53:10.000Z</time>
      </trkpt>
      <trkpt lat="42.94402" lon="0.219">
        <ele>1060.75</ele>
        <time>2021-10-01T09:53:15.000Z</time>
      </trkpt>
      <trkpt lat="42.94395" lon="0.2189">
        <ele>1061.23</ele>
        <time>2021-10-01T09:53:20.000Z</time>
      </trkpt>
      <trkpt lat="42.94387" lon="0.2188">
        <ele>1061.97</ele>
        <time>2021-10-01T09:53:25.000Z</time>
      </trkpt>
      <trkpt lat="42.9438" lon="0.21874">
        <ele>1063.67</ele>
        <time>2021-10-01T09:53:30.000Z</time>
      </trkpt>
      <trkpt lat="42.94371" lon="0.21867">
        <ele>1065.57</ele>
        <time>2021-10-01T09:53:36.000Z</time>
      </trkpt>
      <trkpt lat="42.94364" lon="0.21858">
        <ele>1067.55</ele>
        <time>2021-10-01T09:53:42.000Z</time>
      </trkpt>
      <trkpt lat="42.94358" lon="0.21849">
        <ele>1069.03</ele>
        <time>2021-10-01T09:53:48.000Z</time>
      </trkpt>
      <trkpt lat="42.94352" lon="0.21839">
        <ele>1069.93</ele>
        <time>2021-10-01T09:53:53.000Z</time>
      </trkpt>
      <trkpt lat="42.94344" lon="0.2183">
        <ele>1071.43</ele>
        <time>2021-10-01T09:53:59.000Z</time>
      </trkpt>
      <trkpt lat="42.94337" lon="0.21821">
        <ele>1072.35</ele>
        <time>2021-10-01T09:54:04.000Z</time>
      </trkpt>
      <trkpt lat="42.94328" lon="0.21813">
        <ele>1073.53</ele>
        <time>2021-10-01T09:54:10.000Z</time>
      </trkpt>
      <trkpt lat="42.94321" lon="0.21805">
        <ele>1075.52</ele>
        <time>2021-10-01T09:54:16.000Z</time>
      </trkpt>
      <trkpt lat="42.94313" lon="0.21797">
        <ele>1077.27</ele>
        <time>2021-10-01T09:54:21.000Z</time>
      </trkpt>
      <trkpt lat="42.94305" lon="0.2179">
        <ele>1078.93</ele>
        <time>2021-10-01T09:54:27.000Z</time>
      </trkpt>
      <trkpt lat="42.94295" lon="0.21779">
        <ele>1080.06</ele>
        <time>2021-10-01T09:54:32.000Z</time>
      </trkpt>
      <trkpt lat="42.94285" lon="0.21769">
        <ele>1080.59</ele>
        <time>2021-10-01T09:54:37.000Z</time>
      </trkpt>
      <trkpt lat="42.94278" lon="0.2176">
        <ele>1081.36</ele>
        <time>2021-10-01T09:54:42.000Z</time>
      </trkpt>
      <trkpt lat="42.94272" lon="0.21749">
        <ele>1083.1</ele>
        <time>2021-10-01T09:54:48.000Z</time>
      </trkpt>
      <trkpt lat="42.94266" lon="0.21739">
        <ele>1084.35</ele>
        <time>2021-10-01T09:54:53.000Z</time>
      </trkpt>
      <trkpt lat="42.9426" lon="0.21723">
        <ele>1084.37</ele>
        <time>2021-10-01T09:54:58.000Z</time>
      </trkpt>
      <trkpt lat="42.94253" lon="0.21712">
        <ele>1084.67</ele>
        <time>2021-10-01T09:55:03.000Z</time>
      </trkpt>
      <trkpt lat="42.94246" lon="0.217">
        <ele>1085.46</ele>
        <time>2021-10-01T09:55:08.000Z</time>
      </trkpt>
      <trkpt lat="42.94241" lon="0.2169">
        <ele>1085.87</ele>
        <time>2021-10-01T09:55:13.000Z</time>
      </trkpt>
      <trkpt lat="42.94233" lon="0.21679">
        <ele>1086.56</ele>
        <time>2021-10-01T09:55:19.000Z</time>
      </trkpt>
      <trkpt lat="42.94226" lon="0.21669">
        <ele>1087.24</ele>
        <time>2021-10-01T09:55:24.000Z</time>
      </trkpt>
      <trkpt lat="42.94218" lon="0.21661">
        <ele>1088.03</ele>
        <time>2021-10-01T09:55:29.000Z</time>
      </trkpt>
      <trkpt lat="42.9421" lon="0.21652">
        <ele>1089.16</ele>
        <time>2021-10-01T09:55:35.000Z</time>
      </trkpt>
      <trkpt lat="42.942" lon="0.21644">
        <ele>1089.65</ele>
        <time>2021-10-01T09:55:41.000Z</time>
      </trkpt>
      <trkpt lat="42.94194" lon="0.21633">
        <ele>1088.94</ele>
        <time>2021-10-01T09:55:46.000Z</time>
      </trkpt>
      <trkpt lat="42.94189" lon="0.2162">
        <ele>1088.5</ele>
        <time>2021-10-01T09:55:51.000Z</time>
      </trkpt>
      <trkpt lat="42.94184" lon="0.21606">
        <ele>1088.4</ele>
        <time>2021-10-01T09:55:56.000Z</time>
      </trkpt>
      <trkpt lat="42.9418" lon="0.21594">
        <ele>1088.4</ele>
        <time>2021-10-01T09:56:01.000Z</time>
      </trkpt>
      <trkpt lat="42.94176" lon="0.21581">
        <ele>1088.3</ele>
        <time>2021-10-01T09:56:06.000Z</time>
      </trkpt>
      <trkpt lat="42.94172" lon="0.2157">
        <ele>1088.57</ele>
        <time>2021-10-01T09:56:11.000Z</time>
      </trkpt>
      <trkpt lat="42.94167" lon="0.21559">
        <ele>1089.17</ele>
        <time>2021-10-01T09:56:16.000Z</time>
      </trkpt>
      <trkpt lat="42.94161" lon="0.21547">
        <ele>1089.96</ele>
        <time>2021-10-01T09:56:22.000Z</time>
      </trkpt>
      <trkpt lat="42.94158" lon="0.21534">
        <ele>1090.37</ele>
        <time>2021-10-01T09:56:27.000Z</time>
      </trkpt>
      <trkpt lat="42.94151" lon="0.21522">
        <ele>1091.06</ele>
        <time>2021-10-01T09:56:33.000Z</time>
      </trkpt>
      <trkpt lat="42.94145" lon="0.21513">
        <ele>1091.84</ele>
        <time>2021-10-01T09:56:38.000Z</time>
      </trkpt>
      <trkpt lat="42.9414" lon="0.21501">
        <ele>1092.54</ele>
        <time>2021-10-01T09:56:43.000Z</time>
      </trkpt>
      <trkpt lat="42.94134" lon="0.2149">
        <ele>1093.73</ele>
        <time>2021-10-01T09:56:49.000Z</time>
      </trkpt>
      <trkpt lat="42.94127" lon="0.21482">
        <ele>1094.86</ele>
        <time>2021-10-01T09:56:55.000Z</time>
      </trkpt>
      <trkpt lat="42.94123" lon="0.2147">
        <ele>1095.17</ele>
        <time>2021-10-01T09:57:00.000Z</time>
      </trkpt>
      <trkpt lat="42.94117" lon="0.2146">
        <ele>1095.97</ele>
        <time>2021-10-01T09:57:06.000Z</time>
      </trkpt>
      <trkpt lat="42.94109" lon="0.21451">
        <ele>1096.57</ele>
        <time>2021-10-01T09:57:13.000Z</time>
      </trkpt>
      <trkpt lat="42.94102" lon="0.21442">
        <ele>1096.79</ele>
        <time>2021-10-01T09:57:18.000Z</time>
      </trkpt>
      <trkpt lat="42.94095" lon="0.21432">
        <ele>1096.8</ele>
        <time>2021-10-01T09:57:23.000Z</time>
      </trkpt>
      <trkpt lat="42.94087" lon="0.21422">
        <ele>1097.76</ele>
        <time>2021-10-01T09:57:29.000Z</time>
      </trkpt>
      <trkpt lat="42.94081" lon="0.21413">
        <ele>1098.37</ele>
        <time>2021-10-01T09:57:34.000Z</time>
      </trkpt>
      <trkpt lat="42.94074" lon="0.21404">
        <ele>1098.67</ele>
        <time>2021-10-01T09:57:39.000Z</time>
      </trkpt>
      <trkpt lat="42.94068" lon="0.21394">
        <ele>1099.14</ele>
        <time>2021-10-01T09:57:44.000Z</time>
      </trkpt>
      <trkpt lat="42.94063" lon="0.21382">
        <ele>1100.71</ele>
        <time>2021-10-01T09:57:50.000Z</time>
      </trkpt>
      <trkpt lat="42.94055" lon="0.21374">
        <ele>1101.84</ele>
        <time>2021-10-01T09:57:56.000Z</time>
      </trkpt>
      <trkpt lat="42.94043" lon="0.21363">
        <ele>1102.8</ele>
        <time>2021-10-01T09:58:01.000Z</time>
      </trkpt>
      <trkpt lat="42.94035" lon="0.21353">
        <ele>1103.83</ele>
        <time>2021-10-01T09:58:06.000Z</time>
      </trkpt>
      <trkpt lat="42.94027" lon="0.21347">
        <ele>1104.64</ele>
        <time>2021-10-01T09:58:11.000Z</time>
      </trkpt>
      <trkpt lat="42.94018" lon="0.21341">
        <ele>1105.83</ele>
        <time>2021-10-01T09:58:17.000Z</time>
      </trkpt>
      <trkpt lat="42.94009" lon="0.2134">
        <ele>1107.13</ele>
        <time>2021-10-01T09:58:23.000Z</time>
      </trkpt>
      <trkpt lat="42.94" lon="0.21335">
        <ele>1109.37</ele>
        <time>2021-10-01T09:58:29.000Z</time>
      </trkpt>
      <trkpt lat="42.93991" lon="0.21329">
        <ele>1111.34</ele>
        <time>2021-10-01T09:58:34.000Z</time>
      </trkpt>
      <trkpt lat="42.93982" lon="0.21322">
        <ele>1113.28</ele>
        <time>2021-10-01T09:58:40.000Z</time>
      </trkpt>
      <trkpt lat="42.93973" lon="0.21318">
        <ele>1115.3</ele>
        <time>2021-10-01T09:58:46.000Z</time>
      </trkpt>
      <trkpt lat="42.93963" lon="0.21316">
        <ele>1117.7</ele>
        <time>2021-10-01T09:58:55.000Z</time>
      </trkpt>
      <trkpt lat="42.93955" lon="0.21307">
        <ele>1119.61</ele>
        <time>2021-10-01T09:59:00.000Z</time>
      </trkpt>
      <trkpt lat="42.93947" lon="0.21299">
        <ele>1120.82</ele>
        <time>2021-10-01T09:59:05.000Z</time>
      </trkpt>
      <trkpt lat="42.93941" lon="0.21291">
        <ele>1123.09</ele>
        <time>2021-10-01T09:59:11.000Z</time>
      </trkpt>
      <trkpt lat="42.93931" lon="0.21285">
        <ele>1124.36</ele>
        <time>2021-10-01T09:59:17.000Z</time>
      </trkpt>
      <trkpt lat="42.93922" lon="0.21274">
        <ele>1125.43</ele>
        <time>2021-10-01T09:59:22.000Z</time>
      </trkpt>
      <trkpt lat="42.93915" lon="0.21263">
        <ele>1126.43</ele>
        <time>2021-10-01T09:59:27.000Z</time>
      </trkpt>
      <trkpt lat="42.93909" lon="0.21251">
        <ele>1128.37</ele>
        <time>2021-10-01T09:59:32.000Z</time>
      </trkpt>
      <trkpt lat="42.939" lon="0.21237">
        <ele>1129.36</ele>
        <time>2021-10-01T09:59:37.000Z</time>
      </trkpt>
      <trkpt lat="42.93893" lon="0.21228">
        <ele>1129.99</ele>
        <time>2021-10-01T09:59:42.000Z</time>
      </trkpt>
      <trkpt lat="42.93888" lon="0.21217">
        <ele>1129.9</ele>
        <time>2021-10-01T09:59:47.000Z</time>
      </trkpt>
      <trkpt lat="42.93882" lon="0.21205">
        <ele>1130.27</ele>
        <time>2021-10-01T09:59:53.000Z</time>
      </trkpt>
      <trkpt lat="42.93873" lon="0.21198">
        <ele>1131.74</ele>
        <time>2021-10-01T10:00:00.000Z</time>
      </trkpt>
      <trkpt lat="42.93864" lon="0.21192">
        <ele>1133.88</ele>
        <time>2021-10-01T10:00:13.000Z</time>
      </trkpt>
      <trkpt lat="42.93854" lon="0.21188">
        <ele>1134.37</ele>
        <time>2021-10-01T10:00:18.000Z</time>
      </trkpt>
      <trkpt lat="42.93846" lon="0.21181">
        <ele>1134.97</ele>
        <time>2021-10-01T10:00:23.000Z</time>
      </trkpt>
      <trkpt lat="42.93838" lon="0.21173">
        <ele>1135.59</ele>
        <time>2021-10-01T10:00:29.000Z</time>
      </trkpt>
      <trkpt lat="42.9383" lon="0.21164">
        <ele>1135.89</ele>
        <time>2021-10-01T10:00:34.000Z</time>
      </trkpt>
      <trkpt lat="42.93824" lon="0.21153">
        <ele>1136.27</ele>
        <time>2021-10-01T10:00:39.000Z</time>
      </trkpt>
      <trkpt lat="42.93799" lon="0.21132">
        <ele>1135.97</ele>
        <time>2021-10-01T10:00:44.000Z</time>
      </trkpt>
      <trkpt lat="42.93803" lon="0.21105">
        <ele>1134.26</ele>
        <time>2021-10-01T10:00:49.000Z</time>
      </trkpt>
      <trkpt lat="42.93798" lon="0.21094">
        <ele>1133.69</ele>
        <time>2021-10-01T10:00:54.000Z</time>
      </trkpt>
      <trkpt lat="42.93794" lon="0.21082">
        <ele>1133.13</ele>
        <time>2021-10-01T10:00:59.000Z</time>
      </trkpt>
      <trkpt lat="42.93792" lon="0.21069">
        <ele>1133.93</ele>
        <time>2021-10-01T10:01:06.000Z</time>
      </trkpt>
      <trkpt lat="42.93786" lon="0.21061">
        <ele>1135.05</ele>
        <time>2021-10-01T10:01:11.000Z</time>
      </trkpt>
      <trkpt lat="42.93779" lon="0.2105">
        <ele>1135.62</ele>
        <time>2021-10-01T10:01:17.000Z</time>
      </trkpt>
      <trkpt lat="42.93771" lon="0.21041">
        <ele>1136.42</ele>
        <time>2021-10-01T10:01:23.000Z</time>
      </trkpt>
      <trkpt lat="42.93764" lon="0.21032">
        <ele>1138.11</ele>
        <time>2021-10-01T10:01:28.000Z</time>
      </trkpt>
      <trkpt lat="42.93755" lon="0.21022">
        <ele>1139.94</ele>
        <time>2021-10-01T10:01:34.000Z</time>
      </trkpt>
      <trkpt lat="42.93749" lon="0.21007">
        <ele>1141.77</ele>
        <time>2021-10-01T10:01:39.000Z</time>
      </trkpt>
      <trkpt lat="42.93741" lon="0.20998">
        <ele>1143.06</ele>
        <time>2021-10-01T10:01:45.000Z</time>
      </trkpt>
      <trkpt lat="42.93736" lon="0.20986">
        <ele>1144.23</ele>
        <time>2021-10-01T10:01:50.000Z</time>
      </trkpt>
      <trkpt lat="42.93728" lon="0.20977">
        <ele>1145.47</ele>
        <time>2021-10-01T10:01:56.000Z</time>
      </trkpt>
      <trkpt lat="42.93721" lon="0.20968">
        <ele>1146.07</ele>
        <time>2021-10-01T10:02:01.000Z</time>
      </trkpt>
      <trkpt lat="42.93714" lon="0.20958">
        <ele>1146.47</ele>
        <time>2021-10-01T10:02:06.000Z</time>
      </trkpt>
      <trkpt lat="42.93705" lon="0.2095">
        <ele>1147.86</ele>
        <time>2021-10-01T10:02:11.000Z</time>
      </trkpt>
      <trkpt lat="42.93696" lon="0.20943">
        <ele>1148.66</ele>
        <time>2021-10-01T10:02:17.000Z</time>
      </trkpt>
      <trkpt lat="42.93687" lon="0.20939">
        <ele>1149.54</ele>
        <time>2021-10-01T10:02:23.000Z</time>
      </trkpt>
      <trkpt lat="42.93678" lon="0.20934">
        <ele>1150.54</ele>
        <time>2021-10-01T10:02:29.000Z</time>
      </trkpt>
      <trkpt lat="42.9367" lon="0.20929">
        <ele>1151.65</ele>
        <time>2021-10-01T10:02:34.000Z</time>
      </trkpt>
      <trkpt lat="42.93662" lon="0.2092">
        <ele>1152.17</ele>
        <time>2021-10-01T10:02:39.000Z</time>
      </trkpt>
      <trkpt lat="42.93658" lon="0.20907">
        <ele>1153.25</ele>
        <time>2021-10-01T10:02:45.000Z</time>
      </trkpt>
      <trkpt lat="42.93655" lon="0.20893">
        <ele>1154.07</ele>
        <time>2021-10-01T10:02:51.000Z</time>
      </trkpt>
      <trkpt lat="42.93653" lon="0.20881">
        <ele>1154.25</ele>
        <time>2021-10-01T10:02:56.000Z</time>
      </trkpt>
      <trkpt lat="42.9365" lon="0.20869">
        <ele>1155.33</ele>
        <time>2021-10-01T10:03:01.000Z</time>
      </trkpt>
      <trkpt lat="42.93641" lon="0.20862">
        <ele>1156.42</ele>
        <time>2021-10-01T10:03:07.000Z</time>
      </trkpt>
      <trkpt lat="42.93633" lon="0.20866">
        <ele>1157.61</ele>
        <time>2021-10-01T10:03:13.000Z</time>
      </trkpt>
      <trkpt lat="42.93623" lon="0.20873">
        <ele>1159.03</ele>
        <time>2021-10-01T10:03:18.000Z</time>
      </trkpt>
      <trkpt lat="42.93618" lon="0.20884">
        <ele>1161</ele>
        <time>2021-10-01T10:03:23.000Z</time>
      </trkpt>
      <trkpt lat="42.93609" lon="0.20887">
        <ele>1161.88</ele>
        <time>2021-10-01T10:03:28.000Z</time>
      </trkpt>
      <trkpt lat="42.93598" lon="0.20884">
        <ele>1162.34</ele>
        <time>2021-10-01T10:03:33.000Z</time>
      </trkpt>
      <trkpt lat="42.93589" lon="0.20873">
        <ele>1162.96</ele>
        <time>2021-10-01T10:03:38.000Z</time>
      </trkpt>
      <trkpt lat="42.93581" lon="0.20858">
        <ele>1163.76</ele>
        <time>2021-10-01T10:03:43.000Z</time>
      </trkpt>
      <trkpt lat="42.93574" lon="0.20849">
        <ele>1164.63</ele>
        <time>2021-10-01T10:03:48.000Z</time>
      </trkpt>
      <trkpt lat="42.93566" lon="0.20843">
        <ele>1165.24</ele>
        <time>2021-10-01T10:03:53.000Z</time>
      </trkpt>
      <trkpt lat="42.93557" lon="0.20841">
        <ele>1165.86</ele>
        <time>2021-10-01T10:03:58.000Z</time>
      </trkpt>
      <trkpt lat="42.93548" lon="0.20839">
        <ele>1166.83</ele>
        <time>2021-10-01T10:04:03.000Z</time>
      </trkpt>
      <trkpt lat="42.93537" lon="0.20836">
        <ele>1167.93</ele>
        <time>2021-10-01T10:04:09.000Z</time>
      </trkpt>
      <trkpt lat="42.93528" lon="0.20831">
        <ele>1168.37</ele>
        <time>2021-10-01T10:04:14.000Z</time>
      </trkpt>
      <trkpt lat="42.9352" lon="0.20822">
        <ele>1168.6</ele>
        <time>2021-10-01T10:04:19.000Z</time>
      </trkpt>
      <trkpt lat="42.93512" lon="0.20815">
        <ele>1168.97</ele>
        <time>2021-10-01T10:04:24.000Z</time>
      </trkpt>
      <trkpt lat="42.93507" lon="0.20804">
        <ele>1169.57</ele>
        <time>2021-10-01T10:04:29.000Z</time>
      </trkpt>
      <trkpt lat="42.93502" lon="0.20793">
        <ele>1170.2</ele>
        <time>2021-10-01T10:04:34.000Z</time>
      </trkpt>
      <trkpt lat="42.93498" lon="0.20782">
        <ele>1170.94</ele>
        <time>2021-10-01T10:04:39.000Z</time>
      </trkpt>
      <trkpt lat="42.93494" lon="0.20769">
        <ele>1171.49</ele>
        <time>2021-10-01T10:04:44.000Z</time>
      </trkpt>
      <trkpt lat="42.9349" lon="0.20757">
        <ele>1171.97</ele>
        <time>2021-10-01T10:04:49.000Z</time>
      </trkpt>
      <trkpt lat="42.93485" lon="0.20746">
        <ele>1172.59</ele>
        <time>2021-10-01T10:04:54.000Z</time>
      </trkpt>
      <trkpt lat="42.93477" lon="0.20737">
        <ele>1173.46</ele>
        <time>2021-10-01T10:05:00.000Z</time>
      </trkpt>
      <trkpt lat="42.93468" lon="0.20729">
        <ele>1174.44</ele>
        <time>2021-10-01T10:05:06.000Z</time>
      </trkpt>
      <trkpt lat="42.9346" lon="0.20721">
        <ele>1175.63</ele>
        <time>2021-10-01T10:05:11.000Z</time>
      </trkpt>
      <trkpt lat="42.93451" lon="0.20712">
        <ele>1177</ele>
        <time>2021-10-01T10:05:16.000Z</time>
      </trkpt>
      <trkpt lat="42.93442" lon="0.20705">
        <ele>1178.14</ele>
        <time>2021-10-01T10:05:22.000Z</time>
      </trkpt>
      <trkpt lat="42.93434" lon="0.20697">
        <ele>1179.53</ele>
        <time>2021-10-01T10:05:28.000Z</time>
      </trkpt>
      <trkpt lat="42.93426" lon="0.20687">
        <ele>1180.54</ele>
        <time>2021-10-01T10:05:34.000Z</time>
      </trkpt>
      <trkpt lat="42.93419" lon="0.20678">
        <ele>1181.26</ele>
        <time>2021-10-01T10:05:39.000Z</time>
      </trkpt>
      <trkpt lat="42.93412" lon="0.20667">
        <ele>1181.92</ele>
        <time>2021-10-01T10:05:44.000Z</time>
      </trkpt>
      <trkpt lat="42.93407" lon="0.20654">
        <ele>1182.77</ele>
        <time>2021-10-01T10:05:50.000Z</time>
      </trkpt>
      <trkpt lat="42.93404" lon="0.20642">
        <ele>1183.38</ele>
        <time>2021-10-01T10:05:55.000Z</time>
      </trkpt>
      <trkpt lat="42.93402" lon="0.2063">
        <ele>1183.97</ele>
        <time>2021-10-01T10:06:00.000Z</time>
      </trkpt>
      <trkpt lat="42.93395" lon="0.20618">
        <ele>1184.3</ele>
        <time>2021-10-01T10:06:06.000Z</time>
      </trkpt>
      <trkpt lat="42.93389" lon="0.20607">
        <ele>1185.14</ele>
        <time>2021-10-01T10:06:12.000Z</time>
      </trkpt>
      <trkpt lat="42.93381" lon="0.20597">
        <ele>1186.24</ele>
        <time>2021-10-01T10:06:18.000Z</time>
      </trkpt>
      <trkpt lat="42.93374" lon="0.20587">
        <ele>1186.5</ele>
        <time>2021-10-01T10:06:24.000Z</time>
      </trkpt>
      <trkpt lat="42.93366" lon="0.20579">
        <ele>1187.17</ele>
        <time>2021-10-01T10:06:30.000Z</time>
      </trkpt>
      <trkpt lat="42.93357" lon="0.20571">
        <ele>1187.5</ele>
        <time>2021-10-01T10:06:36.000Z</time>
      </trkpt>
      <trkpt lat="42.93348" lon="0.20565">
        <ele>1188.34</ele>
        <time>2021-10-01T10:06:42.000Z</time>
      </trkpt>
      <trkpt lat="42.93338" lon="0.20557">
        <ele>1189.04</ele>
        <time>2021-10-01T10:06:47.000Z</time>
      </trkpt>
      <trkpt lat="42.9333" lon="0.20549">
        <ele>1190.41</ele>
        <time>2021-10-01T10:06:53.000Z</time>
      </trkpt>
      <trkpt lat="42.93322" lon="0.2054">
        <ele>1191.8</ele>
        <time>2021-10-01T10:06:59.000Z</time>
      </trkpt>
      <trkpt lat="42.93315" lon="0.20533">
        <ele>1192.93</ele>
        <time>2021-10-01T10:07:04.000Z</time>
      </trkpt>
      <trkpt lat="42.93306" lon="0.20524">
        <ele>1194.06</ele>
        <time>2021-10-01T10:07:10.000Z</time>
      </trkpt>
      <trkpt lat="42.933" lon="0.20515">
        <ele>1194.13</ele>
        <time>2021-10-01T10:07:15.000Z</time>
      </trkpt>
      <trkpt lat="42.93293" lon="0.20505">
        <ele>1194.31</ele>
        <time>2021-10-01T10:07:20.000Z</time>
      </trkpt>
      <trkpt lat="42.93284" lon="0.20496">
        <ele>1195.41</ele>
        <time>2021-10-01T10:07:26.000Z</time>
      </trkpt>
      <trkpt lat="42.93276" lon="0.20487">
        <ele>1196.46</ele>
        <time>2021-10-01T10:07:32.000Z</time>
      </trkpt>
      <trkpt lat="42.93267" lon="0.20479">
        <ele>1197.98</ele>
        <time>2021-10-01T10:07:38.000Z</time>
      </trkpt>
      <trkpt lat="42.93259" lon="0.20471">
        <ele>1199.14</ele>
        <time>2021-10-01T10:07:44.000Z</time>
      </trkpt>
      <trkpt lat="42.93251" lon="0.20464">
        <ele>1199.93</ele>
        <time>2021-10-01T10:07:49.000Z</time>
      </trkpt>
      <trkpt lat="42.93243" lon="0.20459">
        <ele>1200.95</ele>
        <time>2021-10-01T10:07:54.000Z</time>
      </trkpt>
      <trkpt lat="42.93234" lon="0.20454">
        <ele>1201.74</ele>
        <time>2021-10-01T10:07:59.000Z</time>
      </trkpt>
      <trkpt lat="42.93225" lon="0.20449">
        <ele>1202.86</ele>
        <time>2021-10-01T10:08:05.000Z</time>
      </trkpt>
      <trkpt lat="42.93216" lon="0.20443">
        <ele>1203.76</ele>
        <time>2021-10-01T10:08:11.000Z</time>
      </trkpt>
      <trkpt lat="42.93207" lon="0.20436">
        <ele>1204.47</ele>
        <time>2021-10-01T10:08:17.000Z</time>
      </trkpt>
      <trkpt lat="42.93199" lon="0.2043">
        <ele>1205.24</ele>
        <time>2021-10-01T10:08:23.000Z</time>
      </trkpt>
      <trkpt lat="42.9319" lon="0.20425">
        <ele>1205.96</ele>
        <time>2021-10-01T10:08:29.000Z</time>
      </trkpt>
      <trkpt lat="42.93181" lon="0.2042">
        <ele>1207.35</ele>
        <time>2021-10-01T10:08:35.000Z</time>
      </trkpt>
      <trkpt lat="42.93173" lon="0.20416">
        <ele>1208.68</ele>
        <time>2021-10-01T10:08:40.000Z</time>
      </trkpt>
      <trkpt lat="42.93164" lon="0.20409">
        <ele>1210.31</ele>
        <time>2021-10-01T10:08:46.000Z</time>
      </trkpt>
      <trkpt lat="42.93156" lon="0.20401">
        <ele>1210.99</ele>
        <time>2021-10-01T10:08:51.000Z</time>
      </trkpt>
      <trkpt lat="42.93148" lon="0.20394">
        <ele>1211.76</ele>
        <time>2021-10-01T10:08:56.000Z</time>
      </trkpt>
      <trkpt lat="42.93139" lon="0.20388">
        <ele>1212.83</ele>
        <time>2021-10-01T10:09:02.000Z</time>
      </trkpt>
      <trkpt lat="42.93131" lon="0.20382">
        <ele>1214.17</ele>
        <time>2021-10-01T10:09:07.000Z</time>
      </trkpt>
      <trkpt lat="42.93122" lon="0.20378">
        <ele>1215.8</ele>
        <time>2021-10-01T10:09:13.000Z</time>
      </trkpt>
      <trkpt lat="42.93113" lon="0.2037">
        <ele>1217.43</ele>
        <time>2021-10-01T10:09:19.000Z</time>
      </trkpt>
      <trkpt lat="42.93104" lon="0.20362">
        <ele>1218.25</ele>
        <time>2021-10-01T10:09:25.000Z</time>
      </trkpt>
      <trkpt lat="42.93097" lon="0.20352">
        <ele>1219.37</ele>
        <time>2021-10-01T10:09:31.000Z</time>
      </trkpt>
      <trkpt lat="42.93089" lon="0.20345">
        <ele>1220.31</ele>
        <time>2021-10-01T10:09:36.000Z</time>
      </trkpt>
      <trkpt lat="42.93083" lon="0.20336">
        <ele>1220.95</ele>
        <time>2021-10-01T10:09:41.000Z</time>
      </trkpt>
      <trkpt lat="42.93076" lon="0.20325">
        <ele>1221.69</ele>
        <time>2021-10-01T10:09:47.000Z</time>
      </trkpt>
      <trkpt lat="42.93072" lon="0.20313">
        <ele>1222.15</ele>
        <time>2021-10-01T10:09:52.000Z</time>
      </trkpt>
      <trkpt lat="42.93067" lon="0.20301">
        <ele>1223.03</ele>
        <time>2021-10-01T10:09:57.000Z</time>
      </trkpt>
      <trkpt lat="42.93062" lon="0.20291">
        <ele>1223.93</ele>
        <time>2021-10-01T10:10:02.000Z</time>
      </trkpt>
      <trkpt lat="42.93057" lon="0.2028">
        <ele>1224.76</ele>
        <time>2021-10-01T10:10:07.000Z</time>
      </trkpt>
      <trkpt lat="42.9305" lon="0.20271">
        <ele>1225.96</ele>
        <time>2021-10-01T10:10:13.000Z</time>
      </trkpt>
      <trkpt lat="42.93043" lon="0.20261">
        <ele>1226.75</ele>
        <time>2021-10-01T10:10:19.000Z</time>
      </trkpt>
      <trkpt lat="42.93038" lon="0.20252">
        <ele>1227.51</ele>
        <time>2021-10-01T10:10:25.000Z</time>
      </trkpt>
      <trkpt lat="42.9303" lon="0.20243">
        <ele>1224.03</ele>
        <time>2021-10-01T10:14:37.000Z</time>
      </trkpt>
      <trkpt lat="42.93022" lon="0.20233">
        <ele>1224.55</ele>
        <time>2021-10-01T10:14:42.000Z</time>
      </trkpt>
      <trkpt lat="42.93014" lon="0.20224">
        <ele>1224.94</ele>
        <time>2021-10-01T10:14:48.000Z</time>
      </trkpt>
      <trkpt lat="42.93004" lon="0.20218">
        <ele>1225.19</ele>
        <time>2021-10-01T10:14:54.000Z</time>
      </trkpt>
      <trkpt lat="42.92996" lon="0.20212">
        <ele>1225.62</ele>
        <time>2021-10-01T10:14:59.000Z</time>
      </trkpt>
      <trkpt lat="42.92988" lon="0.20205">
        <ele>1226.35</ele>
        <time>2021-10-01T10:15:04.000Z</time>
      </trkpt>
      <trkpt lat="42.92979" lon="0.20194">
        <ele>1227.41</ele>
        <time>2021-10-01T10:15:09.000Z</time>
      </trkpt>
      <trkpt lat="42.9297" lon="0.20191">
        <ele>1228.26</ele>
        <time>2021-10-01T10:15:15.000Z</time>
      </trkpt>
      <trkpt lat="42.92961" lon="0.20187">
        <ele>1229.21</ele>
        <time>2021-10-01T10:15:20.000Z</time>
      </trkpt>
      <trkpt lat="42.92952" lon="0.20179">
        <ele>1230.04</ele>
        <time>2021-10-01T10:15:26.000Z</time>
      </trkpt>
      <trkpt lat="42.92944" lon="0.20174">
        <ele>1230.93</ele>
        <time>2021-10-01T10:15:31.000Z</time>
      </trkpt>
      <trkpt lat="42.92934" lon="0.20169">
        <ele>1232.03</ele>
        <time>2021-10-01T10:15:37.000Z</time>
      </trkpt>
      <trkpt lat="42.92927" lon="0.20161">
        <ele>1233.13</ele>
        <time>2021-10-01T10:15:42.000Z</time>
      </trkpt>
      <trkpt lat="42.92918" lon="0.20156">
        <ele>1234.1</ele>
        <time>2021-10-01T10:15:47.000Z</time>
      </trkpt>
      <trkpt lat="42.9291" lon="0.2015">
        <ele>1235.46</ele>
        <time>2021-10-01T10:15:52.000Z</time>
      </trkpt>
      <trkpt lat="42.92901" lon="0.20145">
        <ele>1237.08</ele>
        <time>2021-10-01T10:15:57.000Z</time>
      </trkpt>
      <trkpt lat="42.92892" lon="0.20138">
        <ele>1239.31</ele>
        <time>2021-10-01T10:16:02.000Z</time>
      </trkpt>
      <trkpt lat="42.92883" lon="0.20131">
        <ele>1241.7</ele>
        <time>2021-10-01T10:16:08.000Z</time>
      </trkpt>
      <trkpt lat="42.92876" lon="0.20121">
        <ele>1243.37</ele>
        <time>2021-10-01T10:16:13.000Z</time>
      </trkpt>
      <trkpt lat="42.9287" lon="0.20112">
        <ele>1245.24</ele>
        <time>2021-10-01T10:16:18.000Z</time>
      </trkpt>
      <trkpt lat="42.92863" lon="0.20102">
        <ele>1246.82</ele>
        <time>2021-10-01T10:16:23.000Z</time>
      </trkpt>
      <trkpt lat="42.92858" lon="0.20092">
        <ele>1248.71</ele>
        <time>2021-10-01T10:16:28.000Z</time>
      </trkpt>
      <trkpt lat="42.92851" lon="0.20081">
        <ele>1249.64</ele>
        <time>2021-10-01T10:16:34.000Z</time>
      </trkpt>
      <trkpt lat="42.92845" lon="0.2007">
        <ele>1250.83</ele>
        <time>2021-10-01T10:16:40.000Z</time>
      </trkpt>
      <trkpt lat="42.9284" lon="0.20059">
        <ele>1251.91</ele>
        <time>2021-10-01T10:16:45.000Z</time>
      </trkpt>
      <trkpt lat="42.92832" lon="0.20051">
        <ele>1253.25</ele>
        <time>2021-10-01T10:16:51.000Z</time>
      </trkpt>
      <trkpt lat="42.92824" lon="0.20041">
        <ele>1254.26</ele>
        <time>2021-10-01T10:16:57.000Z</time>
      </trkpt>
      <trkpt lat="42.92816" lon="0.20031">
        <ele>1255.41</ele>
        <time>2021-10-01T10:17:03.000Z</time>
      </trkpt>
      <trkpt lat="42.92809" lon="0.20023">
        <ele>1256.51</ele>
        <time>2021-10-01T10:17:08.000Z</time>
      </trkpt>
      <trkpt lat="42.92803" lon="0.20013">
        <ele>1258</ele>
        <time>2021-10-01T10:17:13.000Z</time>
      </trkpt>
      <trkpt lat="42.92794" lon="0.20004">
        <ele>1259.44</ele>
        <time>2021-10-01T10:17:19.000Z</time>
      </trkpt>
      <trkpt lat="42.92787" lon="0.19997">
        <ele>1260.54</ele>
        <time>2021-10-01T10:17:24.000Z</time>
      </trkpt>
      <trkpt lat="42.92781" lon="0.19988">
        <ele>1260.96</ele>
        <time>2021-10-01T10:17:29.000Z</time>
      </trkpt>
      <trkpt lat="42.92774" lon="0.19979">
        <ele>1261.93</ele>
        <time>2021-10-01T10:17:34.000Z</time>
      </trkpt>
      <trkpt lat="42.92768" lon="0.1997">
        <ele>1263.87</ele>
        <time>2021-10-01T10:17:39.000Z</time>
      </trkpt>
      <trkpt lat="42.92761" lon="0.19961">
        <ele>1265.52</ele>
        <time>2021-10-01T10:17:44.000Z</time>
      </trkpt>
      <trkpt lat="42.92755" lon="0.19952">
        <ele>1266.17</ele>
        <time>2021-10-01T10:17:49.000Z</time>
      </trkpt>
      <trkpt lat="42.92748" lon="0.19943">
        <ele>1265.84</ele>
        <time>2021-10-01T10:17:54.000Z</time>
      </trkpt>
      <trkpt lat="42.9274" lon="0.19933">
        <ele>1266.07</ele>
        <time>2021-10-01T10:17:59.000Z</time>
      </trkpt>
      <trkpt lat="42.92732" lon="0.19925">
        <ele>1266.2</ele>
        <time>2021-10-01T10:18:04.000Z</time>
      </trkpt>
      <trkpt lat="42.92725" lon="0.19916">
        <ele>1265.98</ele>
        <time>2021-10-01T10:18:09.000Z</time>
      </trkpt>
      <trkpt lat="42.92719" lon="0.19905">
        <ele>1267.09</ele>
        <time>2021-10-01T10:18:14.000Z</time>
      </trkpt>
      <trkpt lat="42.92713" lon="0.19893">
        <ele>1268.17</ele>
        <time>2021-10-01T10:18:20.000Z</time>
      </trkpt>
      <trkpt lat="42.9271" lon="0.1988">
        <ele>1269.03</ele>
        <time>2021-10-01T10:18:26.000Z</time>
      </trkpt>
      <trkpt lat="42.92708" lon="0.19866">
        <ele>1270.54</ele>
        <time>2021-10-01T10:18:33.000Z</time>
      </trkpt>
      <trkpt lat="42.92704" lon="0.19854">
        <ele>1272.29</ele>
        <time>2021-10-01T10:18:40.000Z</time>
      </trkpt>
      <trkpt lat="42.92699" lon="0.19844">
        <ele>1272.74</ele>
        <time>2021-10-01T10:18:45.000Z</time>
      </trkpt>
      <trkpt lat="42.9269" lon="0.19837">
        <ele>1273.24</ele>
        <time>2021-10-01T10:18:51.000Z</time>
      </trkpt>
      <trkpt lat="42.92683" lon="0.1983">
        <ele>1274.03</ele>
        <time>2021-10-01T10:18:56.000Z</time>
      </trkpt>
      <trkpt lat="42.92675" lon="0.19823">
        <ele>1275.53</ele>
        <time>2021-10-01T10:19:02.000Z</time>
      </trkpt>
      <trkpt lat="42.92667" lon="0.19815">
        <ele>1277.03</ele>
        <time>2021-10-01T10:19:08.000Z</time>
      </trkpt>
      <trkpt lat="42.92659" lon="0.19807">
        <ele>1278.23</ele>
        <time>2021-10-01T10:19:14.000Z</time>
      </trkpt>
      <trkpt lat="42.92652" lon="0.19798">
        <ele>1279.58</ele>
        <time>2021-10-01T10:19:19.000Z</time>
      </trkpt>
      <trkpt lat="42.92645" lon="0.1979">
        <ele>1281.03</ele>
        <time>2021-10-01T10:19:25.000Z</time>
      </trkpt>
      <trkpt lat="42.92638" lon="0.19781">
        <ele>1282.88</ele>
        <time>2021-10-01T10:19:31.000Z</time>
      </trkpt>
      <trkpt lat="42.92631" lon="0.19771">
        <ele>1284.63</ele>
        <time>2021-10-01T10:19:38.000Z</time>
      </trkpt>
      <trkpt lat="42.92627" lon="0.19758">
        <ele>1285.66</ele>
        <time>2021-10-01T10:19:44.000Z</time>
      </trkpt>
      <trkpt lat="42.92624" lon="0.19746">
        <ele>1286.9</ele>
        <time>2021-10-01T10:19:49.000Z</time>
      </trkpt>
      <trkpt lat="42.92618" lon="0.19737">
        <ele>1288.9</ele>
        <time>2021-10-01T10:19:55.000Z</time>
      </trkpt>
      <trkpt lat="42.92611" lon="0.19728">
        <ele>1290.33</ele>
        <time>2021-10-01T10:20:01.000Z</time>
      </trkpt>
      <trkpt lat="42.92602" lon="0.19721">
        <ele>1292.08</ele>
        <time>2021-10-01T10:20:07.000Z</time>
      </trkpt>
      <trkpt lat="42.92592" lon="0.19718">
        <ele>1293.33</ele>
        <time>2021-10-01T10:20:13.000Z</time>
      </trkpt>
      <trkpt lat="42.92583" lon="0.19715">
        <ele>1293.85</ele>
        <time>2021-10-01T10:20:19.000Z</time>
      </trkpt>
      <trkpt lat="42.92575" lon="0.19721">
        <ele>1294.9</ele>
        <time>2021-10-01T10:20:25.000Z</time>
      </trkpt>
      <trkpt lat="42.92568" lon="0.1973">
        <ele>1296.85</ele>
        <time>2021-10-01T10:20:31.000Z</time>
      </trkpt>
      <trkpt lat="42.9256" lon="0.19737">
        <ele>1299.04</ele>
        <time>2021-10-01T10:20:37.000Z</time>
      </trkpt>
      <trkpt lat="42.92552" lon="0.19744">
        <ele>1301.18</ele>
        <time>2021-10-01T10:20:43.000Z</time>
      </trkpt>
      <trkpt lat="42.92543" lon="0.19751">
        <ele>1301.79</ele>
        <time>2021-10-01T10:20:50.000Z</time>
      </trkpt>
      <trkpt lat="42.92533" lon="0.19756">
        <ele>1301.66</ele>
        <time>2021-10-01T10:20:56.000Z</time>
      </trkpt>
      <trkpt lat="42.92524" lon="0.19759">
        <ele>1301.91</ele>
        <time>2021-10-01T10:21:01.000Z</time>
      </trkpt>
      <trkpt lat="42.92515" lon="0.19761">
        <ele>1301.75</ele>
        <time>2021-10-01T10:21:06.000Z</time>
      </trkpt>
      <trkpt lat="42.92504" lon="0.19763">
        <ele>1301.45</ele>
        <time>2021-10-01T10:21:12.000Z</time>
      </trkpt>
      <trkpt lat="42.92495" lon="0.19765">
        <ele>1301.5</ele>
        <time>2021-10-01T10:21:17.000Z</time>
      </trkpt>
      <trkpt lat="42.92484" lon="0.19767">
        <ele>1301.58</ele>
        <time>2021-10-01T10:21:22.000Z</time>
      </trkpt>
      <trkpt lat="42.92477" lon="0.19774">
        <ele>1302.13</ele>
        <time>2021-10-01T10:21:27.000Z</time>
      </trkpt>
      <trkpt lat="42.92475" lon="0.1979">
        <ele>1303.25</ele>
        <time>2021-10-01T10:21:32.000Z</time>
      </trkpt>
      <trkpt lat="42.92476" lon="0.19808">
        <ele>1304.33</ele>
        <time>2021-10-01T10:21:37.000Z</time>
      </trkpt>
      <trkpt lat="42.92482" lon="0.19825">
        <ele>1305.23</ele>
        <time>2021-10-01T10:21:42.000Z</time>
      </trkpt>
      <trkpt lat="42.92487" lon="0.19838">
        <ele>1306.41</ele>
        <time>2021-10-01T10:21:47.000Z</time>
      </trkpt>
      <trkpt lat="42.92488" lon="0.19851">
        <ele>1307.9</ele>
        <time>2021-10-01T10:21:52.000Z</time>
      </trkpt>
      <trkpt lat="42.92488" lon="0.19864">
        <ele>1311.67</ele>
        <time>2021-10-01T10:21:58.000Z</time>
      </trkpt>
      <trkpt lat="42.9249" lon="0.19879">
        <ele>1314.88</ele>
        <time>2021-10-01T10:22:04.000Z</time>
      </trkpt>
      <trkpt lat="42.92488" lon="0.19891">
        <ele>1318.1</ele>
        <time>2021-10-01T10:22:09.000Z</time>
      </trkpt>
      <trkpt lat="42.92488" lon="0.19904">
        <ele>1320.06</ele>
        <time>2021-10-01T10:22:14.000Z</time>
      </trkpt>
      <trkpt lat="42.9249" lon="0.19918">
        <ele>1322.47</ele>
        <time>2021-10-01T10:22:20.000Z</time>
      </trkpt>
      <trkpt lat="42.9249" lon="0.19932">
        <ele>1325.08</ele>
        <time>2021-10-01T10:22:26.000Z</time>
      </trkpt>
      <trkpt lat="42.92489" lon="0.19945">
        <ele>1328.03</ele>
        <time>2021-10-01T10:22:32.000Z</time>
      </trkpt>
      <trkpt lat="42.92491" lon="0.19959">
        <ele>1331.7</ele>
        <time>2021-10-01T10:22:38.000Z</time>
      </trkpt>
      <trkpt lat="42.92492" lon="0.19972">
        <ele>1335.84</ele>
        <time>2021-10-01T10:22:44.000Z</time>
      </trkpt>
      <trkpt lat="42.92491" lon="0.19984">
        <ele>1338.8</ele>
        <time>2021-10-01T10:22:49.000Z</time>
      </trkpt>
      <trkpt lat="42.92492" lon="0.19996">
        <ele>1341.43</ele>
        <time>2021-10-01T10:22:54.000Z</time>
      </trkpt>
      <trkpt lat="42.92488" lon="0.20009">
        <ele>1343.57</ele>
        <time>2021-10-01T10:22:59.000Z</time>
      </trkpt>
      <trkpt lat="42.92489" lon="0.20024">
        <ele>1344.91</ele>
        <time>2021-10-01T10:23:04.000Z</time>
      </trkpt>
      <trkpt lat="42.92491" lon="0.20038">
        <ele>1344.08</ele>
        <time>2021-10-01T10:23:09.000Z</time>
      </trkpt>
      <trkpt lat="42.92491" lon="0.20052">
        <ele>1345.04</ele>
        <time>2021-10-01T10:23:15.000Z</time>
      </trkpt>
      <trkpt lat="42.92493" lon="0.20064">
        <ele>1345.36</ele>
        <time>2021-10-01T10:23:20.000Z</time>
      </trkpt>
      <trkpt lat="42.92492" lon="0.20077">
        <ele>1346.46</ele>
        <time>2021-10-01T10:23:26.000Z</time>
      </trkpt>
      <trkpt lat="42.92486" lon="0.20089">
        <ele>1346.85</ele>
        <time>2021-10-01T10:23:31.000Z</time>
      </trkpt>
      <trkpt lat="42.92478" lon="0.20103">
        <ele>1347.26</ele>
        <time>2021-10-01T10:23:36.000Z</time>
      </trkpt>
      <trkpt lat="42.92475" lon="0.20116">
        <ele>1349.07</ele>
        <time>2021-10-01T10:23:42.000Z</time>
      </trkpt>
      <trkpt lat="42.92473" lon="0.2013">
        <ele>1351.07</ele>
        <time>2021-10-01T10:23:48.000Z</time>
      </trkpt>
      <trkpt lat="42.92471" lon="0.20144">
        <ele>1352.63</ele>
        <time>2021-10-01T10:23:54.000Z</time>
      </trkpt>
      <trkpt lat="42.92471" lon="0.20157">
        <ele>1354.48</ele>
        <time>2021-10-01T10:24:00.000Z</time>
      </trkpt>
      <trkpt lat="42.92468" lon="0.20172">
        <ele>1356.49</ele>
        <time>2021-10-01T10:24:06.000Z</time>
      </trkpt>
      <trkpt lat="42.92458" lon="0.20184">
        <ele>1358.44</ele>
        <time>2021-10-01T10:24:11.000Z</time>
      </trkpt>
      <trkpt lat="42.92453" lon="0.20194">
        <ele>1360.39</ele>
        <time>2021-10-01T10:24:16.000Z</time>
      </trkpt>
      <trkpt lat="42.92453" lon="0.20208">
        <ele>1362.75</ele>
        <time>2021-10-01T10:24:22.000Z</time>
      </trkpt>
      <trkpt lat="42.92454" lon="0.20221">
        <ele>1364.5</ele>
        <time>2021-10-01T10:24:28.000Z</time>
      </trkpt>
      <trkpt lat="42.92453" lon="0.20234">
        <ele>1366.59</ele>
        <time>2021-10-01T10:24:34.000Z</time>
      </trkpt>
      <trkpt lat="42.9245" lon="0.20249">
        <ele>1368.6</ele>
        <time>2021-10-01T10:24:40.000Z</time>
      </trkpt>
      <trkpt lat="42.92446" lon="0.20262">
        <ele>1370.22</ele>
        <time>2021-10-01T10:24:46.000Z</time>
      </trkpt>
      <trkpt lat="42.92445" lon="0.20275">
        <ele>1373.07</ele>
        <time>2021-10-01T10:24:53.000Z</time>
      </trkpt>
      <trkpt lat="42.92441" lon="0.20287">
        <ele>1374.72</ele>
        <time>2021-10-01T10:24:58.000Z</time>
      </trkpt>
      <trkpt lat="42.9244" lon="0.20301">
        <ele>1376.79</ele>
        <time>2021-10-01T10:25:04.000Z</time>
      </trkpt>
      <trkpt lat="42.92435" lon="0.20312">
        <ele>1377.83</ele>
        <time>2021-10-01T10:25:09.000Z</time>
      </trkpt>
      <trkpt lat="42.92431" lon="0.20324">
        <ele>1378.75</ele>
        <time>2021-10-01T10:25:14.000Z</time>
      </trkpt>
      <trkpt lat="42.92425" lon="0.20335">
        <ele>1380.51</ele>
        <time>2021-10-01T10:25:20.000Z</time>
      </trkpt>
      <trkpt lat="42.92421" lon="0.20347">
        <ele>1381.83</ele>
        <time>2021-10-01T10:25:26.000Z</time>
      </trkpt>
      <trkpt lat="42.92414" lon="0.20357">
        <ele>1382.84</ele>
        <time>2021-10-01T10:25:32.000Z</time>
      </trkpt>
      <trkpt lat="42.92409" lon="0.20368">
        <ele>1384.77</ele>
        <time>2021-10-01T10:25:38.000Z</time>
      </trkpt>
      <trkpt lat="42.92403" lon="0.20378">
        <ele>1385.9</ele>
        <time>2021-10-01T10:25:43.000Z</time>
      </trkpt>
      <trkpt lat="42.92396" lon="0.20388">
        <ele>1387.43</ele>
        <time>2021-10-01T10:25:49.000Z</time>
      </trkpt>
      <trkpt lat="42.92393" lon="0.20401">
        <ele>1388.81</ele>
        <time>2021-10-01T10:25:55.000Z</time>
      </trkpt>
      <trkpt lat="42.92392" lon="0.20413">
        <ele>1390.4</ele>
        <time>2021-10-01T10:26:01.000Z</time>
      </trkpt>
      <trkpt lat="42.92388" lon="0.20425">
        <ele>1391.83</ele>
        <time>2021-10-01T10:26:07.000Z</time>
      </trkpt>
      <trkpt lat="42.92382" lon="0.20436">
        <ele>1393.05</ele>
        <time>2021-10-01T10:26:12.000Z</time>
      </trkpt>
      <trkpt lat="42.92375" lon="0.20447">
        <ele>1394.11</ele>
        <time>2021-10-01T10:26:17.000Z</time>
      </trkpt>
      <trkpt lat="42.92366" lon="0.20456">
        <ele>1394.62</ele>
        <time>2021-10-01T10:26:23.000Z</time>
      </trkpt>
      <trkpt lat="42.92359" lon="0.20466">
        <ele>1395.27</ele>
        <time>2021-10-01T10:26:29.000Z</time>
      </trkpt>
      <trkpt lat="42.9235" lon="0.20476">
        <ele>1395.45</ele>
        <time>2021-10-01T10:26:35.000Z</time>
      </trkpt>
      <trkpt lat="42.92343" lon="0.20486">
        <ele>1396.31</ele>
        <time>2021-10-01T10:26:41.000Z</time>
      </trkpt>
      <trkpt lat="42.92336" lon="0.20497">
        <ele>1397.17</ele>
        <time>2021-10-01T10:26:47.000Z</time>
      </trkpt>
      <trkpt lat="42.92331" lon="0.20508">
        <ele>1397.2</ele>
        <time>2021-10-01T10:26:54.000Z</time>
      </trkpt>
      <trkpt lat="42.92325" lon="0.20519">
        <ele>1397.96</ele>
        <time>2021-10-01T10:27:00.000Z</time>
      </trkpt>
      <trkpt lat="42.92316" lon="0.20527">
        <ele>1398.29</ele>
        <time>2021-10-01T10:27:05.000Z</time>
      </trkpt>
      <trkpt lat="42.92309" lon="0.20537">
        <ele>1398.77</ele>
        <time>2021-10-01T10:27:10.000Z</time>
      </trkpt>
      <trkpt lat="42.92301" lon="0.20546">
        <ele>1398.23</ele>
        <time>2021-10-01T10:27:15.000Z</time>
      </trkpt>
      <trkpt lat="42.92293" lon="0.20552">
        <ele>1397.93</ele>
        <time>2021-10-01T10:27:20.000Z</time>
      </trkpt>
      <trkpt lat="42.92285" lon="0.20561">
        <ele>1397.46</ele>
        <time>2021-10-01T10:27:26.000Z</time>
      </trkpt>
      <trkpt lat="42.92277" lon="0.2057">
        <ele>1396.16</ele>
        <time>2021-10-01T10:27:32.000Z</time>
      </trkpt>
      <trkpt lat="42.92267" lon="0.20576">
        <ele>1395.4</ele>
        <time>2021-10-01T10:27:37.000Z</time>
      </trkpt>
      <trkpt lat="42.92258" lon="0.20579">
        <ele>1393.95</ele>
        <time>2021-10-01T10:27:42.000Z</time>
      </trkpt>
      <trkpt lat="42.92247" lon="0.20583">
        <ele>1392.66</ele>
        <time>2021-10-01T10:27:47.000Z</time>
      </trkpt>
      <trkpt lat="42.92238" lon="0.20585">
        <ele>1392.01</ele>
        <time>2021-10-01T10:27:52.000Z</time>
      </trkpt>
      <trkpt lat="42.9223" lon="0.20591">
        <ele>1390.67</ele>
        <time>2021-10-01T10:27:58.000Z</time>
      </trkpt>
      <trkpt lat="42.92221" lon="0.20598">
        <ele>1389.34</ele>
        <time>2021-10-01T10:28:04.000Z</time>
      </trkpt>
      <trkpt lat="42.92213" lon="0.20607">
        <ele>1388.73</ele>
        <time>2021-10-01T10:28:10.000Z</time>
      </trkpt>
      <trkpt lat="42.92204" lon="0.20617">
        <ele>1387.76</ele>
        <time>2021-10-01T10:28:16.000Z</time>
      </trkpt>
      <trkpt lat="42.92196" lon="0.20626">
        <ele>1387.43</ele>
        <time>2021-10-01T10:28:22.000Z</time>
      </trkpt>
      <trkpt lat="42.92188" lon="0.20635">
        <ele>1386.93</ele>
        <time>2021-10-01T10:28:28.000Z</time>
      </trkpt>
      <trkpt lat="42.9218" lon="0.20642">
        <ele>1387.42</ele>
        <time>2021-10-01T10:28:34.000Z</time>
      </trkpt>
      <trkpt lat="42.92173" lon="0.20649">
        <ele>1387.99</ele>
        <time>2021-10-01T10:28:40.000Z</time>
      </trkpt>
      <trkpt lat="42.92165" lon="0.20656">
        <ele>1388.11</ele>
        <time>2021-10-01T10:28:46.000Z</time>
      </trkpt>
      <trkpt lat="42.92156" lon="0.20663">
        <ele>1388.47</ele>
        <time>2021-10-01T10:28:51.000Z</time>
      </trkpt>
      <trkpt lat="42.92148" lon="0.20669">
        <ele>1388.21</ele>
        <time>2021-10-01T10:28:57.000Z</time>
      </trkpt>
      <trkpt lat="42.92139" lon="0.20675">
        <ele>1389.19</ele>
        <time>2021-10-01T10:29:04.000Z</time>
      </trkpt>
      <trkpt lat="42.9213" lon="0.20681">
        <ele>1389.86</ele>
        <time>2021-10-01T10:29:11.000Z</time>
      </trkpt>
      <trkpt lat="42.92121" lon="0.20686">
        <ele>1389.9</ele>
        <time>2021-10-01T10:29:17.000Z</time>
      </trkpt>
      <trkpt lat="42.92112" lon="0.2069">
        <ele>1389.6</ele>
        <time>2021-10-01T10:29:22.000Z</time>
      </trkpt>
      <trkpt lat="42.92102" lon="0.20694">
        <ele>1389.46</ele>
        <time>2021-10-01T10:29:28.000Z</time>
      </trkpt>
      <trkpt lat="42.92092" lon="0.20698">
        <ele>1389.01</ele>
        <time>2021-10-01T10:29:34.000Z</time>
      </trkpt>
      <trkpt lat="42.92084" lon="0.20705">
        <ele>1388.87</ele>
        <time>2021-10-01T10:29:41.000Z</time>
      </trkpt>
      <trkpt lat="42.92076" lon="0.20712">
        <ele>1389.74</ele>
        <time>2021-10-01T10:29:48.000Z</time>
      </trkpt>
      <trkpt lat="42.92065" lon="0.20717">
        <ele>1390.19</ele>
        <time>2021-10-01T10:29:54.000Z</time>
      </trkpt>
      <trkpt lat="42.92058" lon="0.20728">
        <ele>1390.44</ele>
        <time>2021-10-01T10:30:01.000Z</time>
      </trkpt>
      <trkpt lat="42.92051" lon="0.20734">
        <ele>1390.79</ele>
        <time>2021-10-01T10:30:07.000Z</time>
      </trkpt>
      <trkpt lat="42.92041" lon="0.20739">
        <ele>1391.27</ele>
        <time>2021-10-01T10:30:12.000Z</time>
      </trkpt>
      <trkpt lat="42.92032" lon="0.20745">
        <ele>1391.98</ele>
        <time>2021-10-01T10:30:18.000Z</time>
      </trkpt>
      <trkpt lat="42.92024" lon="0.20751">
        <ele>1392.78</ele>
        <time>2021-10-01T10:30:23.000Z</time>
      </trkpt>
      <trkpt lat="42.92016" lon="0.20761">
        <ele>1393.36</ele>
        <time>2021-10-01T10:30:29.000Z</time>
      </trkpt>
      <trkpt lat="42.92007" lon="0.20768">
        <ele>1394.23</ele>
        <time>2021-10-01T10:30:35.000Z</time>
      </trkpt>
      <trkpt lat="42.91998" lon="0.20776">
        <ele>1394.29</ele>
        <time>2021-10-01T10:30:40.000Z</time>
      </trkpt>
      <trkpt lat="42.91989" lon="0.20784">
        <ele>1394.65</ele>
        <time>2021-10-01T10:30:45.000Z</time>
      </trkpt>
      <trkpt lat="42.91981" lon="0.2079">
        <ele>1395.24</ele>
        <time>2021-10-01T10:30:50.000Z</time>
      </trkpt>
      <trkpt lat="42.91971" lon="0.20797">
        <ele>1395.97</ele>
        <time>2021-10-01T10:30:55.000Z</time>
      </trkpt>
      <trkpt lat="42.91962" lon="0.20805">
        <ele>1397.05</ele>
        <time>2021-10-01T10:31:01.000Z</time>
      </trkpt>
      <trkpt lat="42.91954" lon="0.20811">
        <ele>1397.96</ele>
        <time>2021-10-01T10:31:07.000Z</time>
      </trkpt>
      <trkpt lat="42.91945" lon="0.20818">
        <ele>1398.88</ele>
        <time>2021-10-01T10:31:13.000Z</time>
      </trkpt>
      <trkpt lat="42.91937" lon="0.20824">
        <ele>1400.33</ele>
        <time>2021-10-01T10:31:19.000Z</time>
      </trkpt>
      <trkpt lat="42.91927" lon="0.2083">
        <ele>1401.07</ele>
        <time>2021-10-01T10:31:24.000Z</time>
      </trkpt>
      <trkpt lat="42.9192" lon="0.20839">
        <ele>1402.23</ele>
        <time>2021-10-01T10:31:31.000Z</time>
      </trkpt>
      <trkpt lat="42.91911" lon="0.20844">
        <ele>1403.51</ele>
        <time>2021-10-01T10:31:36.000Z</time>
      </trkpt>
      <trkpt lat="42.91901" lon="0.20848">
        <ele>1404.91</ele>
        <time>2021-10-01T10:31:41.000Z</time>
      </trkpt>
      <trkpt lat="42.91889" lon="0.20851">
        <ele>1406.08</ele>
        <time>2021-10-01T10:31:46.000Z</time>
      </trkpt>
      <trkpt lat="42.91878" lon="0.20851">
        <ele>1407.6</ele>
        <time>2021-10-01T10:31:51.000Z</time>
      </trkpt>
      <trkpt lat="42.91866" lon="0.20852">
        <ele>1408.54</ele>
        <time>2021-10-01T10:31:56.000Z</time>
      </trkpt>
      <trkpt lat="42.91856" lon="0.20853">
        <ele>1409.56</ele>
        <time>2021-10-01T10:32:01.000Z</time>
      </trkpt>
      <trkpt lat="42.91846" lon="0.20856">
        <ele>1410.34</ele>
        <time>2021-10-01T10:32:06.000Z</time>
      </trkpt>
      <trkpt lat="42.91835" lon="0.20858">
        <ele>1411.36</ele>
        <time>2021-10-01T10:32:12.000Z</time>
      </trkpt>
      <trkpt lat="42.91826" lon="0.2086">
        <ele>1412.34</ele>
        <time>2021-10-01T10:32:18.000Z</time>
      </trkpt>
      <trkpt lat="42.91817" lon="0.20867">
        <ele>1413.43</ele>
        <time>2021-10-01T10:32:24.000Z</time>
      </trkpt>
      <trkpt lat="42.9181" lon="0.20877">
        <ele>1414.81</ele>
        <time>2021-10-01T10:32:30.000Z</time>
      </trkpt>
      <trkpt lat="42.91801" lon="0.20882">
        <ele>1416.78</ele>
        <time>2021-10-01T10:32:38.000Z</time>
      </trkpt>
      <trkpt lat="42.91792" lon="0.20887">
        <ele>1417.35</ele>
        <time>2021-10-01T10:32:44.000Z</time>
      </trkpt>
      <trkpt lat="42.91783" lon="0.20894">
        <ele>1417.4</ele>
        <time>2021-10-01T10:32:49.000Z</time>
      </trkpt>
      <trkpt lat="42.91775" lon="0.20902">
        <ele>1416.92</ele>
        <time>2021-10-01T10:32:54.000Z</time>
      </trkpt>
      <trkpt lat="42.91767" lon="0.20907">
        <ele>1417.16</ele>
        <time>2021-10-01T10:32:59.000Z</time>
      </trkpt>
      <trkpt lat="42.9176" lon="0.20916">
        <ele>1417.86</ele>
        <time>2021-10-01T10:33:05.000Z</time>
      </trkpt>
      <trkpt lat="42.91753" lon="0.20925">
        <ele>1418.57</ele>
        <time>2021-10-01T10:33:10.000Z</time>
      </trkpt>
      <trkpt lat="42.91745" lon="0.20933">
        <ele>1420.02</ele>
        <time>2021-10-01T10:33:16.000Z</time>
      </trkpt>
      <trkpt lat="42.91737" lon="0.20942">
        <ele>1421.33</ele>
        <time>2021-10-01T10:33:22.000Z</time>
      </trkpt>
      <trkpt lat="42.91728" lon="0.20949">
        <ele>1422.25</ele>
        <time>2021-10-01T10:33:28.000Z</time>
      </trkpt>
      <trkpt lat="42.9172" lon="0.20956">
        <ele>1421.98</ele>
        <time>2021-10-01T10:33:34.000Z</time>
      </trkpt>
      <trkpt lat="42.9171" lon="0.20958">
        <ele>1422.69</ele>
        <time>2021-10-01T10:33:40.000Z</time>
      </trkpt>
      <trkpt lat="42.91704" lon="0.20948">
        <ele>1422.59</ele>
        <time>2021-10-01T10:33:46.000Z</time>
      </trkpt>
      <trkpt lat="42.91707" lon="0.20934">
        <ele>1423.26</ele>
        <time>2021-10-01T10:33:52.000Z</time>
      </trkpt>
      <trkpt lat="42.91713" lon="0.20923">
        <ele>1423.14</ele>
        <time>2021-10-01T10:33:58.000Z</time>
      </trkpt>
      <trkpt lat="42.9172" lon="0.20914">
        <ele>1423.12</ele>
        <time>2021-10-01T10:34:04.000Z</time>
      </trkpt>
      <trkpt lat="42.91727" lon="0.20905">
        <ele>1423.22</ele>
        <time>2021-10-01T10:34:10.000Z</time>
      </trkpt>
      <trkpt lat="42.91733" lon="0.20897">
        <ele>1423.47</ele>
        <time>2021-10-01T10:34:16.000Z</time>
      </trkpt>
      <trkpt lat="42.9174" lon="0.20888">
        <ele>1423.5</ele>
        <time>2021-10-01T10:34:21.000Z</time>
      </trkpt>
      <trkpt lat="42.91749" lon="0.2088">
        <ele>1423.57</ele>
        <time>2021-10-01T10:34:27.000Z</time>
      </trkpt>
      <trkpt lat="42.91757" lon="0.20871">
        <ele>1423.5</ele>
        <time>2021-10-01T10:34:33.000Z</time>
      </trkpt>
      <trkpt lat="42.91764" lon="0.20863">
        <ele>1423.58</ele>
        <time>2021-10-01T10:34:39.000Z</time>
      </trkpt>
      <trkpt lat="42.91773" lon="0.20854">
        <ele>1423.7</ele>
        <time>2021-10-01T10:34:45.000Z</time>
      </trkpt>
      <trkpt lat="42.91781" lon="0.20846">
        <ele>1423.89</ele>
        <time>2021-10-01T10:34:51.000Z</time>
      </trkpt>
      <trkpt lat="42.91788" lon="0.20838">
        <ele>1424.93</ele>
        <time>2021-10-01T10:34:58.000Z</time>
      </trkpt>
      <trkpt lat="42.91797" lon="0.20829">
        <ele>1426.41</ele>
        <time>2021-10-01T10:35:05.000Z</time>
      </trkpt>
      <trkpt lat="42.91804" lon="0.20821">
        <ele>1427.44</ele>
        <time>2021-10-01T10:35:11.000Z</time>
      </trkpt>
      <trkpt lat="42.91812" lon="0.20813">
        <ele>1428.14</ele>
        <time>2021-10-01T10:35:16.000Z</time>
      </trkpt>
      <trkpt lat="42.91819" lon="0.20806">
        <ele>1429.93</ele>
        <time>2021-10-01T10:35:24.000Z</time>
      </trkpt>
      <trkpt lat="42.91825" lon="0.20796">
        <ele>1431.31</ele>
        <time>2021-10-01T10:35:31.000Z</time>
      </trkpt>
      <trkpt lat="42.91833" lon="0.20788">
        <ele>1432.7</ele>
        <time>2021-10-01T10:35:36.000Z</time>
      </trkpt>
      <trkpt lat="42.9184" lon="0.20778">
        <ele>1434.23</ele>
        <time>2021-10-01T10:35:42.000Z</time>
      </trkpt>
      <trkpt lat="42.91848" lon="0.20772">
        <ele>1436.17</ele>
        <time>2021-10-01T10:35:48.000Z</time>
      </trkpt>
      <trkpt lat="42.91858" lon="0.20768">
        <ele>1437.99</ele>
        <time>2021-10-01T10:35:53.000Z</time>
      </trkpt>
      <trkpt lat="42.91865" lon="0.2076">
        <ele>1440.09</ele>
        <time>2021-10-01T10:35:58.000Z</time>
      </trkpt>
      <trkpt lat="42.91873" lon="0.20752">
        <ele>1442.22</ele>
        <time>2021-10-01T10:36:04.000Z</time>
      </trkpt>
      <trkpt lat="42.91881" lon="0.20743">
        <ele>1443.83</ele>
        <time>2021-10-01T10:36:10.000Z</time>
      </trkpt>
      <trkpt lat="42.91887" lon="0.20734">
        <ele>1444.93</ele>
        <time>2021-10-01T10:36:16.000Z</time>
      </trkpt>
      <trkpt lat="42.91895" lon="0.20725">
        <ele>1445.93</ele>
        <time>2021-10-01T10:36:22.000Z</time>
      </trkpt>
      <trkpt lat="42.91902" lon="0.20717">
        <ele>1446.74</ele>
        <time>2021-10-01T10:36:28.000Z</time>
      </trkpt>
      <trkpt lat="42.91911" lon="0.20711">
        <ele>1447.47</ele>
        <time>2021-10-01T10:36:34.000Z</time>
      </trkpt>
      <trkpt lat="42.91918" lon="0.20702">
        <ele>1448.36</ele>
        <time>2021-10-01T10:36:40.000Z</time>
      </trkpt>
      <trkpt lat="42.91925" lon="0.20694">
        <ele>1449.71</ele>
        <time>2021-10-01T10:36:47.000Z</time>
      </trkpt>
      <trkpt lat="42.91933" lon="0.20686">
        <ele>1450.93</ele>
        <time>2021-10-01T10:36:53.000Z</time>
      </trkpt>
      <trkpt lat="42.9194" lon="0.20678">
        <ele>1451.94</ele>
        <time>2021-10-01T10:36:59.000Z</time>
      </trkpt>
      <trkpt lat="42.91946" lon="0.20667">
        <ele>1452.76</ele>
        <time>2021-10-01T10:37:05.000Z</time>
      </trkpt>
      <trkpt lat="42.91953" lon="0.20657">
        <ele>1454.38</ele>
        <time>2021-10-01T10:37:11.000Z</time>
      </trkpt>
      <trkpt lat="42.9196" lon="0.20646">
        <ele>1456.7</ele>
        <time>2021-10-01T10:37:17.000Z</time>
      </trkpt>
      <trkpt lat="42.91966" lon="0.20634">
        <ele>1458.76</ele>
        <time>2021-10-01T10:37:22.000Z</time>
      </trkpt>
      <trkpt lat="42.9197" lon="0.20621">
        <ele>1461.2</ele>
        <time>2021-10-01T10:37:28.000Z</time>
      </trkpt>
      <trkpt lat="42.91976" lon="0.20612">
        <ele>1463.13</ele>
        <time>2021-10-01T10:37:36.000Z</time>
      </trkpt>
      <trkpt lat="42.91982" lon="0.20602">
        <ele>1464.04</ele>
        <time>2021-10-01T10:37:42.000Z</time>
      </trkpt>
      <trkpt lat="42.91989" lon="0.20594">
        <ele>1465.53</ele>
        <time>2021-10-01T10:37:49.000Z</time>
      </trkpt>
      <trkpt lat="42.91995" lon="0.20581">
        <ele>1466.83</ele>
        <time>2021-10-01T10:37:54.000Z</time>
      </trkpt>
      <trkpt lat="42.92002" lon="0.20572">
        <ele>1468.43</ele>
        <time>2021-10-01T10:38:01.000Z</time>
      </trkpt>
      <trkpt lat="42.92009" lon="0.20563">
        <ele>1470.58</ele>
        <time>2021-10-01T10:38:09.000Z</time>
      </trkpt>
      <trkpt lat="42.92019" lon="0.20559">
        <ele>1472.48</ele>
        <time>2021-10-01T10:38:15.000Z</time>
      </trkpt>
      <trkpt lat="42.92028" lon="0.20554">
        <ele>1474.22</ele>
        <time>2021-10-01T10:38:20.000Z</time>
      </trkpt>
      <trkpt lat="42.92037" lon="0.20547">
        <ele>1475.33</ele>
        <time>2021-10-01T10:38:25.000Z</time>
      </trkpt>
      <trkpt lat="42.92045" lon="0.2054">
        <ele>1476.26</ele>
        <time>2021-10-01T10:38:30.000Z</time>
      </trkpt>
      <trkpt lat="42.92051" lon="0.2053">
        <ele>1476.42</ele>
        <time>2021-10-01T10:38:36.000Z</time>
      </trkpt>
      <trkpt lat="42.92057" lon="0.20519">
        <ele>1476.47</ele>
        <time>2021-10-01T10:38:42.000Z</time>
      </trkpt>
      <trkpt lat="42.92063" lon="0.20508">
        <ele>1476.68</ele>
        <time>2021-10-01T10:38:49.000Z</time>
      </trkpt>
      <trkpt lat="42.92072" lon="0.20501">
        <ele>1476.69</ele>
        <time>2021-10-01T10:38:55.000Z</time>
      </trkpt>
      <trkpt lat="42.9208" lon="0.20492">
        <ele>1476.59</ele>
        <time>2021-10-01T10:39:00.000Z</time>
      </trkpt>
      <trkpt lat="42.92087" lon="0.20482">
        <ele>1477.27</ele>
        <time>2021-10-01T10:39:06.000Z</time>
      </trkpt>
      <trkpt lat="42.92096" lon="0.20474">
        <ele>1477.85</ele>
        <time>2021-10-01T10:39:12.000Z</time>
      </trkpt>
      <trkpt lat="42.92102" lon="0.20465">
        <ele>1478.67</ele>
        <time>2021-10-01T10:39:18.000Z</time>
      </trkpt>
      <trkpt lat="42.9211" lon="0.20457">
        <ele>1479.83</ele>
        <time>2021-10-01T10:39:25.000Z</time>
      </trkpt>
      <trkpt lat="42.92116" lon="0.20447">
        <ele>1480.96</ele>
        <time>2021-10-01T10:39:30.000Z</time>
      </trkpt>
      <trkpt lat="42.92122" lon="0.20437">
        <ele>1481.52</ele>
        <time>2021-10-01T10:39:37.000Z</time>
      </trkpt>
      <trkpt lat="42.9213" lon="0.20428">
        <ele>1482.56</ele>
        <time>2021-10-01T10:39:45.000Z</time>
      </trkpt>
      <trkpt lat="42.92138" lon="0.20419">
        <ele>1483.7</ele>
        <time>2021-10-01T10:39:51.000Z</time>
      </trkpt>
      <trkpt lat="42.92142" lon="0.20406">
        <ele>1484.86</ele>
        <time>2021-10-01T10:39:56.000Z</time>
      </trkpt>
      <trkpt lat="42.92146" lon="0.20395">
        <ele>1485.74</ele>
        <time>2021-10-01T10:40:01.000Z</time>
      </trkpt>
      <trkpt lat="42.92155" lon="0.20387">
        <ele>1486.86</ele>
        <time>2021-10-01T10:40:07.000Z</time>
      </trkpt>
      <trkpt lat="42.92162" lon="0.20377">
        <ele>1487.89</ele>
        <time>2021-10-01T10:40:13.000Z</time>
      </trkpt>
      <trkpt lat="42.92167" lon="0.20366">
        <ele>1488</ele>
        <time>2021-10-01T10:40:19.000Z</time>
      </trkpt>
      <trkpt lat="42.92172" lon="0.20356">
        <ele>1487.81</ele>
        <time>2021-10-01T10:40:25.000Z</time>
      </trkpt>
      <trkpt lat="42.92177" lon="0.20344">
        <ele>1487.97</ele>
        <time>2021-10-01T10:40:31.000Z</time>
      </trkpt>
      <trkpt lat="42.92181" lon="0.20332">
        <ele>1488.56</ele>
        <time>2021-10-01T10:40:36.000Z</time>
      </trkpt>
      <trkpt lat="42.92185" lon="0.20319">
        <ele>1488.54</ele>
        <time>2021-10-01T10:40:42.000Z</time>
      </trkpt>
      <trkpt lat="42.92188" lon="0.20305">
        <ele>1488.79</ele>
        <time>2021-10-01T10:40:49.000Z</time>
      </trkpt>
      <trkpt lat="42.92191" lon="0.20292">
        <ele>1489.17</ele>
        <time>2021-10-01T10:40:55.000Z</time>
      </trkpt>
      <trkpt lat="42.92195" lon="0.20279">
        <ele>1489.57</ele>
        <time>2021-10-01T10:41:01.000Z</time>
      </trkpt>
      <trkpt lat="42.92198" lon="0.20266">
        <ele>1490.06</ele>
        <time>2021-10-01T10:41:07.000Z</time>
      </trkpt>
      <trkpt lat="42.92203" lon="0.20254">
        <ele>1491.04</ele>
        <time>2021-10-01T10:41:14.000Z</time>
      </trkpt>
      <trkpt lat="42.92207" lon="0.20243">
        <ele>1491.49</ele>
        <time>2021-10-01T10:41:21.000Z</time>
      </trkpt>
      <trkpt lat="42.92211" lon="0.2023">
        <ele>1492.26</ele>
        <time>2021-10-01T10:41:28.000Z</time>
      </trkpt>
      <trkpt lat="42.92218" lon="0.20219">
        <ele>1493.24</ele>
        <time>2021-10-01T10:41:34.000Z</time>
      </trkpt>
      <trkpt lat="42.92222" lon="0.20206">
        <ele>1494.66</ele>
        <time>2021-10-01T10:41:41.000Z</time>
      </trkpt>
      <trkpt lat="42.92226" lon="0.20192">
        <ele>1494.62</ele>
        <time>2021-10-01T10:41:47.000Z</time>
      </trkpt>
      <trkpt lat="42.92229" lon="0.20178">
        <ele>1494.41</ele>
        <time>2021-10-01T10:41:53.000Z</time>
      </trkpt>
      <trkpt lat="42.92233" lon="0.20165">
        <ele>1494.7</ele>
        <time>2021-10-01T10:41:59.000Z</time>
      </trkpt>
      <trkpt lat="42.92237" lon="0.20152">
        <ele>1494.7</ele>
        <time>2021-10-01T10:42:04.000Z</time>
      </trkpt>
      <trkpt lat="42.92242" lon="0.2014">
        <ele>1495.1</ele>
        <time>2021-10-01T10:42:09.000Z</time>
      </trkpt>
      <trkpt lat="42.92246" lon="0.20129">
        <ele>1495.84</ele>
        <time>2021-10-01T10:42:14.000Z</time>
      </trkpt>
      <trkpt lat="42.92249" lon="0.20117">
        <ele>1497.11</ele>
        <time>2021-10-01T10:42:20.000Z</time>
      </trkpt>
      <trkpt lat="42.92251" lon="0.20103">
        <ele>1497.97</ele>
        <time>2021-10-01T10:42:26.000Z</time>
      </trkpt>
      <trkpt lat="42.92251" lon="0.20091">
        <ele>1499.27</ele>
        <time>2021-10-01T10:42:31.000Z</time>
      </trkpt>
      <trkpt lat="42.92249" lon="0.20078">
        <ele>1500.82</ele>
        <time>2021-10-01T10:42:36.000Z</time>
      </trkpt>
      <trkpt lat="42.92245" lon="0.20067">
        <ele>1502.06</ele>
        <time>2021-10-01T10:42:42.000Z</time>
      </trkpt>
      <trkpt lat="42.92243" lon="0.20053">
        <ele>1503.16</ele>
        <time>2021-10-01T10:42:49.000Z</time>
      </trkpt>
      <trkpt lat="42.92241" lon="0.20041">
        <ele>1504.01</ele>
        <time>2021-10-01T10:42:55.000Z</time>
      </trkpt>
      <trkpt lat="42.92235" lon="0.20029">
        <ele>1506.01</ele>
        <time>2021-10-01T10:43:02.000Z</time>
      </trkpt>
      <trkpt lat="42.92232" lon="0.20017">
        <ele>1507.45</ele>
        <time>2021-10-01T10:43:09.000Z</time>
      </trkpt>
      <trkpt lat="42.92227" lon="0.20005">
        <ele>1508.43</ele>
        <time>2021-10-01T10:43:15.000Z</time>
      </trkpt>
      <trkpt lat="42.92223" lon="0.19994">
        <ele>1510.29</ele>
        <time>2021-10-01T10:43:21.000Z</time>
      </trkpt>
      <trkpt lat="42.92221" lon="0.1998">
        <ele>1512.03</ele>
        <time>2021-10-01T10:43:27.000Z</time>
      </trkpt>
      <trkpt lat="42.92216" lon="0.19968">
        <ele>1513.64</ele>
        <time>2021-10-01T10:43:33.000Z</time>
      </trkpt>
      <trkpt lat="42.92211" lon="0.19957">
        <ele>1515.1</ele>
        <time>2021-10-01T10:43:39.000Z</time>
      </trkpt>
      <trkpt lat="42.92204" lon="0.19946">
        <ele>1516.69</ele>
        <time>2021-10-01T10:43:45.000Z</time>
      </trkpt>
      <trkpt lat="42.922" lon="0.19934">
        <ele>1517.66</ele>
        <time>2021-10-01T10:43:51.000Z</time>
      </trkpt>
      <trkpt lat="42.92195" lon="0.19923">
        <ele>1519.11</ele>
        <time>2021-10-01T10:43:58.000Z</time>
      </trkpt>
      <trkpt lat="42.9219" lon="0.19911">
        <ele>1520.44</ele>
        <time>2021-10-01T10:44:04.000Z</time>
      </trkpt>
      <trkpt lat="42.92185" lon="0.19899">
        <ele>1521.48</ele>
        <time>2021-10-01T10:44:10.000Z</time>
      </trkpt>
      <trkpt lat="42.92181" lon="0.19886">
        <ele>1521.68</ele>
        <time>2021-10-01T10:44:15.000Z</time>
      </trkpt>
      <trkpt lat="42.92177" lon="0.19874">
        <ele>1522.26</ele>
        <time>2021-10-01T10:44:21.000Z</time>
      </trkpt>
      <trkpt lat="42.92171" lon="0.19864">
        <ele>1523.33</ele>
        <time>2021-10-01T10:44:27.000Z</time>
      </trkpt>
      <trkpt lat="42.92167" lon="0.19852">
        <ele>1524.34</ele>
        <time>2021-10-01T10:44:33.000Z</time>
      </trkpt>
      <trkpt lat="42.92161" lon="0.19842">
        <ele>1525.16</ele>
        <time>2021-10-01T10:44:38.000Z</time>
      </trkpt>
      <trkpt lat="42.92156" lon="0.19831">
        <ele>1526.13</ele>
        <time>2021-10-01T10:44:44.000Z</time>
      </trkpt>
      <trkpt lat="42.92151" lon="0.1982">
        <ele>1526.97</ele>
        <time>2021-10-01T10:44:50.000Z</time>
      </trkpt>
      <trkpt lat="42.92145" lon="0.19809">
        <ele>1527.39</ele>
        <time>2021-10-01T10:44:56.000Z</time>
      </trkpt>
      <trkpt lat="42.9214" lon="0.19796">
        <ele>1527.87</ele>
        <time>2021-10-01T10:45:02.000Z</time>
      </trkpt>
      <trkpt lat="42.92134" lon="0.19787">
        <ele>1528.46</ele>
        <time>2021-10-01T10:45:07.000Z</time>
      </trkpt>
      <trkpt lat="42.92128" lon="0.19775">
        <ele>1529.44</ele>
        <time>2021-10-01T10:45:13.000Z</time>
      </trkpt>
      <trkpt lat="42.92123" lon="0.19765">
        <ele>1530.14</ele>
        <time>2021-10-01T10:45:19.000Z</time>
      </trkpt>
      <trkpt lat="42.92118" lon="0.19753">
        <ele>1531.15</ele>
        <time>2021-10-01T10:45:26.000Z</time>
      </trkpt>
      <trkpt lat="42.92112" lon="0.19743">
        <ele>1532.51</ele>
        <time>2021-10-01T10:45:32.000Z</time>
      </trkpt>
      <trkpt lat="42.92108" lon="0.19731">
        <ele>1533.73</ele>
        <time>2021-10-01T10:45:38.000Z</time>
      </trkpt>
      <trkpt lat="42.92104" lon="0.19719">
        <ele>1534.66</ele>
        <time>2021-10-01T10:45:44.000Z</time>
      </trkpt>
      <trkpt lat="42.92098" lon="0.19709">
        <ele>1535.37</ele>
        <time>2021-10-01T10:45:50.000Z</time>
      </trkpt>
      <trkpt lat="42.92093" lon="0.19699">
        <ele>1536.24</ele>
        <time>2021-10-01T10:45:56.000Z</time>
      </trkpt>
      <trkpt lat="42.92087" lon="0.19689">
        <ele>1536.7</ele>
        <time>2021-10-01T10:46:02.000Z</time>
      </trkpt>
      <trkpt lat="42.92081" lon="0.19679">
        <ele>1537.86</ele>
        <time>2021-10-01T10:46:08.000Z</time>
      </trkpt>
      <trkpt lat="42.92075" lon="0.19669">
        <ele>1538.45</ele>
        <time>2021-10-01T10:46:14.000Z</time>
      </trkpt>
      <trkpt lat="42.9207" lon="0.19657">
        <ele>1539.34</ele>
        <time>2021-10-01T10:46:20.000Z</time>
      </trkpt>
      <trkpt lat="42.92065" lon="0.19646">
        <ele>1540.33</ele>
        <time>2021-10-01T10:46:26.000Z</time>
      </trkpt>
      <trkpt lat="42.92061" lon="0.19633">
        <ele>1541.34</ele>
        <time>2021-10-01T10:46:32.000Z</time>
      </trkpt>
      <trkpt lat="42.92056" lon="0.1962">
        <ele>1542.56</ele>
        <time>2021-10-01T10:46:39.000Z</time>
      </trkpt>
      <trkpt lat="42.92056" lon="0.19607">
        <ele>1543.63</ele>
        <time>2021-10-01T10:46:45.000Z</time>
      </trkpt>
      <trkpt lat="42.92058" lon="0.19594">
        <ele>1544.37</ele>
        <time>2021-10-01T10:46:51.000Z</time>
      </trkpt>
      <trkpt lat="42.92058" lon="0.19582">
        <ele>1545.24</ele>
        <time>2021-10-01T10:46:57.000Z</time>
      </trkpt>
      <trkpt lat="42.92055" lon="0.19569">
        <ele>1546.54</ele>
        <time>2021-10-01T10:47:04.000Z</time>
      </trkpt>
      <trkpt lat="42.92051" lon="0.19558">
        <ele>1547.53</ele>
        <time>2021-10-01T10:47:10.000Z</time>
      </trkpt>
      <trkpt lat="42.92044" lon="0.19547">
        <ele>1548.34</ele>
        <time>2021-10-01T10:47:16.000Z</time>
      </trkpt>
      <trkpt lat="42.92038" lon="0.19535">
        <ele>1549.09</ele>
        <time>2021-10-01T10:47:22.000Z</time>
      </trkpt>
      <trkpt lat="42.92034" lon="0.19523">
        <ele>1550.16</ele>
        <time>2021-10-01T10:47:29.000Z</time>
      </trkpt>
      <trkpt lat="42.92028" lon="0.19512">
        <ele>1551.23</ele>
        <time>2021-10-01T10:47:35.000Z</time>
      </trkpt>
      <trkpt lat="42.92021" lon="0.19503">
        <ele>1552.06</ele>
        <time>2021-10-01T10:47:40.000Z</time>
      </trkpt>
      <trkpt lat="42.92016" lon="0.19492">
        <ele>1552.64</ele>
        <time>2021-10-01T10:47:46.000Z</time>
      </trkpt>
      <trkpt lat="42.92012" lon="0.1948">
        <ele>1553.76</ele>
        <time>2021-10-01T10:47:52.000Z</time>
      </trkpt>
      <trkpt lat="42.92009" lon="0.19468">
        <ele>1554.47</ele>
        <time>2021-10-01T10:47:58.000Z</time>
      </trkpt>
      <trkpt lat="42.91997" lon="0.19461">
        <ele>1554.98</ele>
        <time>2021-10-01T10:48:03.000Z</time>
      </trkpt>
      <trkpt lat="42.91987" lon="0.19452">
        <ele>1555.39</ele>
        <time>2021-10-01T10:48:08.000Z</time>
      </trkpt>
      <trkpt lat="42.9198" lon="0.19443">
        <ele>1555.79</ele>
        <time>2021-10-01T10:48:13.000Z</time>
      </trkpt>
      <trkpt lat="42.91974" lon="0.19432">
        <ele>1556.36</ele>
        <time>2021-10-01T10:48:19.000Z</time>
      </trkpt>
      <trkpt lat="42.9197" lon="0.19422">
        <ele>1556.48</ele>
        <time>2021-10-01T10:48:25.000Z</time>
      </trkpt>
      <trkpt lat="42.91966" lon="0.1941">
        <ele>1557</ele>
        <time>2021-10-01T10:48:31.000Z</time>
      </trkpt>
      <trkpt lat="42.91962" lon="0.19397">
        <ele>1557.29</ele>
        <time>2021-10-01T10:48:37.000Z</time>
      </trkpt>
      <trkpt lat="42.91961" lon="0.19383">
        <ele>1557.5</ele>
        <time>2021-10-01T10:48:43.000Z</time>
      </trkpt>
      <trkpt lat="42.91957" lon="0.1937">
        <ele>1557.77</ele>
        <time>2021-10-01T10:48:49.000Z</time>
      </trkpt>
      <trkpt lat="42.91959" lon="0.19357">
        <ele>1558.02</ele>
        <time>2021-10-01T10:48:55.000Z</time>
      </trkpt>
      <trkpt lat="42.91964" lon="0.19346">
        <ele>1559.49</ele>
        <time>2021-10-01T10:49:00.000Z</time>
      </trkpt>
      <trkpt lat="42.91969" lon="0.19336">
        <ele>1562.34</ele>
        <time>2021-10-01T10:49:05.000Z</time>
      </trkpt>
      <trkpt lat="42.91971" lon="0.19324">
        <ele>1565.26</ele>
        <time>2021-10-01T10:49:11.000Z</time>
      </trkpt>
      <trkpt lat="42.91973" lon="0.19311">
        <ele>1567.39</ele>
        <time>2021-10-01T10:49:17.000Z</time>
      </trkpt>
      <trkpt lat="42.91973" lon="0.19298">
        <ele>1568.81</ele>
        <time>2021-10-01T10:49:23.000Z</time>
      </trkpt>
      <trkpt lat="42.91973" lon="0.19285">
        <ele>1570.53</ele>
        <time>2021-10-01T10:49:29.000Z</time>
      </trkpt>
      <trkpt lat="42.91972" lon="0.19272">
        <ele>1571.44</ele>
        <time>2021-10-01T10:49:35.000Z</time>
      </trkpt>
      <trkpt lat="42.91972" lon="0.19259">
        <ele>1572.53</ele>
        <time>2021-10-01T10:49:41.000Z</time>
      </trkpt>
      <trkpt lat="42.91971" lon="0.19246">
        <ele>1574.13</ele>
        <time>2021-10-01T10:49:47.000Z</time>
      </trkpt>
      <trkpt lat="42.91971" lon="0.19233">
        <ele>1575.91</ele>
        <time>2021-10-01T10:49:53.000Z</time>
      </trkpt>
      <trkpt lat="42.9197" lon="0.1922">
        <ele>1577.7</ele>
        <time>2021-10-01T10:49:59.000Z</time>
      </trkpt>
      <trkpt lat="42.91968" lon="0.19206">
        <ele>1578.69</ele>
        <time>2021-10-01T10:50:05.000Z</time>
      </trkpt>
      <trkpt lat="42.91965" lon="0.19193">
        <ele>1578.97</ele>
        <time>2021-10-01T10:50:11.000Z</time>
      </trkpt>
      <trkpt lat="42.91963" lon="0.19181">
        <ele>1579.86</ele>
        <time>2021-10-01T10:50:17.000Z</time>
      </trkpt>
      <trkpt lat="42.9196" lon="0.19169">
        <ele>1580.84</ele>
        <time>2021-10-01T10:50:23.000Z</time>
      </trkpt>
      <trkpt lat="42.91957" lon="0.19156">
        <ele>1581.67</ele>
        <time>2021-10-01T10:50:29.000Z</time>
      </trkpt>
      <trkpt lat="42.91952" lon="0.19145">
        <ele>1581.97</ele>
        <time>2021-10-01T10:50:35.000Z</time>
      </trkpt>
      <trkpt lat="42.91947" lon="0.19133">
        <ele>1582.5</ele>
        <time>2021-10-01T10:50:41.000Z</time>
      </trkpt>
      <trkpt lat="42.9194" lon="0.19122">
        <ele>1583.09</ele>
        <time>2021-10-01T10:50:47.000Z</time>
      </trkpt>
      <trkpt lat="42.91936" lon="0.19111">
        <ele>1584.03</ele>
        <time>2021-10-01T10:50:53.000Z</time>
      </trkpt>
      <trkpt lat="42.9193" lon="0.19101">
        <ele>1585.04</ele>
        <time>2021-10-01T10:50:59.000Z</time>
      </trkpt>
      <trkpt lat="42.91923" lon="0.19093">
        <ele>1585.96</ele>
        <time>2021-10-01T10:51:05.000Z</time>
      </trkpt>
      <trkpt lat="42.91915" lon="0.19085">
        <ele>1586.84</ele>
        <time>2021-10-01T10:51:12.000Z</time>
      </trkpt>
      <trkpt lat="42.91907" lon="0.19076">
        <ele>1588.03</ele>
        <time>2021-10-01T10:51:19.000Z</time>
      </trkpt>
      <trkpt lat="42.91899" lon="0.19068">
        <ele>1589.26</ele>
        <time>2021-10-01T10:51:25.000Z</time>
      </trkpt>
      <trkpt lat="42.91891" lon="0.1906">
        <ele>1590.04</ele>
        <time>2021-10-01T10:51:31.000Z</time>
      </trkpt>
      <trkpt lat="42.91883" lon="0.19051">
        <ele>1591.75</ele>
        <time>2021-10-01T10:51:38.000Z</time>
      </trkpt>
      <trkpt lat="42.91875" lon="0.19043">
        <ele>1592.66</ele>
        <time>2021-10-01T10:51:44.000Z</time>
      </trkpt>
      <trkpt lat="42.91868" lon="0.19036">
        <ele>1593.46</ele>
        <time>2021-10-01T10:51:50.000Z</time>
      </trkpt>
      <trkpt lat="42.91859" lon="0.19028">
        <ele>1594.83</ele>
        <time>2021-10-01T10:51:57.000Z</time>
      </trkpt>
      <trkpt lat="42.91851" lon="0.19022">
        <ele>1596.13</ele>
        <time>2021-10-01T10:52:03.000Z</time>
      </trkpt>
      <trkpt lat="42.91843" lon="0.19013">
        <ele>1597.57</ele>
        <time>2021-10-01T10:52:10.000Z</time>
      </trkpt>
      <trkpt lat="42.91836" lon="0.19004">
        <ele>1598.54</ele>
        <time>2021-10-01T10:52:16.000Z</time>
      </trkpt>
      <trkpt lat="42.91828" lon="0.18996">
        <ele>1599.19</ele>
        <time>2021-10-01T10:52:22.000Z</time>
      </trkpt>
      <trkpt lat="42.91821" lon="0.18988">
        <ele>1599.57</ele>
        <time>2021-10-01T10:52:28.000Z</time>
      </trkpt>
      <trkpt lat="42.91813" lon="0.1898">
        <ele>1600.26</ele>
        <time>2021-10-01T10:52:34.000Z</time>
      </trkpt>
      <trkpt lat="42.91806" lon="0.18972">
        <ele>1601.15</ele>
        <time>2021-10-01T10:52:40.000Z</time>
      </trkpt>
      <trkpt lat="42.91799" lon="0.18964">
        <ele>1603.03</ele>
        <time>2021-10-01T10:52:47.000Z</time>
      </trkpt>
      <trkpt lat="42.91789" lon="0.18958">
        <ele>1604.9</ele>
        <time>2021-10-01T10:52:54.000Z</time>
      </trkpt>
      <trkpt lat="42.91783" lon="0.18949">
        <ele>1605.77</ele>
        <time>2021-10-01T10:53:00.000Z</time>
      </trkpt>
      <trkpt lat="42.91776" lon="0.18939">
        <ele>1606.54</ele>
        <time>2021-10-01T10:53:06.000Z</time>
      </trkpt>
      <trkpt lat="42.91769" lon="0.1893">
        <ele>1607.34</ele>
        <time>2021-10-01T10:53:12.000Z</time>
      </trkpt>
      <trkpt lat="42.91762" lon="0.1892">
        <ele>1608.76</ele>
        <time>2021-10-01T10:53:19.000Z</time>
      </trkpt>
      <trkpt lat="42.91755" lon="0.18911">
        <ele>1610.14</ele>
        <time>2021-10-01T10:53:26.000Z</time>
      </trkpt>
      <trkpt lat="42.91747" lon="0.18902">
        <ele>1611.43</ele>
        <time>2021-10-01T10:53:33.000Z</time>
      </trkpt>
      <trkpt lat="42.91739" lon="0.18894">
        <ele>1612.26</ele>
        <time>2021-10-01T10:53:40.000Z</time>
      </trkpt>
      <trkpt lat="42.91731" lon="0.18887">
        <ele>1613.54</ele>
        <time>2021-10-01T10:53:47.000Z</time>
      </trkpt>
      <trkpt lat="42.91723" lon="0.1888">
        <ele>1614.36</ele>
        <time>2021-10-01T10:53:53.000Z</time>
      </trkpt>
      <trkpt lat="42.91714" lon="0.18873">
        <ele>1615.07</ele>
        <time>2021-10-01T10:53:59.000Z</time>
      </trkpt>
      <trkpt lat="42.91706" lon="0.18866">
        <ele>1615.86</ele>
        <time>2021-10-01T10:54:05.000Z</time>
      </trkpt>
      <trkpt lat="42.91699" lon="0.18859">
        <ele>1616.47</ele>
        <time>2021-10-01T10:54:11.000Z</time>
      </trkpt>
      <trkpt lat="42.91691" lon="0.18852">
        <ele>1617.09</ele>
        <time>2021-10-01T10:54:17.000Z</time>
      </trkpt>
      <trkpt lat="42.91684" lon="0.18843">
        <ele>1618.04</ele>
        <time>2021-10-01T10:54:24.000Z</time>
      </trkpt>
      <trkpt lat="42.91676" lon="0.18834">
        <ele>1618.84</ele>
        <time>2021-10-01T10:54:31.000Z</time>
      </trkpt>
      <trkpt lat="42.91669" lon="0.18825">
        <ele>1620.04</ele>
        <time>2021-10-01T10:54:38.000Z</time>
      </trkpt>
      <trkpt lat="42.91662" lon="0.18818">
        <ele>1621.43</ele>
        <time>2021-10-01T10:54:45.000Z</time>
      </trkpt>
      <trkpt lat="42.91653" lon="0.18809">
        <ele>1622.38</ele>
        <time>2021-10-01T10:54:52.000Z</time>
      </trkpt>
      <trkpt lat="42.91645" lon="0.18803">
        <ele>1623.34</ele>
        <time>2021-10-01T10:54:58.000Z</time>
      </trkpt>
      <trkpt lat="42.91636" lon="0.18796">
        <ele>1624.46</ele>
        <time>2021-10-01T10:55:05.000Z</time>
      </trkpt>
      <trkpt lat="42.91628" lon="0.18788">
        <ele>1625.71</ele>
        <time>2021-10-01T10:55:12.000Z</time>
      </trkpt>
      <trkpt lat="42.91622" lon="0.18779">
        <ele>1626.54</ele>
        <time>2021-10-01T10:55:19.000Z</time>
      </trkpt>
      <trkpt lat="42.91618" lon="0.18766">
        <ele>1627.76</ele>
        <time>2021-10-01T10:55:26.000Z</time>
      </trkpt>
      <trkpt lat="42.91617" lon="0.18753">
        <ele>1629.41</ele>
        <time>2021-10-01T10:55:33.000Z</time>
      </trkpt>
      <trkpt lat="42.91612" lon="0.18741">
        <ele>1631.33</ele>
        <time>2021-10-01T10:55:40.000Z</time>
      </trkpt>
      <trkpt lat="42.91605" lon="0.18733">
        <ele>1632.37</ele>
        <time>2021-10-01T10:55:46.000Z</time>
      </trkpt>
      <trkpt lat="42.91598" lon="0.18724">
        <ele>1633.64</ele>
        <time>2021-10-01T10:55:53.000Z</time>
      </trkpt>
      <trkpt lat="42.9159" lon="0.18715">
        <ele>1634.93</ele>
        <time>2021-10-01T10:56:00.000Z</time>
      </trkpt>
      <trkpt lat="42.91581" lon="0.18708">
        <ele>1636.27</ele>
        <time>2021-10-01T10:56:07.000Z</time>
      </trkpt>
      <trkpt lat="42.91572" lon="0.18703">
        <ele>1637.26</ele>
        <time>2021-10-01T10:56:14.000Z</time>
      </trkpt>
      <trkpt lat="42.91562" lon="0.18704">
        <ele>1638.43</ele>
        <time>2021-10-01T10:56:20.000Z</time>
      </trkpt>
      <trkpt lat="42.91553" lon="0.18706">
        <ele>1639.63</ele>
        <time>2021-10-01T10:56:26.000Z</time>
      </trkpt>
      <trkpt lat="42.91544" lon="0.1871">
        <ele>1641.11</ele>
        <time>2021-10-01T10:56:32.000Z</time>
      </trkpt>
      <trkpt lat="42.91535" lon="0.18714">
        <ele>1643.18</ele>
        <time>2021-10-01T10:56:39.000Z</time>
      </trkpt>
      <trkpt lat="42.91525" lon="0.18715">
        <ele>1645.27</ele>
        <time>2021-10-01T10:56:45.000Z</time>
      </trkpt>
      <trkpt lat="42.91516" lon="0.18714">
        <ele>1647.39</ele>
        <time>2021-10-01T10:56:51.000Z</time>
      </trkpt>
      <trkpt lat="42.91507" lon="0.18709">
        <ele>1649.3</ele>
        <time>2021-10-01T10:56:57.000Z</time>
      </trkpt>
      <trkpt lat="42.91498" lon="0.18702">
        <ele>1651.2</ele>
        <time>2021-10-01T10:57:03.000Z</time>
      </trkpt>
      <trkpt lat="42.91491" lon="0.18695">
        <ele>1652.8</ele>
        <time>2021-10-01T10:57:09.000Z</time>
      </trkpt>
      <trkpt lat="42.91483" lon="0.18689">
        <ele>1654.49</ele>
        <time>2021-10-01T10:57:14.000Z</time>
      </trkpt>
      <trkpt lat="42.91475" lon="0.18681">
        <ele>1656.57</ele>
        <time>2021-10-01T10:57:20.000Z</time>
      </trkpt>
      <trkpt lat="42.91466" lon="0.18674">
        <ele>1658.99</ele>
        <time>2021-10-01T10:57:27.000Z</time>
      </trkpt>
      <trkpt lat="42.91457" lon="0.18668">
        <ele>1661.59</ele>
        <time>2021-10-01T10:57:35.000Z</time>
      </trkpt>
      <trkpt lat="42.91448" lon="0.18663">
        <ele>1665.67</ele>
        <time>2021-10-01T10:57:45.000Z</time>
      </trkpt>
      <trkpt lat="42.91439" lon="0.18657">
        <ele>1668.96</ele>
        <time>2021-10-01T10:57:52.000Z</time>
      </trkpt>
      <trkpt lat="42.9143" lon="0.18654">
        <ele>1670.53</ele>
        <time>2021-10-01T10:57:58.000Z</time>
      </trkpt>
      <trkpt lat="42.9142" lon="0.18654">
        <ele>1671.63</ele>
        <time>2021-10-01T10:58:04.000Z</time>
      </trkpt>
      <trkpt lat="42.91411" lon="0.18653">
        <ele>1673.47</ele>
        <time>2021-10-01T10:58:10.000Z</time>
      </trkpt>
      <trkpt lat="42.91401" lon="0.18652">
        <ele>1675.94</ele>
        <time>2021-10-01T10:58:16.000Z</time>
      </trkpt>
      <trkpt lat="42.91391" lon="0.18654">
        <ele>1677.91</ele>
        <time>2021-10-01T10:58:22.000Z</time>
      </trkpt>
      <trkpt lat="42.91381" lon="0.18656">
        <ele>1679.57</ele>
        <time>2021-10-01T10:58:27.000Z</time>
      </trkpt>
      <trkpt lat="42.91371" lon="0.18655">
        <ele>1681.57</ele>
        <time>2021-10-01T10:58:33.000Z</time>
      </trkpt>
      <trkpt lat="42.91361" lon="0.18651">
        <ele>1683.4</ele>
        <time>2021-10-01T10:58:39.000Z</time>
      </trkpt>
      <trkpt lat="42.91354" lon="0.18644">
        <ele>1685.1</ele>
        <time>2021-10-01T10:58:45.000Z</time>
      </trkpt>
      <trkpt lat="42.9135" lon="0.18631">
        <ele>1687.2</ele>
        <time>2021-10-01T10:58:52.000Z</time>
      </trkpt>
      <trkpt lat="42.9135" lon="0.18617">
        <ele>1690.02</ele>
        <time>2021-10-01T10:59:03.000Z</time>
      </trkpt>
      <trkpt lat="42.91343" lon="0.18606">
        <ele>1687.07</ele>
        <time>2021-10-01T10:59:08.000Z</time>
      </trkpt>
      <trkpt lat="42.91338" lon="0.18593">
        <ele>1681.88</ele>
        <time>2021-10-01T10:59:14.000Z</time>
      </trkpt>
      <trkpt lat="42.91335" lon="0.18581">
        <ele>1679.35</ele>
        <time>2021-10-01T10:59:20.000Z</time>
      </trkpt>
      <trkpt lat="42.91332" lon="0.18569">
        <ele>1677.85</ele>
        <time>2021-10-01T10:59:26.000Z</time>
      </trkpt>
      <trkpt lat="42.91327" lon="0.18556">
        <ele>1677.21</ele>
        <time>2021-10-01T10:59:33.000Z</time>
      </trkpt>
      <trkpt lat="42.91322" lon="0.18544">
        <ele>1677.27</ele>
        <time>2021-10-01T10:59:40.000Z</time>
      </trkpt>
      <trkpt lat="42.91318" lon="0.18533">
        <ele>1677.77</ele>
        <time>2021-10-01T10:59:46.000Z</time>
      </trkpt>
      <trkpt lat="42.91314" lon="0.18521">
        <ele>1677.8</ele>
        <time>2021-10-01T10:59:52.000Z</time>
      </trkpt>
      <trkpt lat="42.91309" lon="0.1851">
        <ele>1677.89</ele>
        <time>2021-10-01T10:59:58.000Z</time>
      </trkpt>
      <trkpt lat="42.91304" lon="0.18499">
        <ele>1678.09</ele>
        <time>2021-10-01T11:00:04.000Z</time>
      </trkpt>
      <trkpt lat="42.91299" lon="0.18487">
        <ele>1678.75</ele>
        <time>2021-10-01T11:00:11.000Z</time>
      </trkpt>
      <trkpt lat="42.91294" lon="0.18475">
        <ele>1679.44</ele>
        <time>2021-10-01T11:00:18.000Z</time>
      </trkpt>
      <trkpt lat="42.91288" lon="0.18465">
        <ele>1680.07</ele>
        <time>2021-10-01T11:00:24.000Z</time>
      </trkpt>
      <trkpt lat="42.91281" lon="0.18456">
        <ele>1680.57</ele>
        <time>2021-10-01T11:00:30.000Z</time>
      </trkpt>
      <trkpt lat="42.91273" lon="0.18447">
        <ele>1680.97</ele>
        <time>2021-10-01T11:00:36.000Z</time>
      </trkpt>
      <trkpt lat="42.91266" lon="0.18439">
        <ele>1682.04</ele>
        <time>2021-10-01T11:00:42.000Z</time>
      </trkpt>
      <trkpt lat="42.91258" lon="0.18433">
        <ele>1682.96</ele>
        <time>2021-10-01T11:00:48.000Z</time>
      </trkpt>
      <trkpt lat="42.91249" lon="0.18428">
        <ele>1683.74</ele>
        <time>2021-10-01T11:00:54.000Z</time>
      </trkpt>
      <trkpt lat="42.91241" lon="0.18422">
        <ele>1684.93</ele>
        <time>2021-10-01T11:01:00.000Z</time>
      </trkpt>
      <trkpt lat="42.91231" lon="0.18418">
        <ele>1686.46</ele>
        <time>2021-10-01T11:01:07.000Z</time>
      </trkpt>
      <trkpt lat="42.91222" lon="0.18416">
        <ele>1687.53</ele>
        <time>2021-10-01T11:01:13.000Z</time>
      </trkpt>
      <trkpt lat="42.91213" lon="0.18415">
        <ele>1688.17</ele>
        <time>2021-10-01T11:01:19.000Z</time>
      </trkpt>
      <trkpt lat="42.91202" lon="0.18413">
        <ele>1689.71</ele>
        <time>2021-10-01T11:01:26.000Z</time>
      </trkpt>
      <trkpt lat="42.91192" lon="0.18409">
        <ele>1690.76</ele>
        <time>2021-10-01T11:01:33.000Z</time>
      </trkpt>
      <trkpt lat="42.91184" lon="0.18404">
        <ele>1690.97</ele>
        <time>2021-10-01T11:01:39.000Z</time>
      </trkpt>
      <trkpt lat="42.91175" lon="0.18398">
        <ele>1691.54</ele>
        <time>2021-10-01T11:01:46.000Z</time>
      </trkpt>
      <trkpt lat="42.91167" lon="0.18391">
        <ele>1692.49</ele>
        <time>2021-10-01T11:01:53.000Z</time>
      </trkpt>
      <trkpt lat="42.9116" lon="0.18382">
        <ele>1694.03</ele>
        <time>2021-10-01T11:02:01.000Z</time>
      </trkpt>
      <trkpt lat="42.91152" lon="0.18374">
        <ele>1695.07</ele>
        <time>2021-10-01T11:02:08.000Z</time>
      </trkpt>
      <trkpt lat="42.91145" lon="0.18366">
        <ele>1695.94</ele>
        <time>2021-10-01T11:02:15.000Z</time>
      </trkpt>
      <trkpt lat="42.91136" lon="0.18358">
        <ele>1696.67</ele>
        <time>2021-10-01T11:02:22.000Z</time>
      </trkpt>
      <trkpt lat="42.91131" lon="0.18346">
        <ele>1697.14</ele>
        <time>2021-10-01T11:02:29.000Z</time>
      </trkpt>
      <trkpt lat="42.91127" lon="0.18334">
        <ele>1698.43</ele>
        <time>2021-10-01T11:02:35.000Z</time>
      </trkpt>
      <trkpt lat="42.91124" lon="0.18321">
        <ele>1699.76</ele>
        <time>2021-10-01T11:02:42.000Z</time>
      </trkpt>
      <trkpt lat="42.91119" lon="0.18309">
        <ele>1700.64</ele>
        <time>2021-10-01T11:02:49.000Z</time>
      </trkpt>
      <trkpt lat="42.91115" lon="0.18297">
        <ele>1701.84</ele>
        <time>2021-10-01T11:02:56.000Z</time>
      </trkpt>
      <trkpt lat="42.91111" lon="0.18286">
        <ele>1702.76</ele>
        <time>2021-10-01T11:03:02.000Z</time>
      </trkpt>
      <trkpt lat="42.91108" lon="0.18273">
        <ele>1703.76</ele>
        <time>2021-10-01T11:03:09.000Z</time>
      </trkpt>
      <trkpt lat="42.91105" lon="0.18261">
        <ele>1704.95</ele>
        <time>2021-10-01T11:03:16.000Z</time>
      </trkpt>
      <trkpt lat="42.91102" lon="0.18248">
        <ele>1706.26</ele>
        <time>2021-10-01T11:03:23.000Z</time>
      </trkpt>
      <trkpt lat="42.91097" lon="0.18237">
        <ele>1707.53</ele>
        <time>2021-10-01T11:03:29.000Z</time>
      </trkpt>
      <trkpt lat="42.9109" lon="0.18228">
        <ele>1708.44</ele>
        <time>2021-10-01T11:03:35.000Z</time>
      </trkpt>
      <trkpt lat="42.91083" lon="0.18217">
        <ele>1709.36</ele>
        <time>2021-10-01T11:03:41.000Z</time>
      </trkpt>
      <trkpt lat="42.91076" lon="0.18208">
        <ele>1710.24</ele>
        <time>2021-10-01T11:03:47.000Z</time>
      </trkpt>
      <trkpt lat="42.91069" lon="0.18199">
        <ele>1711.41</ele>
        <time>2021-10-01T11:03:53.000Z</time>
      </trkpt>
      <trkpt lat="42.91065" lon="0.18187">
        <ele>1713.03</ele>
        <time>2021-10-01T11:03:59.000Z</time>
      </trkpt>
      <trkpt lat="42.9106" lon="0.18176">
        <ele>1714.23</ele>
        <time>2021-10-01T11:04:05.000Z</time>
      </trkpt>
      <trkpt lat="42.91056" lon="0.18164">
        <ele>1715.06</ele>
        <time>2021-10-01T11:04:11.000Z</time>
      </trkpt>
      <trkpt lat="42.91049" lon="0.18154">
        <ele>1715.95</ele>
        <time>2021-10-01T11:04:17.000Z</time>
      </trkpt>
      <trkpt lat="42.91045" lon="0.18142">
        <ele>1717.23</ele>
        <time>2021-10-01T11:04:24.000Z</time>
      </trkpt>
      <trkpt lat="42.91038" lon="0.18131">
        <ele>1718.45</ele>
        <time>2021-10-01T11:04:31.000Z</time>
      </trkpt>
      <trkpt lat="42.91034" lon="0.18118">
        <ele>1719.66</ele>
        <time>2021-10-01T11:04:38.000Z</time>
      </trkpt>
      <trkpt lat="42.91031" lon="0.18105">
        <ele>1720.66</ele>
        <time>2021-10-01T11:04:44.000Z</time>
      </trkpt>
      <trkpt lat="42.91028" lon="0.18093">
        <ele>1721.56</ele>
        <time>2021-10-01T11:04:50.000Z</time>
      </trkpt>
      <trkpt lat="42.91026" lon="0.18081">
        <ele>1722.19</ele>
        <time>2021-10-01T11:04:56.000Z</time>
      </trkpt>
      <trkpt lat="42.91023" lon="0.18068">
        <ele>1722.4</ele>
        <time>2021-10-01T11:05:02.000Z</time>
      </trkpt>
      <trkpt lat="42.91017" lon="0.18058">
        <ele>1722.94</ele>
        <time>2021-10-01T11:05:07.000Z</time>
      </trkpt>
      <trkpt lat="42.91017" lon="0.18045">
        <ele>1725.21</ele>
        <time>2021-10-01T11:05:13.000Z</time>
      </trkpt>
      <trkpt lat="42.91015" lon="0.18032">
        <ele>1726.73</ele>
        <time>2021-10-01T11:05:19.000Z</time>
      </trkpt>
      <trkpt lat="42.91013" lon="0.18018">
        <ele>1728.01</ele>
        <time>2021-10-01T11:05:25.000Z</time>
      </trkpt>
      <trkpt lat="42.91009" lon="0.18006">
        <ele>1729.15</ele>
        <time>2021-10-01T11:05:39.000Z</time>
      </trkpt>
      <trkpt lat="42.90998" lon="0.18004">
        <ele>1724</ele>
        <time>2021-10-01T11:12:01.000Z</time>
      </trkpt>
      <trkpt lat="42.91007" lon="0.18002">
        <ele>1723.32</ele>
        <time>2021-10-01T11:12:27.000Z</time>
      </trkpt>
      <trkpt lat="42.90999" lon="0.18009">
        <ele>1723.95</ele>
        <time>2021-10-01T11:13:23.000Z</time>
      </trkpt>
      <trkpt lat="42.91006" lon="0.18001">
        <ele>1730.5</ele>
        <time>2021-10-01T11:17:01.000Z</time>
      </trkpt>
      <trkpt lat="42.91012" lon="0.17991">
        <ele>1731.67</ele>
        <time>2021-10-01T11:17:07.000Z</time>
      </trkpt>
      <trkpt lat="42.91015" lon="0.17974">
        <ele>1732.09</ele>
        <time>2021-10-01T11:17:12.000Z</time>
      </trkpt>
      <trkpt lat="42.91015" lon="0.1796">
        <ele>1732.95</ele>
        <time>2021-10-01T11:17:17.000Z</time>
      </trkpt>
      <trkpt lat="42.91017" lon="0.17947">
        <ele>1734.76</ele>
        <time>2021-10-01T11:17:22.000Z</time>
      </trkpt>
      <trkpt lat="42.91022" lon="0.17934">
        <ele>1736.48</ele>
        <time>2021-10-01T11:17:28.000Z</time>
      </trkpt>
      <trkpt lat="42.91029" lon="0.17926">
        <ele>1738.61</ele>
        <time>2021-10-01T11:17:34.000Z</time>
      </trkpt>
      <trkpt lat="42.91038" lon="0.1792">
        <ele>1741.86</ele>
        <time>2021-10-01T11:17:41.000Z</time>
      </trkpt>
      <trkpt lat="42.91047" lon="0.17915">
        <ele>1744.95</ele>
        <time>2021-10-01T11:17:46.000Z</time>
      </trkpt>
      <trkpt lat="42.91056" lon="0.17909">
        <ele>1747.83</ele>
        <time>2021-10-01T11:17:52.000Z</time>
      </trkpt>
      <trkpt lat="42.91066" lon="0.17902">
        <ele>1750.94</ele>
        <time>2021-10-01T11:17:58.000Z</time>
      </trkpt>
      <trkpt lat="42.91075" lon="0.17897">
        <ele>1753.17</ele>
        <time>2021-10-01T11:18:03.000Z</time>
      </trkpt>
      <trkpt lat="42.91085" lon="0.17892">
        <ele>1755.29</ele>
        <time>2021-10-01T11:18:08.000Z</time>
      </trkpt>
      <trkpt lat="42.91094" lon="0.17886">
        <ele>1757.12</ele>
        <time>2021-10-01T11:18:14.000Z</time>
      </trkpt>
      <trkpt lat="42.91101" lon="0.17878">
        <ele>1758.8</ele>
        <time>2021-10-01T11:18:20.000Z</time>
      </trkpt>
      <trkpt lat="42.91103" lon="0.17864">
        <ele>1760.99</ele>
        <time>2021-10-01T11:18:27.000Z</time>
      </trkpt>
      <trkpt lat="42.91104" lon="0.17851">
        <ele>1763.58</ele>
        <time>2021-10-01T11:18:35.000Z</time>
      </trkpt>
      <trkpt lat="42.91104" lon="0.17837">
        <ele>1768.09</ele>
        <time>2021-10-01T11:18:43.000Z</time>
      </trkpt>
      <trkpt lat="42.91103" lon="0.17823">
        <ele>1771.93</ele>
        <time>2021-10-01T11:18:50.000Z</time>
      </trkpt>
      <trkpt lat="42.91104" lon="0.1781">
        <ele>1774.91</ele>
        <time>2021-10-01T11:18:56.000Z</time>
      </trkpt>
      <trkpt lat="42.91106" lon="0.17797">
        <ele>1777.86</ele>
        <time>2021-10-01T11:19:02.000Z</time>
      </trkpt>
      <trkpt lat="42.9111" lon="0.17785">
        <ele>1781.18</ele>
        <time>2021-10-01T11:19:09.000Z</time>
      </trkpt>
      <trkpt lat="42.91109" lon="0.17773">
        <ele>1785.52</ele>
        <time>2021-10-01T11:19:15.000Z</time>
      </trkpt>
      <trkpt lat="42.91107" lon="0.17759">
        <ele>1788.83</ele>
        <time>2021-10-01T11:19:21.000Z</time>
      </trkpt>
      <trkpt lat="42.9111" lon="0.17746">
        <ele>1790.82</ele>
        <time>2021-10-01T11:19:26.000Z</time>
      </trkpt>
      <trkpt lat="42.91111" lon="0.17733">
        <ele>1793.41</ele>
        <time>2021-10-01T11:19:32.000Z</time>
      </trkpt>
      <trkpt lat="42.91111" lon="0.17718">
        <ele>1792.76</ele>
        <time>2021-10-01T11:19:37.000Z</time>
      </trkpt>
      <trkpt lat="42.91104" lon="0.17708">
        <ele>1794.25</ele>
        <time>2021-10-01T11:19:42.000Z</time>
      </trkpt>
      <trkpt lat="42.91095" lon="0.177">
        <ele>1795.93</ele>
        <time>2021-10-01T11:19:48.000Z</time>
      </trkpt>
      <trkpt lat="42.91088" lon="0.17687">
        <ele>1797.2</ele>
        <time>2021-10-01T11:19:53.000Z</time>
      </trkpt>
      <trkpt lat="42.91083" lon="0.17673">
        <ele>1798.42</ele>
        <time>2021-10-01T11:19:58.000Z</time>
      </trkpt>
      <trkpt lat="42.91076" lon="0.17663">
        <ele>1799.24</ele>
        <time>2021-10-01T11:20:03.000Z</time>
      </trkpt>
      <trkpt lat="42.91072" lon="0.17648">
        <ele>1799.47</ele>
        <time>2021-10-01T11:20:08.000Z</time>
      </trkpt>
      <trkpt lat="42.91068" lon="0.17634">
        <ele>1799.97</ele>
        <time>2021-10-01T11:20:13.000Z</time>
      </trkpt>
      <trkpt lat="42.91066" lon="0.1762">
        <ele>1799.8</ele>
        <time>2021-10-01T11:20:18.000Z</time>
      </trkpt>
      <trkpt lat="42.91061" lon="0.17609">
        <ele>1799.7</ele>
        <time>2021-10-01T11:20:23.000Z</time>
      </trkpt>
      <trkpt lat="42.91061" lon="0.17595">
        <ele>1798.91</ele>
        <time>2021-10-01T11:20:29.000Z</time>
      </trkpt>
      <trkpt lat="42.91059" lon="0.17582">
        <ele>1798.61</ele>
        <time>2021-10-01T11:20:34.000Z</time>
      </trkpt>
      <trkpt lat="42.91062" lon="0.1757">
        <ele>1796.1</ele>
        <time>2021-10-01T11:20:39.000Z</time>
      </trkpt>
      <trkpt lat="42.91064" lon="0.17556">
        <ele>1791.01</ele>
        <time>2021-10-01T11:20:45.000Z</time>
      </trkpt>
      <trkpt lat="42.91063" lon="0.17542">
        <ele>1788.18</ele>
        <time>2021-10-01T11:20:51.000Z</time>
      </trkpt>
      <trkpt lat="42.91063" lon="0.17528">
        <ele>1787.04</ele>
        <time>2021-10-01T11:20:56.000Z</time>
      </trkpt>
      <trkpt lat="42.91064" lon="0.17515">
        <ele>1786.47</ele>
        <time>2021-10-01T11:21:01.000Z</time>
      </trkpt>
      <trkpt lat="42.91062" lon="0.17502">
        <ele>1786.79</ele>
        <time>2021-10-01T11:21:06.000Z</time>
      </trkpt>
      <trkpt lat="42.91062" lon="0.1749">
        <ele>1786.82</ele>
        <time>2021-10-01T11:21:12.000Z</time>
      </trkpt>
      <trkpt lat="42.9106" lon="0.17476">
        <ele>1786.97</ele>
        <time>2021-10-01T11:21:18.000Z</time>
      </trkpt>
      <trkpt lat="42.9106" lon="0.17461">
        <ele>1787.37</ele>
        <time>2021-10-01T11:21:24.000Z</time>
      </trkpt>
      <trkpt lat="42.91059" lon="0.17448">
        <ele>1787.87</ele>
        <time>2021-10-01T11:21:29.000Z</time>
      </trkpt>
      <trkpt lat="42.91059" lon="0.17435">
        <ele>1788.22</ele>
        <time>2021-10-01T11:21:34.000Z</time>
      </trkpt>
      <trkpt lat="42.91057" lon="0.17423">
        <ele>1787.74</ele>
        <time>2021-10-01T11:21:39.000Z</time>
      </trkpt>
      <trkpt lat="42.91055" lon="0.17409">
        <ele>1787.53</ele>
        <time>2021-10-01T11:21:45.000Z</time>
      </trkpt>
      <trkpt lat="42.91054" lon="0.17396">
        <ele>1787.2</ele>
        <time>2021-10-01T11:21:51.000Z</time>
      </trkpt>
      <trkpt lat="42.9105" lon="0.17384">
        <ele>1787.74</ele>
        <time>2021-10-01T11:21:56.000Z</time>
      </trkpt>
      <trkpt lat="42.91047" lon="0.17372">
        <ele>1787.89</ele>
        <time>2021-10-01T11:22:01.000Z</time>
      </trkpt>
      <trkpt lat="42.91043" lon="0.17361">
        <ele>1787.65</ele>
        <time>2021-10-01T11:22:06.000Z</time>
      </trkpt>
      <trkpt lat="42.9104" lon="0.17349">
        <ele>1787.05</ele>
        <time>2021-10-01T11:22:11.000Z</time>
      </trkpt>
      <trkpt lat="42.91036" lon="0.17337">
        <ele>1786.42</ele>
        <time>2021-10-01T11:22:16.000Z</time>
      </trkpt>
      <trkpt lat="42.91035" lon="0.17323">
        <ele>1787.02</ele>
        <time>2021-10-01T11:22:21.000Z</time>
      </trkpt>
      <trkpt lat="42.91032" lon="0.1731">
        <ele>1788.66</ele>
        <time>2021-10-01T11:22:27.000Z</time>
      </trkpt>
      <trkpt lat="42.91031" lon="0.17298">
        <ele>1789.7</ele>
        <time>2021-10-01T11:22:32.000Z</time>
      </trkpt>
      <trkpt lat="42.91031" lon="0.17285">
        <ele>1790.74</ele>
        <time>2021-10-01T11:22:37.000Z</time>
      </trkpt>
      <trkpt lat="42.91032" lon="0.17271">
        <ele>1791.54</ele>
        <time>2021-10-01T11:22:43.000Z</time>
      </trkpt>
      <trkpt lat="42.91032" lon="0.17257">
        <ele>1792.47</ele>
        <time>2021-10-01T11:22:49.000Z</time>
      </trkpt>
      <trkpt lat="42.91032" lon="0.17244">
        <ele>1794.12</ele>
        <time>2021-10-01T11:22:55.000Z</time>
      </trkpt>
      <trkpt lat="42.91033" lon="0.17232">
        <ele>1795.14</ele>
        <time>2021-10-01T11:23:00.000Z</time>
      </trkpt>
      <trkpt lat="42.91034" lon="0.17219">
        <ele>1796.61</ele>
        <time>2021-10-01T11:23:05.000Z</time>
      </trkpt>
      <trkpt lat="42.91035" lon="0.17205">
        <ele>1798</ele>
        <time>2021-10-01T11:23:11.000Z</time>
      </trkpt>
      <trkpt lat="42.91034" lon="0.17191">
        <ele>1799.04</ele>
        <time>2021-10-01T11:23:17.000Z</time>
      </trkpt>
      <trkpt lat="42.91034" lon="0.17176">
        <ele>1799.82</ele>
        <time>2021-10-01T11:23:22.000Z</time>
      </trkpt>
      <trkpt lat="42.91033" lon="0.17162">
        <ele>1801.23</ele>
        <time>2021-10-01T11:23:28.000Z</time>
      </trkpt>
      <trkpt lat="42.91033" lon="0.17148">
        <ele>1802.14</ele>
        <time>2021-10-01T11:23:33.000Z</time>
      </trkpt>
      <trkpt lat="42.91034" lon="0.17134">
        <ele>1803.13</ele>
        <time>2021-10-01T11:23:39.000Z</time>
      </trkpt>
      <trkpt lat="42.91034" lon="0.17122">
        <ele>1804.04</ele>
        <time>2021-10-01T11:23:45.000Z</time>
      </trkpt>
      <trkpt lat="42.91035" lon="0.17109">
        <ele>1804.84</ele>
        <time>2021-10-01T11:23:50.000Z</time>
      </trkpt>
      <trkpt lat="42.91037" lon="0.17095">
        <ele>1806.03</ele>
        <time>2021-10-01T11:23:56.000Z</time>
      </trkpt>
      <trkpt lat="42.91036" lon="0.17081">
        <ele>1807.63</ele>
        <time>2021-10-01T11:24:03.000Z</time>
      </trkpt>
      <trkpt lat="42.91035" lon="0.17067">
        <ele>1809.7</ele>
        <time>2021-10-01T11:24:10.000Z</time>
      </trkpt>
      <trkpt lat="42.91033" lon="0.17053">
        <ele>1811.11</ele>
        <time>2021-10-01T11:24:16.000Z</time>
      </trkpt>
      <trkpt lat="42.91032" lon="0.17039">
        <ele>1812.16</ele>
        <time>2021-10-01T11:24:22.000Z</time>
      </trkpt>
      <trkpt lat="42.91031" lon="0.17025">
        <ele>1812.6</ele>
        <time>2021-10-01T11:24:27.000Z</time>
      </trkpt>
      <trkpt lat="42.9103" lon="0.17011">
        <ele>1813.37</ele>
        <time>2021-10-01T11:24:33.000Z</time>
      </trkpt>
      <trkpt lat="42.9103" lon="0.16998">
        <ele>1813.58</ele>
        <time>2021-10-01T11:24:38.000Z</time>
      </trkpt>
      <trkpt lat="42.91028" lon="0.16985">
        <ele>1813.77</ele>
        <time>2021-10-01T11:24:43.000Z</time>
      </trkpt>
      <trkpt lat="42.91027" lon="0.16971">
        <ele>1814.54</ele>
        <time>2021-10-01T11:24:48.000Z</time>
      </trkpt>
      <trkpt lat="42.91025" lon="0.16957">
        <ele>1815.75</ele>
        <time>2021-10-01T11:24:54.000Z</time>
      </trkpt>
      <trkpt lat="42.91024" lon="0.16944">
        <ele>1816.12</ele>
        <time>2021-10-01T11:24:59.000Z</time>
      </trkpt>
      <trkpt lat="42.91021" lon="0.16931">
        <ele>1816.37</ele>
        <time>2021-10-01T11:25:05.000Z</time>
      </trkpt>
      <trkpt lat="42.91016" lon="0.16919">
        <ele>1817.04</ele>
        <time>2021-10-01T11:25:11.000Z</time>
      </trkpt>
      <trkpt lat="42.91011" lon="0.16907">
        <ele>1817.67</ele>
        <time>2021-10-01T11:25:16.000Z</time>
      </trkpt>
      <trkpt lat="42.91006" lon="0.16897">
        <ele>1818.44</ele>
        <time>2021-10-01T11:25:21.000Z</time>
      </trkpt>
      <trkpt lat="42.91002" lon="0.16885">
        <ele>1819.55</ele>
        <time>2021-10-01T11:25:27.000Z</time>
      </trkpt>
      <trkpt lat="42.90998" lon="0.16872">
        <ele>1820.26</ele>
        <time>2021-10-01T11:25:34.000Z</time>
      </trkpt>
      <trkpt lat="42.90992" lon="0.16861">
        <ele>1820.89</ele>
        <time>2021-10-01T11:25:40.000Z</time>
      </trkpt>
      <trkpt lat="42.90989" lon="0.16848">
        <ele>1821</ele>
        <time>2021-10-01T11:25:46.000Z</time>
      </trkpt>
      <trkpt lat="42.90986" lon="0.16835">
        <ele>1821.28</ele>
        <time>2021-10-01T11:25:52.000Z</time>
      </trkpt>
      <trkpt lat="42.90985" lon="0.16821">
        <ele>1821.48</ele>
        <time>2021-10-01T11:25:58.000Z</time>
      </trkpt>
      <trkpt lat="42.9098" lon="0.16808">
        <ele>1822.07</ele>
        <time>2021-10-01T11:26:04.000Z</time>
      </trkpt>
      <trkpt lat="42.90973" lon="0.16799">
        <ele>1823.04</ele>
        <time>2021-10-01T11:26:10.000Z</time>
      </trkpt>
      <trkpt lat="42.90968" lon="0.16788">
        <ele>1824.16</ele>
        <time>2021-10-01T11:26:16.000Z</time>
      </trkpt>
      <trkpt lat="42.90962" lon="0.16777">
        <ele>1825.43</ele>
        <time>2021-10-01T11:26:22.000Z</time>
      </trkpt>
      <trkpt lat="42.90958" lon="0.16766">
        <ele>1826.18</ele>
        <time>2021-10-01T11:26:27.000Z</time>
      </trkpt>
      <trkpt lat="42.90955" lon="0.16752">
        <ele>1827.14</ele>
        <time>2021-10-01T11:26:34.000Z</time>
      </trkpt>
      <trkpt lat="42.90952" lon="0.16738">
        <ele>1828.04</ele>
        <time>2021-10-01T11:26:40.000Z</time>
      </trkpt>
      <trkpt lat="42.9095" lon="0.16725">
        <ele>1829.44</ele>
        <time>2021-10-01T11:26:46.000Z</time>
      </trkpt>
      <trkpt lat="42.90948" lon="0.16712">
        <ele>1831.17</ele>
        <time>2021-10-01T11:26:52.000Z</time>
      </trkpt>
      <trkpt lat="42.90947" lon="0.16699">
        <ele>1833.24</ele>
        <time>2021-10-01T11:26:59.000Z</time>
      </trkpt>
      <trkpt lat="42.90948" lon="0.16686">
        <ele>1834.33</ele>
        <time>2021-10-01T11:27:04.000Z</time>
      </trkpt>
      <trkpt lat="42.90947" lon="0.16672">
        <ele>1834.25</ele>
        <time>2021-10-01T11:27:10.000Z</time>
      </trkpt>
      <trkpt lat="42.90946" lon="0.16659">
        <ele>1835.03</ele>
        <time>2021-10-01T11:27:15.000Z</time>
      </trkpt>
      <trkpt lat="42.90946" lon="0.16646">
        <ele>1836.4</ele>
        <time>2021-10-01T11:27:20.000Z</time>
      </trkpt>
      <trkpt lat="42.90946" lon="0.16633">
        <ele>1837.2</ele>
        <time>2021-10-01T11:27:25.000Z</time>
      </trkpt>
      <trkpt lat="42.90947" lon="0.16619">
        <ele>1838.11</ele>
        <time>2021-10-01T11:27:30.000Z</time>
      </trkpt>
      <trkpt lat="42.90947" lon="0.16606">
        <ele>1840.03</ele>
        <time>2021-10-01T11:27:36.000Z</time>
      </trkpt>
      <trkpt lat="42.90949" lon="0.16593">
        <ele>1840.77</ele>
        <time>2021-10-01T11:27:42.000Z</time>
      </trkpt>
      <trkpt lat="42.90951" lon="0.1658">
        <ele>1841.24</ele>
        <time>2021-10-01T11:27:47.000Z</time>
      </trkpt>
      <trkpt lat="42.90953" lon="0.16567">
        <ele>1842.07</ele>
        <time>2021-10-01T11:27:52.000Z</time>
      </trkpt>
      <trkpt lat="42.90956" lon="0.16555">
        <ele>1843.09</ele>
        <time>2021-10-01T11:27:57.000Z</time>
      </trkpt>
      <trkpt lat="42.90959" lon="0.16542">
        <ele>1844.37</ele>
        <time>2021-10-01T11:28:02.000Z</time>
      </trkpt>
      <trkpt lat="42.9096" lon="0.1653">
        <ele>1845.48</ele>
        <time>2021-10-01T11:28:07.000Z</time>
      </trkpt>
      <trkpt lat="42.9096" lon="0.16516">
        <ele>1846.64</ele>
        <time>2021-10-01T11:28:13.000Z</time>
      </trkpt>
      <trkpt lat="42.90961" lon="0.16502">
        <ele>1847.72</ele>
        <time>2021-10-01T11:28:19.000Z</time>
      </trkpt>
      <trkpt lat="42.90962" lon="0.1649">
        <ele>1848.83</ele>
        <time>2021-10-01T11:28:24.000Z</time>
      </trkpt>
      <trkpt lat="42.90964" lon="0.16477">
        <ele>1850.1</ele>
        <time>2021-10-01T11:28:29.000Z</time>
      </trkpt>
      <trkpt lat="42.90967" lon="0.16464">
        <ele>1850.67</ele>
        <time>2021-10-01T11:28:34.000Z</time>
      </trkpt>
      <trkpt lat="42.90969" lon="0.1645">
        <ele>1850.51</ele>
        <time>2021-10-01T11:28:40.000Z</time>
      </trkpt>
      <trkpt lat="42.90969" lon="0.16436">
        <ele>1851.1</ele>
        <time>2021-10-01T11:28:46.000Z</time>
      </trkpt>
      <trkpt lat="42.90967" lon="0.16422">
        <ele>1852.97</ele>
        <time>2021-10-01T11:28:52.000Z</time>
      </trkpt>
      <trkpt lat="42.90964" lon="0.16408">
        <ele>1854.8</ele>
        <time>2021-10-01T11:28:58.000Z</time>
      </trkpt>
      <trkpt lat="42.90961" lon="0.16396">
        <ele>1855.57</ele>
        <time>2021-10-01T11:29:03.000Z</time>
      </trkpt>
      <trkpt lat="42.90958" lon="0.16384">
        <ele>1856.28</ele>
        <time>2021-10-01T11:29:08.000Z</time>
      </trkpt>
      <trkpt lat="42.90955" lon="0.16371">
        <ele>1857.68</ele>
        <time>2021-10-01T11:29:14.000Z</time>
      </trkpt>
      <trkpt lat="42.90953" lon="0.16359">
        <ele>1858.29</ele>
        <time>2021-10-01T11:29:19.000Z</time>
      </trkpt>
      <trkpt lat="42.90952" lon="0.16345">
        <ele>1859.02</ele>
        <time>2021-10-01T11:29:25.000Z</time>
      </trkpt>
      <trkpt lat="42.90952" lon="0.16332">
        <ele>1860.22</ele>
        <time>2021-10-01T11:29:31.000Z</time>
      </trkpt>
      <trkpt lat="42.90949" lon="0.16319">
        <ele>1861.03</ele>
        <time>2021-10-01T11:29:37.000Z</time>
      </trkpt>
      <trkpt lat="42.90946" lon="0.16305">
        <ele>1860.79</ele>
        <time>2021-10-01T11:29:43.000Z</time>
      </trkpt>
      <trkpt lat="42.90943" lon="0.16292">
        <ele>1862.06</ele>
        <time>2021-10-01T11:29:49.000Z</time>
      </trkpt>
      <trkpt lat="42.90937" lon="0.16279">
        <ele>1862.85</ele>
        <time>2021-10-01T11:29:55.000Z</time>
      </trkpt>
      <trkpt lat="42.90931" lon="0.16268">
        <ele>1865.26</ele>
        <time>2021-10-01T11:30:00.000Z</time>
      </trkpt>
      <trkpt lat="42.90926" lon="0.16257">
        <ele>1866.06</ele>
        <time>2021-10-01T11:30:05.000Z</time>
      </trkpt>
      <trkpt lat="42.90921" lon="0.16245">
        <ele>1867.28</ele>
        <time>2021-10-01T11:30:11.000Z</time>
      </trkpt>
      <trkpt lat="42.90916" lon="0.16233">
        <ele>1870.19</ele>
        <time>2021-10-01T11:30:17.000Z</time>
      </trkpt>
      <trkpt lat="42.9091" lon="0.16222">
        <ele>1870.75</ele>
        <time>2021-10-01T11:30:22.000Z</time>
      </trkpt>
      <trkpt lat="42.90906" lon="0.1621">
        <ele>1871.17</ele>
        <time>2021-10-01T11:30:28.000Z</time>
      </trkpt>
      <trkpt lat="42.90902" lon="0.16199">
        <ele>1872.03</ele>
        <time>2021-10-01T11:30:33.000Z</time>
      </trkpt>
      <trkpt lat="42.90898" lon="0.16186">
        <ele>1873.52</ele>
        <time>2021-10-01T11:30:38.000Z</time>
      </trkpt>
      <trkpt lat="42.90894" lon="0.16173">
        <ele>1875.88</ele>
        <time>2021-10-01T11:30:44.000Z</time>
      </trkpt>
      <trkpt lat="42.90889" lon="0.1616">
        <ele>1880.08</ele>
        <time>2021-10-01T11:30:51.000Z</time>
      </trkpt>
      <trkpt lat="42.90886" lon="0.16146">
        <ele>1882.84</ele>
        <time>2021-10-01T11:30:57.000Z</time>
      </trkpt>
      <trkpt lat="42.90883" lon="0.16134">
        <ele>1883.57</ele>
        <time>2021-10-01T11:31:02.000Z</time>
      </trkpt>
      <trkpt lat="42.9088" lon="0.16121">
        <ele>1882.91</ele>
        <time>2021-10-01T11:31:08.000Z</time>
      </trkpt>
      <trkpt lat="42.90878" lon="0.16108">
        <ele>1881.29</ele>
        <time>2021-10-01T11:31:14.000Z</time>
      </trkpt>
      <trkpt lat="42.90876" lon="0.16095">
        <ele>1883.9</ele>
        <time>2021-10-01T11:31:20.000Z</time>
      </trkpt>
      <trkpt lat="42.90874" lon="0.16082">
        <ele>1885.49</ele>
        <time>2021-10-01T11:31:26.000Z</time>
      </trkpt>
      <trkpt lat="42.90872" lon="0.16069">
        <ele>1884.76</ele>
        <time>2021-10-01T11:31:31.000Z</time>
      </trkpt>
      <trkpt lat="42.9087" lon="0.16055">
        <ele>1886.04</ele>
        <time>2021-10-01T11:31:37.000Z</time>
      </trkpt>
      <trkpt lat="42.90867" lon="0.16042">
        <ele>1886.2</ele>
        <time>2021-10-01T11:31:43.000Z</time>
      </trkpt>
      <trkpt lat="42.90864" lon="0.16029">
        <ele>1887.46</ele>
        <time>2021-10-01T11:31:49.000Z</time>
      </trkpt>
      <trkpt lat="42.90863" lon="0.16016">
        <ele>1888.08</ele>
        <time>2021-10-01T11:31:55.000Z</time>
      </trkpt>
      <trkpt lat="42.90861" lon="0.16002">
        <ele>1889.15</ele>
        <time>2021-10-01T11:32:02.000Z</time>
      </trkpt>
      <trkpt lat="42.90861" lon="0.15989">
        <ele>1890.36</ele>
        <time>2021-10-01T11:32:08.000Z</time>
      </trkpt>
      <trkpt lat="42.90859" lon="0.15976">
        <ele>1892.29</ele>
        <time>2021-10-01T11:32:14.000Z</time>
      </trkpt>
      <trkpt lat="42.90854" lon="0.15964">
        <ele>1894.17</ele>
        <time>2021-10-01T11:32:20.000Z</time>
      </trkpt>
      <trkpt lat="42.90849" lon="0.15953">
        <ele>1895.23</ele>
        <time>2021-10-01T11:32:25.000Z</time>
      </trkpt>
      <trkpt lat="42.90844" lon="0.15941">
        <ele>1896.19</ele>
        <time>2021-10-01T11:32:31.000Z</time>
      </trkpt>
      <trkpt lat="42.90837" lon="0.15931">
        <ele>1897.51</ele>
        <time>2021-10-01T11:32:37.000Z</time>
      </trkpt>
      <trkpt lat="42.90833" lon="0.15919">
        <ele>1898.98</ele>
        <time>2021-10-01T11:32:43.000Z</time>
      </trkpt>
      <trkpt lat="42.90827" lon="0.15908">
        <ele>1901.36</ele>
        <time>2021-10-01T11:32:49.000Z</time>
      </trkpt>
      <trkpt lat="42.9082" lon="0.15898">
        <ele>1903.34</ele>
        <time>2021-10-01T11:32:56.000Z</time>
      </trkpt>
      <trkpt lat="42.90813" lon="0.15889">
        <ele>1904.15</ele>
        <time>2021-10-01T11:33:02.000Z</time>
      </trkpt>
      <trkpt lat="42.90805" lon="0.1588">
        <ele>1904.54</ele>
        <time>2021-10-01T11:33:08.000Z</time>
      </trkpt>
      <trkpt lat="42.90798" lon="0.1587">
        <ele>1904.52</ele>
        <time>2021-10-01T11:33:14.000Z</time>
      </trkpt>
      <trkpt lat="42.90791" lon="0.15859">
        <ele>1904.67</ele>
        <time>2021-10-01T11:33:20.000Z</time>
      </trkpt>
      <trkpt lat="42.90785" lon="0.15849">
        <ele>1905.26</ele>
        <time>2021-10-01T11:33:26.000Z</time>
      </trkpt>
      <trkpt lat="42.9078" lon="0.15837">
        <ele>1905.18</ele>
        <time>2021-10-01T11:33:32.000Z</time>
      </trkpt>
      <trkpt lat="42.90773" lon="0.15827">
        <ele>1906.63</ele>
        <time>2021-10-01T11:33:38.000Z</time>
      </trkpt>
      <trkpt lat="42.90768" lon="0.15816">
        <ele>1907.66</ele>
        <time>2021-10-01T11:33:43.000Z</time>
      </trkpt>
      <trkpt lat="42.90761" lon="0.15808">
        <ele>1907.82</ele>
        <time>2021-10-01T11:33:48.000Z</time>
      </trkpt>
      <trkpt lat="42.90754" lon="0.15798">
        <ele>1908.15</ele>
        <time>2021-10-01T11:33:54.000Z</time>
      </trkpt>
      <trkpt lat="42.90747" lon="0.15787">
        <ele>1908.77</ele>
        <time>2021-10-01T11:34:00.000Z</time>
      </trkpt>
      <trkpt lat="42.90742" lon="0.15775">
        <ele>1909.44</ele>
        <time>2021-10-01T11:34:06.000Z</time>
      </trkpt>
      <trkpt lat="42.90739" lon="0.15762">
        <ele>1909.47</ele>
        <time>2021-10-01T11:34:12.000Z</time>
      </trkpt>
      <trkpt lat="42.90736" lon="0.1575">
        <ele>1910.34</ele>
        <time>2021-10-01T11:34:18.000Z</time>
      </trkpt>
      <trkpt lat="42.9073" lon="0.15738">
        <ele>1910.97</ele>
        <time>2021-10-01T11:34:24.000Z</time>
      </trkpt>
      <trkpt lat="42.90724" lon="0.15728">
        <ele>1911.82</ele>
        <time>2021-10-01T11:34:30.000Z</time>
      </trkpt>
      <trkpt lat="42.90718" lon="0.15718">
        <ele>1912.94</ele>
        <time>2021-10-01T11:34:35.000Z</time>
      </trkpt>
      <trkpt lat="42.90711" lon="0.15708">
        <ele>1913</ele>
        <time>2021-10-01T11:34:41.000Z</time>
      </trkpt>
      <trkpt lat="42.90705" lon="0.15697">
        <ele>1912.63</ele>
        <time>2021-10-01T11:34:47.000Z</time>
      </trkpt>
      <trkpt lat="42.907" lon="0.15685">
        <ele>1913.26</ele>
        <time>2021-10-01T11:34:53.000Z</time>
      </trkpt>
      <trkpt lat="42.90696" lon="0.15674">
        <ele>1913.96</ele>
        <time>2021-10-01T11:34:58.000Z</time>
      </trkpt>
      <trkpt lat="42.90692" lon="0.15662">
        <ele>1914.59</ele>
        <time>2021-10-01T11:35:03.000Z</time>
      </trkpt>
      <trkpt lat="42.90687" lon="0.15649">
        <ele>1915.46</ele>
        <time>2021-10-01T11:35:08.000Z</time>
      </trkpt>
      <trkpt lat="42.90682" lon="0.15639">
        <ele>1916.37</ele>
        <time>2021-10-01T11:35:13.000Z</time>
      </trkpt>
      <trkpt lat="42.90677" lon="0.15627">
        <ele>1917.66</ele>
        <time>2021-10-01T11:35:18.000Z</time>
      </trkpt>
      <trkpt lat="42.90674" lon="0.15614">
        <ele>1918.81</ele>
        <time>2021-10-01T11:35:24.000Z</time>
      </trkpt>
      <trkpt lat="42.90671" lon="0.15601">
        <ele>1921.2</ele>
        <time>2021-10-01T11:35:31.000Z</time>
      </trkpt>
      <trkpt lat="42.90671" lon="0.15588">
        <ele>1922.72</ele>
        <time>2021-10-01T11:35:37.000Z</time>
      </trkpt>
      <trkpt lat="42.90671" lon="0.15576">
        <ele>1924.31</ele>
        <time>2021-10-01T11:35:43.000Z</time>
      </trkpt>
      <trkpt lat="42.9067" lon="0.15564">
        <ele>1925.19</ele>
        <time>2021-10-01T11:35:49.000Z</time>
      </trkpt>
      <trkpt lat="42.90667" lon="0.1555">
        <ele>1926.43</ele>
        <time>2021-10-01T11:35:55.000Z</time>
      </trkpt>
      <trkpt lat="42.90663" lon="0.15538">
        <ele>1927.63</ele>
        <time>2021-10-01T11:36:00.000Z</time>
      </trkpt>
      <trkpt lat="42.90659" lon="0.15527">
        <ele>1928.53</ele>
        <time>2021-10-01T11:36:05.000Z</time>
      </trkpt>
      <trkpt lat="42.90659" lon="0.15515">
        <ele>1930.3</ele>
        <time>2021-10-01T11:36:11.000Z</time>
      </trkpt>
      <trkpt lat="42.90657" lon="0.15502">
        <ele>1931.65</ele>
        <time>2021-10-01T11:36:17.000Z</time>
      </trkpt>
      <trkpt lat="42.90656" lon="0.15487">
        <ele>1932.57</ele>
        <time>2021-10-01T11:36:23.000Z</time>
      </trkpt>
      <trkpt lat="42.90655" lon="0.15474">
        <ele>1933.24</ele>
        <time>2021-10-01T11:36:29.000Z</time>
      </trkpt>
      <trkpt lat="42.90653" lon="0.15462">
        <ele>1934.4</ele>
        <time>2021-10-01T11:36:34.000Z</time>
      </trkpt>
      <trkpt lat="42.90655" lon="0.15449">
        <ele>1935.76</ele>
        <time>2021-10-01T11:36:40.000Z</time>
      </trkpt>
      <trkpt lat="42.90656" lon="0.15435">
        <ele>1936.19</ele>
        <time>2021-10-01T11:36:46.000Z</time>
      </trkpt>
      <trkpt lat="42.90658" lon="0.15422">
        <ele>1937.49</ele>
        <time>2021-10-01T11:36:51.000Z</time>
      </trkpt>
      <trkpt lat="42.9066" lon="0.15409">
        <ele>1939.59</ele>
        <time>2021-10-01T11:36:57.000Z</time>
      </trkpt>
      <trkpt lat="42.90664" lon="0.15397">
        <ele>1940.63</ele>
        <time>2021-10-01T11:37:02.000Z</time>
      </trkpt>
      <trkpt lat="42.90672" lon="0.15393">
        <ele>1940.97</ele>
        <time>2021-10-01T11:37:07.000Z</time>
      </trkpt>
      <trkpt lat="42.90681" lon="0.154">
        <ele>1943.25</ele>
        <time>2021-10-01T11:37:13.000Z</time>
      </trkpt>
      <trkpt lat="42.90684" lon="0.15415">
        <ele>1945.91</ele>
        <time>2021-10-01T11:37:18.000Z</time>
      </trkpt>
      <trkpt lat="42.90683" lon="0.1543">
        <ele>1948.63</ele>
        <time>2021-10-01T11:37:23.000Z</time>
      </trkpt>
      <trkpt lat="42.90681" lon="0.15443">
        <ele>1951.01</ele>
        <time>2021-10-01T11:37:28.000Z</time>
      </trkpt>
      <trkpt lat="42.90679" lon="0.15457">
        <ele>1953.24</ele>
        <time>2021-10-01T11:37:34.000Z</time>
      </trkpt>
      <trkpt lat="42.90677" lon="0.15471">
        <ele>1955.19</ele>
        <time>2021-10-01T11:37:41.000Z</time>
      </trkpt>
      <trkpt lat="42.90678" lon="0.15483">
        <ele>1956.5</ele>
        <time>2021-10-01T11:37:46.000Z</time>
      </trkpt>
      <trkpt lat="42.90686" lon="0.15495">
        <ele>1958.95</ele>
        <time>2021-10-01T11:37:51.000Z</time>
      </trkpt>
      <trkpt lat="42.90694" lon="0.15504">
        <ele>1960.55</ele>
        <time>2021-10-01T11:37:56.000Z</time>
      </trkpt>
      <trkpt lat="42.90701" lon="0.15513">
        <ele>1961.81</ele>
        <time>2021-10-01T11:38:01.000Z</time>
      </trkpt>
      <trkpt lat="42.90708" lon="0.15522">
        <ele>1962.87</ele>
        <time>2021-10-01T11:38:06.000Z</time>
      </trkpt>
      <trkpt lat="42.90716" lon="0.15531">
        <ele>1963.84</ele>
        <time>2021-10-01T11:38:11.000Z</time>
      </trkpt>
      <trkpt lat="42.90725" lon="0.1554">
        <ele>1964.33</ele>
        <time>2021-10-01T11:38:18.000Z</time>
      </trkpt>
      <trkpt lat="42.90731" lon="0.15551">
        <ele>1965.44</ele>
        <time>2021-10-01T11:38:28.000Z</time>
      </trkpt>
      <trkpt lat="42.90737" lon="0.15562">
        <ele>1966.36</ele>
        <time>2021-10-01T11:38:37.000Z</time>
      </trkpt>
      <trkpt lat="42.90746" lon="0.15565">
        <ele>1965.17</ele>
        <time>2021-10-01T11:38:44.000Z</time>
      </trkpt>
      <trkpt lat="42.90755" lon="0.15566">
        <ele>1964.26</ele>
        <time>2021-10-01T11:38:51.000Z</time>
      </trkpt>
      <trkpt lat="42.90764" lon="0.15572">
        <ele>1963.48</ele>
        <time>2021-10-01T11:38:57.000Z</time>
      </trkpt>
      <trkpt lat="42.90771" lon="0.15579">
        <ele>1963</ele>
        <time>2021-10-01T11:39:03.000Z</time>
      </trkpt>
      <trkpt lat="42.9078" lon="0.15589">
        <ele>1963.61</ele>
        <time>2021-10-01T11:39:08.000Z</time>
      </trkpt>
      <trkpt lat="42.90787" lon="0.15598">
        <ele>1963.44</ele>
        <time>2021-10-01T11:39:13.000Z</time>
      </trkpt>
      <trkpt lat="42.90794" lon="0.15607">
        <ele>1962.58</ele>
        <time>2021-10-01T11:39:20.000Z</time>
      </trkpt>
      <trkpt lat="42.90799" lon="0.15618">
        <ele>1962.97</ele>
        <time>2021-10-01T11:39:26.000Z</time>
      </trkpt>
      <trkpt lat="42.90807" lon="0.15627">
        <ele>1964.53</ele>
        <time>2021-10-01T11:39:33.000Z</time>
      </trkpt>
      <trkpt lat="42.90816" lon="0.15629">
        <ele>1963.91</ele>
        <time>2021-10-01T11:39:38.000Z</time>
      </trkpt>
      <trkpt lat="42.90826" lon="0.15625">
        <ele>1963.06</ele>
        <time>2021-10-01T11:39:44.000Z</time>
      </trkpt>
      <trkpt lat="42.90836" lon="0.15622">
        <ele>1962.63</ele>
        <time>2021-10-01T11:39:50.000Z</time>
      </trkpt>
      <trkpt lat="42.90845" lon="0.15626">
        <ele>1962.39</ele>
        <time>2021-10-01T11:39:56.000Z</time>
      </trkpt>
      <trkpt lat="42.90854" lon="0.15633">
        <ele>1962.57</ele>
        <time>2021-10-01T11:40:03.000Z</time>
      </trkpt>
      <trkpt lat="42.90862" lon="0.15637">
        <ele>1962.8</ele>
        <time>2021-10-01T11:40:08.000Z</time>
      </trkpt>
      <trkpt lat="42.90872" lon="0.15641">
        <ele>1963.96</ele>
        <time>2021-10-01T11:40:14.000Z</time>
      </trkpt>
      <trkpt lat="42.90881" lon="0.15642">
        <ele>1964.12</ele>
        <time>2021-10-01T11:40:19.000Z</time>
      </trkpt>
      <trkpt lat="42.90892" lon="0.15645">
        <ele>1964.71</ele>
        <time>2021-10-01T11:40:25.000Z</time>
      </trkpt>
      <trkpt lat="42.90901" lon="0.15641">
        <ele>1964.67</ele>
        <time>2021-10-01T11:40:30.000Z</time>
      </trkpt>
      <trkpt lat="42.9091" lon="0.15636">
        <ele>1965.07</ele>
        <time>2021-10-01T11:40:35.000Z</time>
      </trkpt>
      <trkpt lat="42.90917" lon="0.15628">
        <ele>1965.47</ele>
        <time>2021-10-01T11:40:40.000Z</time>
      </trkpt>
      <trkpt lat="42.90925" lon="0.15621">
        <ele>1965.5</ele>
        <time>2021-10-01T11:40:45.000Z</time>
      </trkpt>
      <trkpt lat="42.90933" lon="0.15615">
        <ele>1966.05</ele>
        <time>2021-10-01T11:40:50.000Z</time>
      </trkpt>
      <trkpt lat="42.90942" lon="0.1561">
        <ele>1966.67</ele>
        <time>2021-10-01T11:40:55.000Z</time>
      </trkpt>
      <trkpt lat="42.9095" lon="0.15604">
        <ele>1967.37</ele>
        <time>2021-10-01T11:41:00.000Z</time>
      </trkpt>
      <trkpt lat="42.9096" lon="0.15602">
        <ele>1969.22</ele>
        <time>2021-10-01T11:41:07.000Z</time>
      </trkpt>
      <trkpt lat="42.9097" lon="0.15604">
        <ele>1970.58</ele>
        <time>2021-10-01T11:41:13.000Z</time>
      </trkpt>
      <trkpt lat="42.90979" lon="0.15611">
        <ele>1972.31</ele>
        <time>2021-10-01T11:41:20.000Z</time>
      </trkpt>
      <trkpt lat="42.90986" lon="0.1562">
        <ele>1974.2</ele>
        <time>2021-10-01T11:41:25.000Z</time>
      </trkpt>
      <trkpt lat="42.90994" lon="0.15627">
        <ele>1975.87</ele>
        <time>2021-10-01T11:41:31.000Z</time>
      </trkpt>
      <trkpt lat="42.91003" lon="0.15631">
        <ele>1976.94</ele>
        <time>2021-10-01T11:41:36.000Z</time>
      </trkpt>
      <trkpt lat="42.91012" lon="0.15627">
        <ele>1977.24</ele>
        <time>2021-10-01T11:41:41.000Z</time>
      </trkpt>
      <trkpt lat="42.91019" lon="0.15617">
        <ele>1977.74</ele>
        <time>2021-10-01T11:41:47.000Z</time>
      </trkpt>
      <trkpt lat="42.91022" lon="0.15605">
        <ele>1978.64</ele>
        <time>2021-10-01T11:41:52.000Z</time>
      </trkpt>
      <trkpt lat="42.91019" lon="0.15593">
        <ele>1979.83</ele>
        <time>2021-10-01T11:41:57.000Z</time>
      </trkpt>
      <trkpt lat="42.91014" lon="0.1558">
        <ele>1981.89</ele>
        <time>2021-10-01T11:42:03.000Z</time>
      </trkpt>
      <trkpt lat="42.91007" lon="0.15571">
        <ele>1983.85</ele>
        <time>2021-10-01T11:42:08.000Z</time>
      </trkpt>
      <trkpt lat="42.91" lon="0.15562">
        <ele>1985.74</ele>
        <time>2021-10-01T11:42:13.000Z</time>
      </trkpt>
      <trkpt lat="42.90992" lon="0.15556">
        <ele>1987.87</ele>
        <time>2021-10-01T11:42:18.000Z</time>
      </trkpt>
      <trkpt lat="42.90984" lon="0.15548">
        <ele>1989.43</ele>
        <time>2021-10-01T11:42:23.000Z</time>
      </trkpt>
      <trkpt lat="42.90974" lon="0.15543">
        <ele>1991.29</ele>
        <time>2021-10-01T11:42:29.000Z</time>
      </trkpt>
      <trkpt lat="42.90966" lon="0.15536">
        <ele>1992.07</ele>
        <time>2021-10-01T11:42:35.000Z</time>
      </trkpt>
      <trkpt lat="42.90958" lon="0.15526">
        <ele>1993.03</ele>
        <time>2021-10-01T11:42:41.000Z</time>
      </trkpt>
      <trkpt lat="42.90952" lon="0.15515">
        <ele>1993.77</ele>
        <time>2021-10-01T11:42:47.000Z</time>
      </trkpt>
      <trkpt lat="42.90945" lon="0.15505">
        <ele>1994.53</ele>
        <time>2021-10-01T11:42:52.000Z</time>
      </trkpt>
      <trkpt lat="42.90939" lon="0.15494">
        <ele>1995.83</ele>
        <time>2021-10-01T11:42:58.000Z</time>
      </trkpt>
      <trkpt lat="42.90932" lon="0.15484">
        <ele>1997.5</ele>
        <time>2021-10-01T11:43:04.000Z</time>
      </trkpt>
      <trkpt lat="42.90926" lon="0.15476">
        <ele>1998.75</ele>
        <time>2021-10-01T11:43:09.000Z</time>
      </trkpt>
      <trkpt lat="42.90918" lon="0.15467">
        <ele>1999.76</ele>
        <time>2021-10-01T11:43:14.000Z</time>
      </trkpt>
      <trkpt lat="42.90908" lon="0.15464">
        <ele>2000.71</ele>
        <time>2021-10-01T11:43:19.000Z</time>
      </trkpt>
      <trkpt lat="42.90899" lon="0.15461">
        <ele>2000.9</ele>
        <time>2021-10-01T11:43:24.000Z</time>
      </trkpt>
      <trkpt lat="42.90888" lon="0.15459">
        <ele>2000.99</ele>
        <time>2021-10-01T11:43:30.000Z</time>
      </trkpt>
      <trkpt lat="42.90879" lon="0.15454">
        <ele>2001.08</ele>
        <time>2021-10-01T11:43:36.000Z</time>
      </trkpt>
      <trkpt lat="42.90872" lon="0.15446">
        <ele>2001.64</ele>
        <time>2021-10-01T11:43:41.000Z</time>
      </trkpt>
      <trkpt lat="42.90867" lon="0.15433">
        <ele>2002.74</ele>
        <time>2021-10-01T11:43:47.000Z</time>
      </trkpt>
      <trkpt lat="42.90862" lon="0.15422">
        <ele>2004</ele>
        <time>2021-10-01T11:43:52.000Z</time>
      </trkpt>
      <trkpt lat="42.90857" lon="0.15409">
        <ele>2005.22</ele>
        <time>2021-10-01T11:43:58.000Z</time>
      </trkpt>
      <trkpt lat="42.90852" lon="0.15396">
        <ele>2006.33</ele>
        <time>2021-10-01T11:44:04.000Z</time>
      </trkpt>
      <trkpt lat="42.90848" lon="0.15385">
        <ele>2007.53</ele>
        <time>2021-10-01T11:44:10.000Z</time>
      </trkpt>
      <trkpt lat="42.90844" lon="0.15372">
        <ele>2008.91</ele>
        <time>2021-10-01T11:44:16.000Z</time>
      </trkpt>
      <trkpt lat="42.90843" lon="0.1536">
        <ele>2010.13</ele>
        <time>2021-10-01T11:44:21.000Z</time>
      </trkpt>
      <trkpt lat="42.90844" lon="0.15345">
        <ele>2011.84</ele>
        <time>2021-10-01T11:44:27.000Z</time>
      </trkpt>
      <trkpt lat="42.90847" lon="0.15333">
        <ele>2013.11</ele>
        <time>2021-10-01T11:44:32.000Z</time>
      </trkpt>
      <trkpt lat="42.90851" lon="0.15321">
        <ele>2014.54</ele>
        <time>2021-10-01T11:44:38.000Z</time>
      </trkpt>
      <trkpt lat="42.90855" lon="0.15309">
        <ele>2015.66</ele>
        <time>2021-10-01T11:44:43.000Z</time>
      </trkpt>
      <trkpt lat="42.90859" lon="0.15297">
        <ele>2016.63</ele>
        <time>2021-10-01T11:44:49.000Z</time>
      </trkpt>
      <trkpt lat="42.90862" lon="0.15285">
        <ele>2018.33</ele>
        <time>2021-10-01T11:44:55.000Z</time>
      </trkpt>
      <trkpt lat="42.90867" lon="0.15273">
        <ele>2019.53</ele>
        <time>2021-10-01T11:45:01.000Z</time>
      </trkpt>
      <trkpt lat="42.90871" lon="0.15262">
        <ele>2021.42</ele>
        <time>2021-10-01T11:45:07.000Z</time>
      </trkpt>
      <trkpt lat="42.90874" lon="0.1525">
        <ele>2022.34</ele>
        <time>2021-10-01T11:45:12.000Z</time>
      </trkpt>
      <trkpt lat="42.90876" lon="0.15237">
        <ele>2023.63</ele>
        <time>2021-10-01T11:45:19.000Z</time>
      </trkpt>
      <trkpt lat="42.90882" lon="0.15227">
        <ele>2026.2</ele>
        <time>2021-10-01T11:45:24.000Z</time>
      </trkpt>
      <trkpt lat="42.90885" lon="0.15215">
        <ele>2027.61</ele>
        <time>2021-10-01T11:45:29.000Z</time>
      </trkpt>
      <trkpt lat="42.90887" lon="0.15202">
        <ele>2028.73</ele>
        <time>2021-10-01T11:45:34.000Z</time>
      </trkpt>
      <trkpt lat="42.9089" lon="0.15189">
        <ele>2029.63</ele>
        <time>2021-10-01T11:45:40.000Z</time>
      </trkpt>
      <trkpt lat="42.90894" lon="0.15177">
        <ele>2030.61</ele>
        <time>2021-10-01T11:45:45.000Z</time>
      </trkpt>
      <trkpt lat="42.90896" lon="0.15164">
        <ele>2031.27</ele>
        <time>2021-10-01T11:45:50.000Z</time>
      </trkpt>
      <trkpt lat="42.90898" lon="0.15151">
        <ele>2031.84</ele>
        <time>2021-10-01T11:45:57.000Z</time>
      </trkpt>
      <trkpt lat="42.909" lon="0.15138">
        <ele>2032.77</ele>
        <time>2021-10-01T11:46:03.000Z</time>
      </trkpt>
      <trkpt lat="42.90901" lon="0.15124">
        <ele>2034.13</ele>
        <time>2021-10-01T11:46:10.000Z</time>
      </trkpt>
      <trkpt lat="42.909" lon="0.1511">
        <ele>2035.6</ele>
        <time>2021-10-01T11:46:16.000Z</time>
      </trkpt>
      <trkpt lat="42.90898" lon="0.15096">
        <ele>2036.47</ele>
        <time>2021-10-01T11:46:22.000Z</time>
      </trkpt>
      <trkpt lat="42.90895" lon="0.15083">
        <ele>2037.48</ele>
        <time>2021-10-01T11:46:28.000Z</time>
      </trkpt>
      <trkpt lat="42.90892" lon="0.15071">
        <ele>2038.07</ele>
        <time>2021-10-01T11:46:34.000Z</time>
      </trkpt>
      <trkpt lat="42.90888" lon="0.15059">
        <ele>2038.67</ele>
        <time>2021-10-01T11:46:40.000Z</time>
      </trkpt>
      <trkpt lat="42.90884" lon="0.15047">
        <ele>2038.99</ele>
        <time>2021-10-01T11:46:46.000Z</time>
      </trkpt>
      <trkpt lat="42.90878" lon="0.15036">
        <ele>2039.17</ele>
        <time>2021-10-01T11:46:51.000Z</time>
      </trkpt>
      <trkpt lat="42.90873" lon="0.15025">
        <ele>2039.42</ele>
        <time>2021-10-01T11:46:57.000Z</time>
      </trkpt>
      <trkpt lat="42.90868" lon="0.15014">
        <ele>2039.48</ele>
        <time>2021-10-01T11:47:03.000Z</time>
      </trkpt>
      <trkpt lat="42.90865" lon="0.15">
        <ele>2040.09</ele>
        <time>2021-10-01T11:47:09.000Z</time>
      </trkpt>
      <trkpt lat="42.90862" lon="0.14987">
        <ele>2040.93</ele>
        <time>2021-10-01T11:47:14.000Z</time>
      </trkpt>
      <trkpt lat="42.90859" lon="0.1497">
        <ele>2042.59</ele>
        <time>2021-10-01T11:47:19.000Z</time>
      </trkpt>
      <trkpt lat="42.90859" lon="0.14958">
        <ele>2043.84</ele>
        <time>2021-10-01T11:47:26.000Z</time>
      </trkpt>
      <trkpt lat="42.90864" lon="0.14944">
        <ele>2044.35</ele>
        <time>2021-10-01T11:47:32.000Z</time>
      </trkpt>
      <trkpt lat="42.90868" lon="0.14931">
        <ele>2044.91</ele>
        <time>2021-10-01T11:47:38.000Z</time>
      </trkpt>
      <trkpt lat="42.90871" lon="0.14919">
        <ele>2045.77</ele>
        <time>2021-10-01T11:47:45.000Z</time>
      </trkpt>
      <trkpt lat="42.90873" lon="0.14905">
        <ele>2046.44</ele>
        <time>2021-10-01T11:47:50.000Z</time>
      </trkpt>
      <trkpt lat="42.90866" lon="0.14893">
        <ele>2047.43</ele>
        <time>2021-10-01T11:47:55.000Z</time>
      </trkpt>
      <trkpt lat="42.90857" lon="0.14891">
        <ele>2048.14</ele>
        <time>2021-10-01T11:48:00.000Z</time>
      </trkpt>
      <trkpt lat="42.90849" lon="0.14888">
        <ele>2047.86</ele>
        <time>2021-10-01T11:48:05.000Z</time>
      </trkpt>
      <trkpt lat="42.90839" lon="0.14888">
        <ele>2047.5</ele>
        <time>2021-10-01T11:48:11.000Z</time>
      </trkpt>
      <trkpt lat="42.90829" lon="0.14888">
        <ele>2047.97</ele>
        <time>2021-10-01T11:48:17.000Z</time>
      </trkpt>
      <trkpt lat="42.90819" lon="0.14889">
        <ele>2048.69</ele>
        <time>2021-10-01T11:48:23.000Z</time>
      </trkpt>
      <trkpt lat="42.90809" lon="0.14888">
        <ele>2048.96</ele>
        <time>2021-10-01T11:48:29.000Z</time>
      </trkpt>
      <trkpt lat="42.908" lon="0.14884">
        <ele>2049.57</ele>
        <time>2021-10-01T11:48:35.000Z</time>
      </trkpt>
      <trkpt lat="42.90791" lon="0.1488">
        <ele>2050.34</ele>
        <time>2021-10-01T11:48:41.000Z</time>
      </trkpt>
      <trkpt lat="42.90783" lon="0.14873">
        <ele>2051.24</ele>
        <time>2021-10-01T11:48:47.000Z</time>
      </trkpt>
      <trkpt lat="42.90773" lon="0.14872">
        <ele>2051.96</ele>
        <time>2021-10-01T11:48:53.000Z</time>
      </trkpt>
      <trkpt lat="42.90763" lon="0.14872">
        <ele>2052.37</ele>
        <time>2021-10-01T11:48:59.000Z</time>
      </trkpt>
      <trkpt lat="42.90752" lon="0.14873">
        <ele>2053.24</ele>
        <time>2021-10-01T11:49:05.000Z</time>
      </trkpt>
      <trkpt lat="42.90742" lon="0.14873">
        <ele>2054.16</ele>
        <time>2021-10-01T11:49:11.000Z</time>
      </trkpt>
      <trkpt lat="42.90732" lon="0.14869">
        <ele>2055.44</ele>
        <time>2021-10-01T11:49:18.000Z</time>
      </trkpt>
      <trkpt lat="42.90724" lon="0.14861">
        <ele>2056.57</ele>
        <time>2021-10-01T11:49:25.000Z</time>
      </trkpt>
      <trkpt lat="42.90716" lon="0.14855">
        <ele>2057.36</ele>
        <time>2021-10-01T11:49:30.000Z</time>
      </trkpt>
      <trkpt lat="42.90708" lon="0.14847">
        <ele>2058.26</ele>
        <time>2021-10-01T11:49:36.000Z</time>
      </trkpt>
      <trkpt lat="42.90699" lon="0.1484">
        <ele>2058.94</ele>
        <time>2021-10-01T11:49:42.000Z</time>
      </trkpt>
      <trkpt lat="42.9069" lon="0.14834">
        <ele>2060.04</ele>
        <time>2021-10-01T11:49:48.000Z</time>
      </trkpt>
      <trkpt lat="42.9068" lon="0.14828">
        <ele>2061.23</ele>
        <time>2021-10-01T11:49:54.000Z</time>
      </trkpt>
      <trkpt lat="42.90672" lon="0.14822">
        <ele>2062.53</ele>
        <time>2021-10-01T11:50:00.000Z</time>
      </trkpt>
      <trkpt lat="42.90662" lon="0.1482">
        <ele>2063.63</ele>
        <time>2021-10-01T11:50:06.000Z</time>
      </trkpt>
      <trkpt lat="42.90652" lon="0.14817">
        <ele>2065.01</ele>
        <time>2021-10-01T11:50:13.000Z</time>
      </trkpt>
      <trkpt lat="42.90643" lon="0.14816">
        <ele>2065.59</ele>
        <time>2021-10-01T11:50:19.000Z</time>
      </trkpt>
      <trkpt lat="42.90634" lon="0.14821">
        <ele>2066.14</ele>
        <time>2021-10-01T11:50:24.000Z</time>
      </trkpt>
      <trkpt lat="42.90624" lon="0.14825">
        <ele>2066.89</ele>
        <time>2021-10-01T11:50:30.000Z</time>
      </trkpt>
      <trkpt lat="42.90614" lon="0.14831">
        <ele>2067.83</ele>
        <time>2021-10-01T11:50:36.000Z</time>
      </trkpt>
      <trkpt lat="42.90605" lon="0.14827">
        <ele>2069.3</ele>
        <time>2021-10-01T11:50:42.000Z</time>
      </trkpt>
      <trkpt lat="42.90604" lon="0.14814">
        <ele>2070.46</ele>
        <time>2021-10-01T11:50:48.000Z</time>
      </trkpt>
      <trkpt lat="42.9061" lon="0.14803">
        <ele>2071.31</ele>
        <time>2021-10-01T11:50:53.000Z</time>
      </trkpt>
      <trkpt lat="42.90619" lon="0.14798">
        <ele>2071.9</ele>
        <time>2021-10-01T11:50:58.000Z</time>
      </trkpt>
      <trkpt lat="42.90628" lon="0.14796">
        <ele>2072.17</ele>
        <time>2021-10-01T11:51:04.000Z</time>
      </trkpt>
      <trkpt lat="42.90638" lon="0.14791">
        <ele>2072.86</ele>
        <time>2021-10-01T11:51:10.000Z</time>
      </trkpt>
      <trkpt lat="42.90647" lon="0.14787">
        <ele>2073.39</ele>
        <time>2021-10-01T11:51:16.000Z</time>
      </trkpt>
      <trkpt lat="42.90657" lon="0.14785">
        <ele>2074.02</ele>
        <time>2021-10-01T11:51:22.000Z</time>
      </trkpt>
      <trkpt lat="42.90667" lon="0.14784">
        <ele>2075.08</ele>
        <time>2021-10-01T11:51:29.000Z</time>
      </trkpt>
      <trkpt lat="42.90677" lon="0.14781">
        <ele>2075.08</ele>
        <time>2021-10-01T11:51:35.000Z</time>
      </trkpt>
      <trkpt lat="42.90687" lon="0.14778">
        <ele>2075.93</ele>
        <time>2021-10-01T11:51:41.000Z</time>
      </trkpt>
      <trkpt lat="42.90696" lon="0.14776">
        <ele>2077.28</ele>
        <time>2021-10-01T11:51:47.000Z</time>
      </trkpt>
      <trkpt lat="42.90706" lon="0.14773">
        <ele>2077.77</ele>
        <time>2021-10-01T11:51:52.000Z</time>
      </trkpt>
      <trkpt lat="42.90715" lon="0.14771">
        <ele>2078.37</ele>
        <time>2021-10-01T11:51:57.000Z</time>
      </trkpt>
      <trkpt lat="42.90725" lon="0.14767">
        <ele>2079.47</ele>
        <time>2021-10-01T11:52:04.000Z</time>
      </trkpt>
      <trkpt lat="42.90734" lon="0.14765">
        <ele>2080.07</ele>
        <time>2021-10-01T11:52:11.000Z</time>
      </trkpt>
      <trkpt lat="42.90743" lon="0.14761">
        <ele>2080.83</ele>
        <time>2021-10-01T11:52:17.000Z</time>
      </trkpt>
      <trkpt lat="42.90752" lon="0.14753">
        <ele>2081.76</ele>
        <time>2021-10-01T11:52:24.000Z</time>
      </trkpt>
      <trkpt lat="42.90759" lon="0.14745">
        <ele>2082.47</ele>
        <time>2021-10-01T11:52:30.000Z</time>
      </trkpt>
      <trkpt lat="42.90767" lon="0.14737">
        <ele>2083.56</ele>
        <time>2021-10-01T11:52:36.000Z</time>
      </trkpt>
      <trkpt lat="42.90774" lon="0.14726">
        <ele>2084.07</ele>
        <time>2021-10-01T11:52:42.000Z</time>
      </trkpt>
      <trkpt lat="42.90782" lon="0.14717">
        <ele>2084.83</ele>
        <time>2021-10-01T11:52:48.000Z</time>
      </trkpt>
      <trkpt lat="42.90788" lon="0.14707">
        <ele>2085.56</ele>
        <time>2021-10-01T11:52:54.000Z</time>
      </trkpt>
      <trkpt lat="42.90795" lon="0.14699">
        <ele>2086.16</ele>
        <time>2021-10-01T11:53:00.000Z</time>
      </trkpt>
      <trkpt lat="42.90802" lon="0.14691">
        <ele>2086.85</ele>
        <time>2021-10-01T11:53:05.000Z</time>
      </trkpt>
      <trkpt lat="42.9081" lon="0.14681">
        <ele>2087.93</ele>
        <time>2021-10-01T11:53:12.000Z</time>
      </trkpt>
      <trkpt lat="42.90817" lon="0.14673">
        <ele>2089.04</ele>
        <time>2021-10-01T11:53:18.000Z</time>
      </trkpt>
      <trkpt lat="42.90823" lon="0.14664">
        <ele>2089.68</ele>
        <time>2021-10-01T11:53:24.000Z</time>
      </trkpt>
      <trkpt lat="42.9083" lon="0.14655">
        <ele>2090.56</ele>
        <time>2021-10-01T11:53:31.000Z</time>
      </trkpt>
      <trkpt lat="42.90837" lon="0.14646">
        <ele>2091.44</ele>
        <time>2021-10-01T11:53:37.000Z</time>
      </trkpt>
      <trkpt lat="42.90845" lon="0.14638">
        <ele>2093.34</ele>
        <time>2021-10-01T11:53:44.000Z</time>
      </trkpt>
      <trkpt lat="42.90851" lon="0.14629">
        <ele>2094.6</ele>
        <time>2021-10-01T11:53:49.000Z</time>
      </trkpt>
      <trkpt lat="42.90859" lon="0.14619">
        <ele>2096.22</ele>
        <time>2021-10-01T11:53:55.000Z</time>
      </trkpt>
      <trkpt lat="42.90866" lon="0.1461">
        <ele>2097.63</ele>
        <time>2021-10-01T11:54:02.000Z</time>
      </trkpt>
      <trkpt lat="42.9087" lon="0.14597">
        <ele>2099.62</ele>
        <time>2021-10-01T11:54:09.000Z</time>
      </trkpt>
      <trkpt lat="42.90871" lon="0.14585">
        <ele>2101.87</ele>
        <time>2021-10-01T11:54:15.000Z</time>
      </trkpt>
      <trkpt lat="42.90866" lon="0.14573">
        <ele>2106</ele>
        <time>2021-10-01T11:54:23.000Z</time>
      </trkpt>
      <trkpt lat="42.90861" lon="0.14561">
        <ele>2108.55</ele>
        <time>2021-10-01T11:54:28.000Z</time>
      </trkpt>
      <trkpt lat="42.90854" lon="0.1455">
        <ele>2110.83</ele>
        <time>2021-10-01T11:54:33.000Z</time>
      </trkpt>
      <trkpt lat="42.90848" lon="0.14538">
        <ele>2112.9</ele>
        <time>2021-10-01T11:54:39.000Z</time>
      </trkpt>
      <trkpt lat="42.90842" lon="0.14528">
        <ele>2115</ele>
        <time>2021-10-01T11:54:45.000Z</time>
      </trkpt>
      <trkpt lat="42.90836" lon="0.14515">
        <ele>2116.56</ele>
        <time>2021-10-01T11:54:51.000Z</time>
      </trkpt>
    </trkseg>
  </trk>
</gpx>